Home > Products > Valid Products > OSO

000
SXUS55 KMSO 042103
OSOMSO
MONTANA AWOS SUMMARY
NATIONAL WEATHER SERVICE MISSOULA MT
302 PM MDT FRI SEP 4 2015

Montana AWOS Reports

MALTA       |KM75 042055Z AUTO 33011G19KT 40SM 16/09 A2993 RMK AO1 T01610094
PLAINS      |KS34 042055Z AUTO 05004KT 40SM 20/03 A2992 RMK AO1 T02000033






000
SXUS55 KMSO 042043
OSOMSO
MONTANA AWOS SUMMARY
NATIONAL WEATHER SERVICE MISSOULA MT
243 PM MDT FRI SEP 4 2015

Montana AWOS Reports

TWIN BRIDGES|K7S1 042035Z AUTO 33012G17KT 40SM 14/05 A2995 RMK AO1 T01390050
ROUNDUP     |KRPX 042035Z AUTO 36009G16KT 40SM 18/07 A2985 RMK AO1 T01830067
MALTA       |KM75 042035Z AUTO 34009G14KT 40SM 17/09 A2992 RMK AO1 T01720089
LAUREL      |K6S8 042035Z AUTO 03004KT 40SM 20/07 A2991 RMK AO1 T02000072






000
SXUS55 KMSO 042023
OSOMSO
MONTANA AWOS SUMMARY
NATIONAL WEATHER SERVICE MISSOULA MT
223 PM MDT FRI SEP 4 2015

Montana AWOS Reports

TWIN BRIDGES|K7S1 042015Z AUTO 33014G18KT 40SM 13/05 A2995 RMK AO1 T01330050
MALTA       |KM75 042015Z AUTO 33010KT 40SM 18/09 A2992 RMK AO1 T01780094
LAUREL      |K6S8 042015Z AUTO 00000KT 40SM 19/07 A2991 RMK AO1 T01940072
ROUNDUP     |KRPX 042015Z AUTO 36008KT 40SM 18/06 A2985 RMK AO1 T01780061






000
SXUS55 KMSO 042023
OSOMSO
MONTANA AWOS SUMMARY
NATIONAL WEATHER SERVICE MISSOULA MT
223 PM MDT FRI SEP 4 2015

Montana AWOS Reports

TWIN BRIDGES|K7S1 042015Z AUTO 33014G18KT 40SM 13/05 A2995 RMK AO1 T01330050
MALTA       |KM75 042015Z AUTO 33010KT 40SM 18/09 A2992 RMK AO1 T01780094
LAUREL      |K6S8 042015Z AUTO 00000KT 40SM 19/07 A2991 RMK AO1 T01940072
ROUNDUP     |KRPX 042015Z AUTO 36008KT 40SM 18/06 A2985 RMK AO1 T01780061






000
SXUS55 KMSO 042003
OSOMSO
MONTANA AWOS SUMMARY
NATIONAL WEATHER SERVICE MISSOULA MT
203 PM MDT FRI SEP 4 2015

Montana AWOS Reports

TWIN BRIDGES|K7S1 041955Z AUTO 34015G19KT 40SM 13/06 A2995 RMK AO1 T01330056
ROUNDUP     |KRPX 041955Z AUTO 35008KT 40SM 17/06 A2986 RMK AO1 T01720056
MALTA       |KM75 041955Z AUTO 34007KT 40SM 18/09 A2991 RMK AO1 T01780089
PLAINS      |KS34 041955Z AUTO 00000KT 40SM 18/05 A2995 RMK AO1 T01780050
LAUREL      |K6S8 041955Z AUTO 00000KT 40SM 19/08 A2991 RMK AO1 T01890078
SCOBEY      |K9S2 041955Z AUTO 01018G24KT 40SM 19/08 A2991 RMK AO1 T01890083
EKALAKA     |K97M 041955Z AUTO 00000KT 40SM 23/12 A2987 RMK AO1 T02280122






000
SXUS55 KMSO 041943
OSOMSO
MONTANA AWOS SUMMARY
NATIONAL WEATHER SERVICE MISSOULA MT
143 PM MDT FRI SEP 4 2015

Montana AWOS Reports

LAUREL      |K6S8 041935Z AUTO 08004KT 40SM 18/08 A2991 RMK AO1 T01830078
ROUNDUP     |KRPX 041935Z AUTO 34008KT 40SM 17/06 A2986 RMK AO1 T01670061






000
SXUS55 KMSO 041943
OSOMSO
MONTANA AWOS SUMMARY
NATIONAL WEATHER SERVICE MISSOULA MT
143 PM MDT FRI SEP 4 2015

Montana AWOS Reports

LAUREL      |K6S8 041935Z AUTO 08004KT 40SM 18/08 A2991 RMK AO1 T01830078
ROUNDUP     |KRPX 041935Z AUTO 34008KT 40SM 17/06 A2986 RMK AO1 T01670061






000
SXUS55 KMSO 041923
OSOMSO
MONTANA AWOS SUMMARY
NATIONAL WEATHER SERVICE MISSOULA MT
123 PM MDT FRI SEP 4 2015

Montana AWOS Reports

MALTA       |KM75 041915Z AUTO 36009G13KT 40SM 18/08 A2991 RMK AO1 T01780083
LAUREL      |K6S8 041915Z AUTO 05004KT 40SM 18/07 A2992 RMK AO1 T01780072
TWIN BRIDGES|K7S1 041915Z AUTO 35013G19KT 40SM 12/06 A2995 RMK AO1 T01220056
ROUNDUP     |KRPX 041915Z AUTO 00000KT 40SM 17/06 A2986 RMK AO1 T01670061






000
SXUS55 KMSO 041903
OSOMSO
MONTANA AWOS SUMMARY
NATIONAL WEATHER SERVICE MISSOULA MT
103 PM MDT FRI SEP 4 2015

Montana AWOS Reports

LAUREL      |K6S8 041855Z AUTO 05004KT 40SM 18/08 A2992 RMK AO1 T01780078
TWIN BRIDGES|K7S1 041855Z AUTO 34011G18KT 40SM 12/05 A2996 RMK AO1 T01170050
ROUNDUP     |KRPX 041855Z AUTO 34004KT 40SM 16/06 A2986 RMK AO1 T01610061
SCOBEY      |K9S2 041855Z AUTO 02015G21KT 40SM 19/08 A2992 RMK AO1 T01940083
EKALAKA     |K97M 041855Z AUTO VRB04KT 40SM 22/12 A2989 RMK AO1 T02170122






000
SXUS55 KMSO 041843
OSOMSO
MONTANA AWOS SUMMARY
NATIONAL WEATHER SERVICE MISSOULA MT
1243 PM MDT FRI SEP 4 2015

Montana AWOS Reports

LAUREL      |K6S8 041835Z AUTO 00000KT 40SM 17/08 A2992 RMK AO1 T01720078
TWIN BRIDGES|K7S1 041835Z AUTO 34013G19KT 40SM 12/05 A2996 RMK AO1 T01170050
ROUNDUP     |KRPX 041835Z AUTO 00000KT 40SM 16/06 A2987 RMK AO1 T01560061






000
SXUS55 KMSO 041843
OSOMSO
MONTANA AWOS SUMMARY
NATIONAL WEATHER SERVICE MISSOULA MT
1243 PM MDT FRI SEP 4 2015

Montana AWOS Reports

LAUREL      |K6S8 041835Z AUTO 00000KT 40SM 17/08 A2992 RMK AO1 T01720078
TWIN BRIDGES|K7S1 041835Z AUTO 34013G19KT 40SM 12/05 A2996 RMK AO1 T01170050
ROUNDUP     |KRPX 041835Z AUTO 00000KT 40SM 16/06 A2987 RMK AO1 T01560061






000
SXUS55 KMSO 041823
OSOMSO
MONTANA AWOS SUMMARY
NATIONAL WEATHER SERVICE MISSOULA MT
1223 PM MDT FRI SEP 4 2015

Montana AWOS Reports

LAUREL      |K6S8 041815Z AUTO 00000KT 40SM 16/08 A2993 RMK AO1 T01610078
TWIN BRIDGES|K7S1 041815Z AUTO 35013G17KT 40SM 12/06 A2996 RMK AO1 T01170056
ROUNDUP     |KRPX 041815Z AUTO 34006KT 40SM 16/06 A2987 RMK AO1 T01560061
MALTA       |KM75 041815Z AUTO 35008KT 40SM 17/08 A2993 RMK AO1 T01720083






000
SXUS55 KMSO 041803
OSOMSO
MONTANA AWOS SUMMARY
NATIONAL WEATHER SERVICE MISSOULA MT
1203 PM MDT FRI SEP 4 2015

Montana AWOS Reports

LAUREL      |K6S8 041755Z AUTO 00000KT 40SM 16/07 A2994 RMK AO1 T01610072
TWIN BRIDGES|K7S1 041755Z AUTO 34010G15KT 40SM 11/06 A2996 RMK AO1 T01110056
ROUNDUP     |KRPX 041755Z AUTO 34004KT 40SM 15/06 A2987 RMK AO1 T01500061
EKALAKA     |K97M 041755Z AUTO 30004KT 40SM 20/12 A2989 RMK AO1 T02000122
PLAINS      |KS34 041755Z AUTO 00000KT 40SM 15/06 A2997 RMK AO1 T01500056
SCOBEY      |K9S2 041755Z AUTO 01019G27KT 40SM 18/07 A2992 RMK AO1 T01780067






000
SXUS55 KMSO 041803
OSOMSO
MONTANA AWOS SUMMARY
NATIONAL WEATHER SERVICE MISSOULA MT
1203 PM MDT FRI SEP 4 2015

Montana AWOS Reports

LAUREL      |K6S8 041755Z AUTO 00000KT 40SM 16/07 A2994 RMK AO1 T01610072
TWIN BRIDGES|K7S1 041755Z AUTO 34010G15KT 40SM 11/06 A2996 RMK AO1 T01110056
ROUNDUP     |KRPX 041755Z AUTO 34004KT 40SM 15/06 A2987 RMK AO1 T01500061
EKALAKA     |K97M 041755Z AUTO 30004KT 40SM 20/12 A2989 RMK AO1 T02000122
PLAINS      |KS34 041755Z AUTO 00000KT 40SM 15/06 A2997 RMK AO1 T01500056
SCOBEY      |K9S2 041755Z AUTO 01019G27KT 40SM 18/07 A2992 RMK AO1 T01780067






000
SXUS55 KMSO 041743
OSOMSO
MONTANA AWOS SUMMARY
NATIONAL WEATHER SERVICE MISSOULA MT
1143 AM MDT FRI SEP 4 2015

Montana AWOS Reports

ROUNDUP     |KRPX 041735Z AUTO 00000KT 40SM 14/06 A2988 RMK AO1 T01390056
MALTA       |KM75 041735Z AUTO 01008KT 40SM 17/08 A2993 RMK AO1 T01720083
LAUREL      |K6S8 041735Z AUTO 00000KT 40SM 16/07 A2994 RMK AO1 T01610072






000
SXUS55 KMSO 041723
OSOMSO
MONTANA AWOS SUMMARY
NATIONAL WEATHER SERVICE MISSOULA MT
1122 AM MDT FRI SEP 4 2015

Montana AWOS Reports

TWIN BRIDGES|K7S1 041715Z AUTO 35011G17KT 40SM 11/06 A2996 RMK AO1 T01110056
ROUNDUP     |KRPX 041715Z AUTO 34004KT 40SM 13/06 A2988 RMK AO1 T01330061
MALTA       |KM75 041715Z AUTO 02007KT 40SM 17/08 A2993 RMK AO1 T01720083
LAUREL      |K6S8 041715Z AUTO 40SM 16/07 A2995 RMK AO1 T01560072






000
SXUS55 KMSO 041723
OSOMSO
MONTANA AWOS SUMMARY
NATIONAL WEATHER SERVICE MISSOULA MT
1122 AM MDT FRI SEP 4 2015

Montana AWOS Reports

TWIN BRIDGES|K7S1 041715Z AUTO 35011G17KT 40SM 11/06 A2996 RMK AO1 T01110056
ROUNDUP     |KRPX 041715Z AUTO 34004KT 40SM 13/06 A2988 RMK AO1 T01330061
MALTA       |KM75 041715Z AUTO 02007KT 40SM 17/08 A2993 RMK AO1 T01720083
LAUREL      |K6S8 041715Z AUTO 40SM 16/07 A2995 RMK AO1 T01560072






000
SXUS55 KMSO 041703
OSOMSO
MONTANA AWOS SUMMARY
NATIONAL WEATHER SERVICE MISSOULA MT
1103 AM MDT FRI SEP 4 2015

Montana AWOS Reports

TWIN BRIDGES|K7S1 041655Z AUTO 34012G17KT 40SM 11/06 A2995 RMK AO1 T01110056
MALTA       |KM75 041655Z AUTO 02007KT 40SM 17/08 A2993 RMK AO1 T01720083
SCOBEY      |K9S2 041655Z AUTO 36017G27KT 40SM 16/06 A2993 RMK AO1 T01610061
EKALAKA     |K97M 041655Z AUTO 30006KT 40SM 19/12 A2988 RMK AO1 T01890117
PLAINS      |KS34 041655Z AUTO 00000KT 40SM 13/07 A2999 RMK AO1 T01280067
LAUREL      |K6S8 041655Z AUTO 00000KT 40SM 15/07 A2995 RMK AO1 T01500072
ROUNDUP     |KRPX 041655Z AUTO 34004KT 40SM 13/06 A2989 RMK AO1 T01330061






000
SXUS55 KMSO 041703
OSOMSO
MONTANA AWOS SUMMARY
NATIONAL WEATHER SERVICE MISSOULA MT
1103 AM MDT FRI SEP 4 2015

Montana AWOS Reports

TWIN BRIDGES|K7S1 041655Z AUTO 34012G17KT 40SM 11/06 A2995 RMK AO1 T01110056
MALTA       |KM75 041655Z AUTO 02007KT 40SM 17/08 A2993 RMK AO1 T01720083
SCOBEY      |K9S2 041655Z AUTO 36017G27KT 40SM 16/06 A2993 RMK AO1 T01610061
EKALAKA     |K97M 041655Z AUTO 30006KT 40SM 19/12 A2988 RMK AO1 T01890117
PLAINS      |KS34 041655Z AUTO 00000KT 40SM 13/07 A2999 RMK AO1 T01280067
LAUREL      |K6S8 041655Z AUTO 00000KT 40SM 15/07 A2995 RMK AO1 T01500072
ROUNDUP     |KRPX 041655Z AUTO 34004KT 40SM 13/06 A2989 RMK AO1 T01330061






000
SXUS55 KMSO 041643
OSOMSO
MONTANA AWOS SUMMARY
NATIONAL WEATHER SERVICE MISSOULA MT
1043 AM MDT FRI SEP 4 2015

Montana AWOS Reports

LAUREL      |K6S8 041635Z AUTO 00000KT 40SM 14/07 A2995 RMK AO1 T01440072
ROUNDUP     |KRPX 041635Z AUTO 00000KT 40SM 13/06 A2990 RMK AO1 T01280061






000
SXUS55 KMSO 041643
OSOMSO
MONTANA AWOS SUMMARY
NATIONAL WEATHER SERVICE MISSOULA MT
1043 AM MDT FRI SEP 4 2015

Montana AWOS Reports

LAUREL      |K6S8 041635Z AUTO 00000KT 40SM 14/07 A2995 RMK AO1 T01440072
ROUNDUP     |KRPX 041635Z AUTO 00000KT 40SM 13/06 A2990 RMK AO1 T01280061






000
SXUS55 KMSO 041624
OSOMSO
MONTANA AWOS SUMMARY
NATIONAL WEATHER SERVICE MISSOULA MT
1023 AM MDT FRI SEP 4 2015

Montana AWOS Reports

MALTA       |KM75 041615Z AUTO 01008KT 40SM 16/07 A2994 RMK AO1 T01610072
LAUREL      |K6S8 041615Z AUTO 00000KT 40SM 14/07 A2996 RMK AO1 T01390067
TWIN BRIDGES|K7S1 041615Z AUTO 34006KT 40SM 11/06 A2996 RMK AO1 T01110061
ROUNDUP     |KRPX 041615Z AUTO 34006KT 40SM 12/06 A2990 RMK AO1 T01220061






000
SXUS55 KMSO 041613
OSOMSO
MONTANA AWOS SUMMARY
NATIONAL WEATHER SERVICE MISSOULA MT
1012 AM MDT FRI SEP 4 2015

Montana AWOS Reports

LAUREL      |K6S8 041555Z AUTO 03004KT 40SM 14/07 A2996 RMK AO1 T01390072
TWIN BRIDGES|K7S1 041555Z AUTO 34005KT 40SM 11/06 A2996 RMK AO1 T01060056
ROUNDUP     |KRPX 041555Z AUTO 00000KT 40SM 12/07 A2990 RMK AO1 T01220067
SCOBEY      |K9S2 041555Z AUTO 34014KT 40SM 14/06 A2994 RMK AO1 T01390061
PLAINS      |KS34 041555Z AUTO 00000KT 25SM 09/06 A3000 RMK AO1 T00940056






000
SXUS55 KMSO 041603
OSOMSO
MONTANA AWOS SUMMARY
NATIONAL WEATHER SERVICE MISSOULA MT
1003 AM MDT FRI SEP 4 2015

Montana AWOS Reports

MALTA       |KM75 041555Z AUTO 01008KT 40SM 16/07 A2994 RMK AO1 T01560067
EKALAKA     |K97M 041555Z AUTO 30008KT 40SM 18/12 A2987 RMK AO1 T01830117






000
SXUS55 KMSO 041603
OSOMSO
MONTANA AWOS SUMMARY
NATIONAL WEATHER SERVICE MISSOULA MT
1003 AM MDT FRI SEP 4 2015

Montana AWOS Reports

MALTA       |KM75 041555Z AUTO 01008KT 40SM 16/07 A2994 RMK AO1 T01560067
EKALAKA     |K97M 041555Z AUTO 30008KT 40SM 18/12 A2987 RMK AO1 T01830117






000
SXUS55 KMSO 041544
OSOMSO
MONTANA AWOS SUMMARY
NATIONAL WEATHER SERVICE MISSOULA MT
943 AM MDT FRI SEP 4 2015

Montana AWOS Reports

MALTA       |KM75 041535Z AUTO 03007KT 40SM 14/07 A2994 RMK AO1 T01440067
LAUREL      |K6S8 041535Z AUTO 00000KT 40SM 13/07 A2996 RMK AO1 T01330072
TWIN BRIDGES|K7S1 041535Z AUTO 34005KT 40SM 11/06 A2996 RMK AO1 T01060061
ROUNDUP     |KRPX 041535Z AUTO 34005KT 40SM 12/06 A2990 RMK AO1 T01170061






000
SXUS55 KMSO 041524
OSOMSO
MONTANA AWOS SUMMARY
NATIONAL WEATHER SERVICE MISSOULA MT
923 AM MDT FRI SEP 4 2015

Montana AWOS Reports

MALTA       |KM75 041515Z AUTO 02006KT 40SM 14/06 A2995 RMK AO1 T01390061
LAUREL      |K6S8 041515Z AUTO 00000KT 40SM 13/07 A2996 RMK AO1 T01280072
TWIN BRIDGES|K7S1 041515Z AUTO 30005KT 40SM 11/06 A2996 RMK AO1 T01060061
ROUNDUP     |KRPX 041515Z AUTO 34007KT 40SM 11/06 A2990 RMK AO1 T01110056






000
SXUS55 KMSO 041503
OSOMSO
MONTANA AWOS SUMMARY
NATIONAL WEATHER SERVICE MISSOULA MT
903 AM MDT FRI SEP 4 2015

Montana AWOS Reports

LAUREL      |K6S8 041455Z AUTO 36004KT 40SM 12/07 A2997 RMK AO1 T01220072
TWIN BRIDGES|K7S1 041455Z AUTO 00000KT 40SM 10/06 A2996 RMK AO1 T01000056
ROUNDUP     |KRPX 041455Z AUTO 34006KT 40SM 11/06 A2991 RMK AO1 T01110061
SCOBEY      |K9S2 041455Z AUTO 34014G18KT 40SM 13/06 A2995 RMK AO1 T01330056
PLAINS      |KS34 041455Z AUTO 00000KT 25SM 08/05 A3000 RMK AO1 T00830050
EKALAKA     |K97M 041455Z AUTO 34007KT 40SM 17/12 A2987 RMK AO1 T01670122






000
SXUS55 KMSO 041443
OSOMSO
MONTANA AWOS SUMMARY
NATIONAL WEATHER SERVICE MISSOULA MT
843 AM MDT FRI SEP 4 2015

Montana AWOS Reports

TWIN BRIDGES|K7S1 041435Z AUTO 05004KT 40SM 09/06 A2996 RMK AO1 T00940056
ROUNDUP     |KRPX 041435Z AUTO 36006KT 40SM 11/06 A2991 RMK AO1 T01110061
LAUREL      |K6S8 041435Z AUTO 35005KT 40SM 12/07 A2996 RMK AO1 T01170067






000
SXUS55 KMSO 041443
OSOMSO
MONTANA AWOS SUMMARY
NATIONAL WEATHER SERVICE MISSOULA MT
843 AM MDT FRI SEP 4 2015

Montana AWOS Reports

TWIN BRIDGES|K7S1 041435Z AUTO 05004KT 40SM 09/06 A2996 RMK AO1 T00940056
ROUNDUP     |KRPX 041435Z AUTO 36006KT 40SM 11/06 A2991 RMK AO1 T01110061
LAUREL      |K6S8 041435Z AUTO 35005KT 40SM 12/07 A2996 RMK AO1 T01170067






000
SXUS55 KMSO 041423
OSOMSO
MONTANA AWOS SUMMARY
NATIONAL WEATHER SERVICE MISSOULA MT
822 AM MDT FRI SEP 4 2015

Montana AWOS Reports

TWIN BRIDGES|K7S1 041415Z AUTO 00000KT 40SM 10/06 A2996 RMK AO1 T01000061
MALTA       |KM75 041415Z AUTO 02006KT 40SM 12/06 A2995 RMK AO1 T01170061
LAUREL      |K6S8 041415Z AUTO 00000KT 40SM 11/07 A2997 RMK AO1 T01110067
ROUNDUP     |KRPX 041415Z AUTO 34011G15KT 40SM 11/06 A2991 RMK AO1 T01110056






000
SXUS55 KMSO 041413
OSOMSO
MONTANA AWOS SUMMARY
NATIONAL WEATHER SERVICE MISSOULA MT
813 AM MDT FRI SEP 4 2015

Montana AWOS Reports

SCOBEY      |K9S2 041355Z AUTO 34012G17KT 40SM 13/06 A2994 RMK AO1 T01330056
PLAINS      |KS34 041355Z AUTO 00000KT 25SM 07/04 A3000 RMK AO1 T00720044






000
SXUS55 KMSO 041403
OSOMSO
MONTANA AWOS SUMMARY
NATIONAL WEATHER SERVICE MISSOULA MT
802 AM MDT FRI SEP 4 2015

Montana AWOS Reports

TWIN BRIDGES|K7S1 041355Z AUTO 00000KT 40SM 10/06 A2995 RMK AO1 T01000056
MALTA       |KM75 041355Z AUTO 02006KT 40SM 11/06 A2995 RMK AO1 T01060056






000
SXUS55 KMSO 041403
OSOMSO
MONTANA AWOS SUMMARY
NATIONAL WEATHER SERVICE MISSOULA MT
802 AM MDT FRI SEP 4 2015

Montana AWOS Reports

TWIN BRIDGES|K7S1 041355Z AUTO 00000KT 40SM 10/06 A2995 RMK AO1 T01000056
MALTA       |KM75 041355Z AUTO 02006KT 40SM 11/06 A2995 RMK AO1 T01060056






000
SXUS55 KMSO 041343
OSOMSO
MONTANA AWOS SUMMARY
NATIONAL WEATHER SERVICE MISSOULA MT
743 AM MDT FRI SEP 4 2015

Montana AWOS Reports

LAUREL      |K6S8 041335Z AUTO 00000KT 40SM 11/07 A2996 RMK AO1 T01110067
ROUNDUP     |KRPX 041335Z AUTO 35007KT 40SM 10/04 A2990 RMK AO1 T01000044






000
SXUS55 KMSO 041343
OSOMSO
MONTANA AWOS SUMMARY
NATIONAL WEATHER SERVICE MISSOULA MT
743 AM MDT FRI SEP 4 2015

Montana AWOS Reports

LAUREL      |K6S8 041335Z AUTO 00000KT 40SM 11/07 A2996 RMK AO1 T01110067
ROUNDUP     |KRPX 041335Z AUTO 35007KT 40SM 10/04 A2990 RMK AO1 T01000044






000
SXUS55 KMSO 041323
OSOMSO
MONTANA AWOS SUMMARY
NATIONAL WEATHER SERVICE MISSOULA MT
723 AM MDT FRI SEP 4 2015

Montana AWOS Reports

MALTA       |KM75 041315Z AUTO 36008KT 40SM 10/06 A2993 RMK AO1 T01000056
LAUREL      |K6S8 041315Z AUTO 00000KT 40SM 10/06 A2996 RMK AO1 T01000061
TWIN BRIDGES|K7S1 041315Z AUTO 01006KT 40SM 09/06 A2995 RMK AO1 T00940061
ROUNDUP     |KRPX 041315Z AUTO 36007KT 40SM 09/04 A2989 RMK AO1 T00940044






000
SXUS55 KMSO 041323
OSOMSO
MONTANA AWOS SUMMARY
NATIONAL WEATHER SERVICE MISSOULA MT
723 AM MDT FRI SEP 4 2015

Montana AWOS Reports

MALTA       |KM75 041315Z AUTO 36008KT 40SM 10/06 A2993 RMK AO1 T01000056
LAUREL      |K6S8 041315Z AUTO 00000KT 40SM 10/06 A2996 RMK AO1 T01000061
TWIN BRIDGES|K7S1 041315Z AUTO 01006KT 40SM 09/06 A2995 RMK AO1 T00940061
ROUNDUP     |KRPX 041315Z AUTO 36007KT 40SM 09/04 A2989 RMK AO1 T00940044






000
SXUS55 KMSO 041303
OSOMSO
MONTANA AWOS SUMMARY
NATIONAL WEATHER SERVICE MISSOULA MT
703 AM MDT FRI SEP 4 2015

Montana AWOS Reports

MALTA       |KM75 041255Z AUTO 34007KT 40SM 09/05 A2994 RMK AO1 T00940050






000
SXUS55 KMSO 041243
OSOMSO
MONTANA AWOS SUMMARY
NATIONAL WEATHER SERVICE MISSOULA MT
643 AM MDT FRI SEP 4 2015

Montana AWOS Reports

LAUREL      |K6S8 041235Z AUTO 31004KT 40SM 10/06 A2995 RMK AO1 T01000061
TWIN BRIDGES|K7S1 041235Z AUTO 35009KT 40SM 09/06 A2994 RMK AO1 T00890056
ROUNDUP     |KRPX 041235Z AUTO 34008KT 40SM 10/06 A2988 RMK AO1 T01000056






000
SXUS55 KMSO 041243
OSOMSO
MONTANA AWOS SUMMARY
NATIONAL WEATHER SERVICE MISSOULA MT
643 AM MDT FRI SEP 4 2015

Montana AWOS Reports

LAUREL      |K6S8 041235Z AUTO 31004KT 40SM 10/06 A2995 RMK AO1 T01000061
TWIN BRIDGES|K7S1 041235Z AUTO 35009KT 40SM 09/06 A2994 RMK AO1 T00890056
ROUNDUP     |KRPX 041235Z AUTO 34008KT 40SM 10/06 A2988 RMK AO1 T01000056






000
SXUS55 KMSO 041223
OSOMSO
MONTANA AWOS SUMMARY
NATIONAL WEATHER SERVICE MISSOULA MT
623 AM MDT FRI SEP 4 2015

Montana AWOS Reports

LAUREL      |K6S8 041215Z AUTO 32005KT 40SM 10/06 A2994 RMK AO1 T01000061
TWIN BRIDGES|K7S1 041215Z AUTO 36007KT 40SM 09/06 A2994 RMK AO1 T00890056
ROUNDUP     |KRPX 041215Z AUTO 34009G15KT 40SM 10/06 A2987 RMK AO1 T01000056
MALTA       |KM75 041215Z AUTO 35009G16KT 15SM 09/05 A2992 RMK AO1 T00940050






000
SXUS55 KMSO 041223
OSOMSO
MONTANA AWOS SUMMARY
NATIONAL WEATHER SERVICE MISSOULA MT
623 AM MDT FRI SEP 4 2015

Montana AWOS Reports

LAUREL      |K6S8 041215Z AUTO 32005KT 40SM 10/06 A2994 RMK AO1 T01000061
TWIN BRIDGES|K7S1 041215Z AUTO 36007KT 40SM 09/06 A2994 RMK AO1 T00890056
ROUNDUP     |KRPX 041215Z AUTO 34009G15KT 40SM 10/06 A2987 RMK AO1 T01000056
MALTA       |KM75 041215Z AUTO 35009G16KT 15SM 09/05 A2992 RMK AO1 T00940050






000
SXUS55 KMSO 041203
OSOMSO
MONTANA AWOS SUMMARY
NATIONAL WEATHER SERVICE MISSOULA MT
603 AM MDT FRI SEP 4 2015

Montana AWOS Reports

LAUREL      |K6S8 041155Z AUTO 33004KT 40SM 11/07 A2994 RMK AO1 T01060067
TWIN BRIDGES|K7S1 041155Z AUTO 34011KT 40SM 08/05 A2993 RMK AO1 T00830050
ROUNDUP     |KRPX 041155Z AUTO 34006KT 40SM 10/06 A2987 RMK AO1 T01000056
MALTA       |KM75 041155Z AUTO 01011G16KT 40SM 10/06 A2992 RMK AO1 T01000056
SCOBEY      |K9S2 041155Z AUTO 33013KT 40SM 12/04 A2990 RMK AO1 T01220039
EKALAKA     |K97M 041155Z AUTO 00000KT 25SM 17/13 A2985 RMK AO1 T01670133
PLAINS      |KS34 041155Z AUTO 00000KT 25SM 08/05 A2998 RMK AO1 T00780050






000
SXUS55 KMSO 041203
OSOMSO
MONTANA AWOS SUMMARY
NATIONAL WEATHER SERVICE MISSOULA MT
603 AM MDT FRI SEP 4 2015

Montana AWOS Reports

LAUREL      |K6S8 041155Z AUTO 33004KT 40SM 11/07 A2994 RMK AO1 T01060067
TWIN BRIDGES|K7S1 041155Z AUTO 34011KT 40SM 08/05 A2993 RMK AO1 T00830050
ROUNDUP     |KRPX 041155Z AUTO 34006KT 40SM 10/06 A2987 RMK AO1 T01000056
MALTA       |KM75 041155Z AUTO 01011G16KT 40SM 10/06 A2992 RMK AO1 T01000056
SCOBEY      |K9S2 041155Z AUTO 33013KT 40SM 12/04 A2990 RMK AO1 T01220039
EKALAKA     |K97M 041155Z AUTO 00000KT 25SM 17/13 A2985 RMK AO1 T01670133
PLAINS      |KS34 041155Z AUTO 00000KT 25SM 08/05 A2998 RMK AO1 T00780050






000
SXUS55 KMSO 041144
OSOMSO
MONTANA AWOS SUMMARY
NATIONAL WEATHER SERVICE MISSOULA MT
543 AM MDT FRI SEP 4 2015

Montana AWOS Reports

TWIN BRIDGES|K7S1 041135Z AUTO 36010G15KT 40SM 09/06 A2993 RMK AO1 T00890056
ROUNDUP     |KRPX 041135Z AUTO 34008KT 40SM 10/06 A2986 RMK AO1 T01000056
MALTA       |KM75 041135Z AUTO 00000KT 10SM 10/06 A2995 RMK AO1 T01000061
LAUREL      |K6S8 041135Z AUTO 00000KT 40SM 11/07 A2993 RMK AO1 T01110067






000
SXUS55 KMSO 041144
OSOMSO
MONTANA AWOS SUMMARY
NATIONAL WEATHER SERVICE MISSOULA MT
543 AM MDT FRI SEP 4 2015

Montana AWOS Reports

TWIN BRIDGES|K7S1 041135Z AUTO 36010G15KT 40SM 09/06 A2993 RMK AO1 T00890056
ROUNDUP     |KRPX 041135Z AUTO 34008KT 40SM 10/06 A2986 RMK AO1 T01000056
MALTA       |KM75 041135Z AUTO 00000KT 10SM 10/06 A2995 RMK AO1 T01000061
LAUREL      |K6S8 041135Z AUTO 00000KT 40SM 11/07 A2993 RMK AO1 T01110067






000
SXUS55 KMSO 041123
OSOMSO
MONTANA AWOS SUMMARY
NATIONAL WEATHER SERVICE MISSOULA MT
523 AM MDT FRI SEP 4 2015

Montana AWOS Reports

TWIN BRIDGES|K7S1 041115Z AUTO 35010G14KT 40SM 09/05 A2994 RMK AO1 T00890050
ROUNDUP     |KRPX 041115Z AUTO 33012G16KT 40SM 10/06 A2987 RMK AO1 T01000056
MALTA       |KM75 041115Z AUTO 00000KT 10SM 10/06 A2996 RMK AO1 T01000056
LAUREL      |K6S8 041115Z AUTO 00000KT 40SM 11/07 A2993 RMK AO1 T01110067






000
SXUS55 KMSO 041123
OSOMSO
MONTANA AWOS SUMMARY
NATIONAL WEATHER SERVICE MISSOULA MT
523 AM MDT FRI SEP 4 2015

Montana AWOS Reports

TWIN BRIDGES|K7S1 041115Z AUTO 35010G14KT 40SM 09/05 A2994 RMK AO1 T00890050
ROUNDUP     |KRPX 041115Z AUTO 33012G16KT 40SM 10/06 A2987 RMK AO1 T01000056
MALTA       |KM75 041115Z AUTO 00000KT 10SM 10/06 A2996 RMK AO1 T01000056
LAUREL      |K6S8 041115Z AUTO 00000KT 40SM 11/07 A2993 RMK AO1 T01110067






000
SXUS55 KMSO 041114
OSOMSO
MONTANA AWOS SUMMARY
NATIONAL WEATHER SERVICE MISSOULA MT
513 AM MDT FRI SEP 4 2015

Montana AWOS Reports

EKALAKA     |K97M 041055Z AUTO 00000KT 25SM 18/14 A2983 RMK AO1 T01780139






000
SXUS55 KMSO 041114
OSOMSO
MONTANA AWOS SUMMARY
NATIONAL WEATHER SERVICE MISSOULA MT
513 AM MDT FRI SEP 4 2015

Montana AWOS Reports

EKALAKA     |K97M 041055Z AUTO 00000KT 25SM 18/14 A2983 RMK AO1 T01780139






000
SXUS55 KMSO 041103
OSOMSO
MONTANA AWOS SUMMARY
NATIONAL WEATHER SERVICE MISSOULA MT
503 AM MDT FRI SEP 4 2015

Montana AWOS Reports

TWIN BRIDGES|K7S1 041055Z AUTO 34011G18KT 40SM 09/06 A2993 RMK AO1 T00940056
ROUNDUP     |KRPX 041055Z AUTO VRB06KT 40SM 10/06 A2986 RMK AO1 T01000056
MALTA       |KM75 041055Z AUTO 00000KT 7SM 10/05 A2997 RMK AO1 T01000050
LAUREL      |K6S8 041055Z AUTO 00000KT 40SM 12/07 A2992 RMK AO1 T01170072
PLAINS      |KS34 041055Z AUTO 00000KT 25SM 07/05 A2998 RMK AO1 T00720050
SCOBEY      |K9S2 041055Z AUTO 35011G15KT 40SM 11/04 A2987 RMK AO1 T01110039






000
SXUS55 KMSO 041103
OSOMSO
MONTANA AWOS SUMMARY
NATIONAL WEATHER SERVICE MISSOULA MT
503 AM MDT FRI SEP 4 2015

Montana AWOS Reports

TWIN BRIDGES|K7S1 041055Z AUTO 34011G18KT 40SM 09/06 A2993 RMK AO1 T00940056
ROUNDUP     |KRPX 041055Z AUTO VRB06KT 40SM 10/06 A2986 RMK AO1 T01000056
MALTA       |KM75 041055Z AUTO 00000KT 7SM 10/05 A2997 RMK AO1 T01000050
LAUREL      |K6S8 041055Z AUTO 00000KT 40SM 12/07 A2992 RMK AO1 T01170072
PLAINS      |KS34 041055Z AUTO 00000KT 25SM 07/05 A2998 RMK AO1 T00720050
SCOBEY      |K9S2 041055Z AUTO 35011G15KT 40SM 11/04 A2987 RMK AO1 T01110039






000
SXUS55 KMSO 041043
OSOMSO
MONTANA AWOS SUMMARY
NATIONAL WEATHER SERVICE MISSOULA MT
443 AM MDT FRI SEP 4 2015

Montana AWOS Reports

TWIN BRIDGES|K7S1 041035Z AUTO 35012G16KT 40SM 09/05 A2993 RMK AO1 T00890050
ROUNDUP     |KRPX 041035Z AUTO 34004KT 40SM 11/06 A2986 RMK AO1 T01060061
MALTA       |KM75 041035Z AUTO 00000KT 7SM 11/04 A2999 RMK AO1 T01110044
LAUREL      |K6S8 041035Z AUTO 00000KT 40SM 11/07 A2992 RMK AO1 T01110072






000
SXUS55 KMSO 041023
OSOMSO
MONTANA AWOS SUMMARY
NATIONAL WEATHER SERVICE MISSOULA MT
422 AM MDT FRI SEP 4 2015

Montana AWOS Reports

MALTA       |KM75 041015Z AUTO 00000KT 15SM 13/02 A2996 RMK AO1 T01330022
LAUREL      |K6S8 041015Z AUTO 00000KT 40SM 11/07 A2992 RMK AO1 T01110072
TWIN BRIDGES|K7S1 041015Z AUTO 35012G16KT 40SM 09/05 A2993 RMK AO1 T00890050
ROUNDUP     |KRPX 041015Z AUTO 33005KT 40SM 11/06 A2984 RMK AO1 T01060061






000
SXUS55 KMSO 041013
OSOMSO
MONTANA AWOS SUMMARY
NATIONAL WEATHER SERVICE MISSOULA MT
413 AM MDT FRI SEP 4 2015

Montana AWOS Reports

SCOBEY      |K9S2 040955Z AUTO 35010G17KT 40SM 12/03 A2987 RMK AO1 T01220033
EKALAKA     |K97M 040955Z AUTO 08007KT 25SM 19/14 A2980 RMK AO1 T01890144
PLAINS      |KS34 040955Z AUTO 00000KT 25SM 07/04 A2998 RMK AO1 T00670039






000
SXUS55 KMSO 041003
OSOMSO
MONTANA AWOS SUMMARY
NATIONAL WEATHER SERVICE MISSOULA MT
403 AM MDT FRI SEP 4 2015

Montana AWOS Reports

TWIN BRIDGES|K7S1 040955Z AUTO 36011KT 40SM 09/05 A2993 RMK AO1 T00940050
MALTA       |KM75 040955Z AUTO 00000KT 40SM 13/00 A2992 RMK AO1 T01330000
LAUREL      |K6S8 040955Z AUTO 00000KT 40SM 11/08 A2992 RMK AO1 T01110078
ROUNDUP     |KRPX 040955Z AUTO 00000KT 40SM 11/07 A2984 RMK AO1 T01110067






000
SXUS55 KMSO 040943
OSOMSO
MONTANA AWOS SUMMARY
NATIONAL WEATHER SERVICE MISSOULA MT
343 AM MDT FRI SEP 4 2015

Montana AWOS Reports

LAUREL      |K6S8 040935Z AUTO 00000KT 40SM 12/07 A2992 RMK AO1 T01170072
TWIN BRIDGES|K7S1 040935Z AUTO 35010G14KT 40SM 09/05 A2993 RMK AO1 T00940050
ROUNDUP     |KRPX 040935Z AUTO 34005KT 40SM 11/06 A2984 RMK AO1 T01110061






000
SXUS55 KMSO 040923
OSOMSO
MONTANA AWOS SUMMARY
NATIONAL WEATHER SERVICE MISSOULA MT
323 AM MDT FRI SEP 4 2015

Montana AWOS Reports

MALTA       |KM75 040915Z AUTO 34013G20KT 40SM 13/01 A2989 RMK AO1 T01330011
LAUREL      |K6S8 040915Z AUTO 00000KT 40SM 12/08 A2992 RMK AO1 T01170078
TWIN BRIDGES|K7S1 040915Z AUTO 36011G15KT 40SM 09/04 A2993 RMK AO1 T00940044
ROUNDUP     |KRPX 040915Z AUTO 36011G19KT 40SM 11/07 A2981 RMK AO1 T01110067






000
SXUS55 KMSO 040923
OSOMSO
MONTANA AWOS SUMMARY
NATIONAL WEATHER SERVICE MISSOULA MT
323 AM MDT FRI SEP 4 2015

Montana AWOS Reports

MALTA       |KM75 040915Z AUTO 34013G20KT 40SM 13/01 A2989 RMK AO1 T01330011
LAUREL      |K6S8 040915Z AUTO 00000KT 40SM 12/08 A2992 RMK AO1 T01170078
TWIN BRIDGES|K7S1 040915Z AUTO 36011G15KT 40SM 09/04 A2993 RMK AO1 T00940044
ROUNDUP     |KRPX 040915Z AUTO 36011G19KT 40SM 11/07 A2981 RMK AO1 T01110067






000
SXUS55 KMSO 040913
OSOMSO
MONTANA AWOS SUMMARY
NATIONAL WEATHER SERVICE MISSOULA MT
313 AM MDT FRI SEP 4 2015

Montana AWOS Reports

PLAINS      |KS34 040855Z AUTO 00000KT 25SM 08/06 A2998 RMK AO1 T00830056






000
SXUS55 KMSO 040913
OSOMSO
MONTANA AWOS SUMMARY
NATIONAL WEATHER SERVICE MISSOULA MT
313 AM MDT FRI SEP 4 2015

Montana AWOS Reports

PLAINS      |KS34 040855Z AUTO 00000KT 25SM 08/06 A2998 RMK AO1 T00830056






000
SXUS55 KMSO 040903
OSOMSO
MONTANA AWOS SUMMARY
NATIONAL WEATHER SERVICE MISSOULA MT
303 AM MDT FRI SEP 4 2015

Montana AWOS Reports

LAUREL      |K6S8 040855Z AUTO 00000KT 40SM 12/07 A2991 RMK AO1 T01220072
TWIN BRIDGES|K7S1 040855Z AUTO 05010G16KT 40SM 09/05 A2994 RMK AO1 T00940050
ROUNDUP     |KRPX 040855Z AUTO 34012G21KT 15SM 11/07 A2981 RMK AO1 T01110067
SCOBEY      |K9S2 040855Z AUTO 33011G20KT 40SM 13/06 A2987 RMK AO1 T01280056
EKALAKA     |K97M 040855Z AUTO 04008KT 25SM 18/13 A2979 RMK AO1 T01780133






000
SXUS55 KMSO 040843
OSOMSO
MONTANA AWOS SUMMARY
NATIONAL WEATHER SERVICE MISSOULA MT
243 AM MDT FRI SEP 4 2015

Montana AWOS Reports

LAUREL      |K6S8 040835Z AUTO 34007KT 40SM 12/07 A2989 RMK AO1 T01220067
TWIN BRIDGES|K7S1 040835Z AUTO 34012G17KT 25SM 09/06 A2993 RMK AO1 T00940056
ROUNDUP     |KRPX 040835Z AUTO 33006KT 7SM 13/06 A2989 RMK AO1 T01280061
MALTA       |KM75 040835Z AUTO 34011G16KT 40SM 13/04 A2989 RMK AO1 T01330039






000
SXUS55 KMSO 040833
OSOMSO
MONTANA AWOS SUMMARY
NATIONAL WEATHER SERVICE MISSOULA MT
232 AM MDT FRI SEP 4 2015

Montana AWOS Reports

LAUREL      |K6S8 040815Z AUTO 33009G14KT 40SM 12/07 A2988 RMK AO1 T01220072
ROUNDUP     |KRPX 040815Z AUTO 00000KT 7SM 13/06 A2993 RMK AO1 T01330061






000
SXUS55 KMSO 040833
OSOMSO
MONTANA AWOS SUMMARY
NATIONAL WEATHER SERVICE MISSOULA MT
232 AM MDT FRI SEP 4 2015

Montana AWOS Reports

LAUREL      |K6S8 040815Z AUTO 33009G14KT 40SM 12/07 A2988 RMK AO1 T01220072
ROUNDUP     |KRPX 040815Z AUTO 00000KT 7SM 13/06 A2993 RMK AO1 T01330061






000
SXUS55 KMSO 040823
OSOMSO
MONTANA AWOS SUMMARY
NATIONAL WEATHER SERVICE MISSOULA MT
222 AM MDT FRI SEP 4 2015

Montana AWOS Reports

TWIN BRIDGES|K7S1 040815Z AUTO 32007KT 25SM 09/05 A2994 RMK AO1 T00940050
MALTA       |KM75 040815Z AUTO 35008KT 40SM 13/03 A2989 RMK AO1 T01280033






000
SXUS55 KMSO 040813
OSOMSO
MONTANA AWOS SUMMARY
NATIONAL WEATHER SERVICE MISSOULA MT
213 AM MDT FRI SEP 4 2015

Montana AWOS Reports

EKALAKA     |K97M 040755Z AUTO 35005KT 25SM 17/11 A2980 RMK AO1 T01670111






000
SXUS55 KMSO 040803
OSOMSO
MONTANA AWOS SUMMARY
NATIONAL WEATHER SERVICE MISSOULA MT
203 AM MDT FRI SEP 4 2015

Montana AWOS Reports

TWIN BRIDGES|K7S1 040755Z AUTO 36011G15KT 15SM 09/05 A2994 RMK AO1 T00940050
MALTA       |KM75 040755Z AUTO 35004KT 40SM 13/04 A2989 RMK AO1 T01280039
LAUREL      |K6S8 040755Z AUTO 32015G24KT 40SM 12/08 A2988 RMK AO1 T01170078
ROUNDUP     |KRPX 040755Z AUTO 29011G16KT 40SM 14/04 A2990 RMK AO1 T01440039
SCOBEY      |K9S2 040755Z AUTO 35015G20KT 40SM 13/04 A2988 RMK AO1 T01330044
PLAINS      |KS34 040755Z AUTO 00000KT 25SM 09/06 A2999 RMK AO1 T00940061






000
SXUS55 KMSO 040753
OSOMSO
MONTANA AWOS SUMMARY
NATIONAL WEATHER SERVICE MISSOULA MT
153 AM MDT FRI SEP 4 2015

Montana AWOS Reports

LAUREL      |K6S8 040735Z AUTO 32015G20KT 4SM HZ 12/08 A2991 RMK AO1 T01220078
ROUNDUP     |KRPX 040735Z AUTO 27010G18KT 40SM 14/03 A2987 RMK AO1 T01440033






000
SXUS55 KMSO 040753
OSOMSO
MONTANA AWOS SUMMARY
NATIONAL WEATHER SERVICE MISSOULA MT
153 AM MDT FRI SEP 4 2015

Montana AWOS Reports

LAUREL      |K6S8 040735Z AUTO 32015G20KT 4SM HZ 12/08 A2991 RMK AO1 T01220078
ROUNDUP     |KRPX 040735Z AUTO 27010G18KT 40SM 14/03 A2987 RMK AO1 T01440033






000
SXUS55 KMSO 040743
OSOMSO
MONTANA AWOS SUMMARY
NATIONAL WEATHER SERVICE MISSOULA MT
142 AM MDT FRI SEP 4 2015

Montana AWOS Reports

TWIN BRIDGES|K7S1 040735Z AUTO 35010KT 7SM 11/05 A2997 RMK AO1 T01060050
MALTA       |KM75 040735Z AUTO 34005KT 40SM 13/03 A2990 RMK AO1 T01330033






000
SXUS55 KMSO 040723
OSOMSO
MONTANA AWOS SUMMARY
NATIONAL WEATHER SERVICE MISSOULA MT
123 AM MDT FRI SEP 4 2015

Montana AWOS Reports

TWIN BRIDGES|K7S1 040715Z AUTO 29005KT 40SM 11/04 A2999 RMK AO1 T01060039
MALTA       |KM75 040715Z AUTO 35007KT 40SM 14/03 A2989 RMK AO1 T01390028
LAUREL      |K6S8 040715Z AUTO 22007KT 3 1/2SM HZ 13/08 A3000 RMK AO1 T01280078
ROUNDUP     |KRPX 040715Z AUTO 33012G16KT 40SM 15/03 A2981 RMK AO1 T01500028






000
SXUS55 KMSO 040703
OSOMSO
MONTANA AWOS SUMMARY
NATIONAL WEATHER SERVICE MISSOULA MT
103 AM MDT FRI SEP 4 2015

Montana AWOS Reports

TWIN BRIDGES|K7S1 040655Z AUTO 27005KT 40SM 11/04 A2997 RMK AO1 T01060039
ROUNDUP     |KRPX 040655Z AUTO 34011G17KT 40SM 15/02 A2981 RMK AO1 T01500022
MALTA       |KM75 040655Z AUTO 34008KT 40SM 14/02 A2990 RMK AO1 T01390022
SCOBEY      |K9S2 040655Z AUTO 17011G15KT 070V270 40SM 13/04 A2990 RMK AO1 T01330044
EKALAKA     |K97M 040655Z AUTO 35004KT 25SM 19/11 A2979 RMK AO1 T01890111
PLAINS      |KS34 040655Z AUTO 00000KT 40SM 11/07 A2999 RMK AO1 T01110072
LAUREL      |K6S8 040655Z AUTO 22018G23KT 40SM 15/05 A2996 RMK AO1 T01500050






000
SXUS55 KMSO 040643
OSOMSO
MONTANA AWOS SUMMARY
NATIONAL WEATHER SERVICE MISSOULA MT
1243 AM MDT FRI SEP 4 2015

Montana AWOS Reports

LAUREL      |K6S8 040635Z AUTO 29009G13KT 40SM 16/04 A2987 RMK AO1 T01610039
TWIN BRIDGES|K7S1 040635Z AUTO 35011G16KT 15SM 12/04 A2995 RMK AO1 T01170044
ROUNDUP     |KRPX 040635Z AUTO 34014G20KT 40SM 17/03 A2980 RMK AO1 T01670028
MALTA       |KM75 040635Z AUTO 35008KT 40SM 14/03 A2989 RMK AO1 T01440033






000
SXUS55 KMSO 040624
OSOMSO
MONTANA AWOS SUMMARY
NATIONAL WEATHER SERVICE MISSOULA MT
1223 AM MDT FRI SEP 4 2015

Montana AWOS Reports

LAUREL      |K6S8 040615Z AUTO 31010KT 40SM 17/04 A2984 RMK AO1 T01670044
TWIN BRIDGES|K7S1 040615Z AUTO 36012G16KT 40SM 12/03 A2994 RMK AO1 T01170033
MALTA       |KM75 040615Z AUTO 36009G16KT 40SM 14/03 A2988 RMK AO1 T01440028
ROUNDUP     |KRPX 040615Z AUTO 34009G15KT 40SM 17/02 A2980 RMK AO1 T01670017






000
SXUS55 KMSO 040603
OSOMSO
MONTANA AWOS SUMMARY
NATIONAL WEATHER SERVICE MISSOULA MT
1203 AM MDT FRI SEP 4 2015

Montana AWOS Reports

TWIN BRIDGES|K7S1 040555Z AUTO 34011G17KT 40SM 12/02 A2994 RMK AO1 T01220022
ROUNDUP     |KRPX 040555Z AUTO 34006KT 40SM 17/02 A2980 RMK AO1 T01720017
MALTA       |KM75 040555Z AUTO 35010G16KT 40SM 14/03 A2988 RMK AO1 T01440033
SCOBEY      |K9S2 040555Z AUTO 36004KT 25SM 14/05 A2992 RMK AO1 T01390050
MALTA       |KM75 040555Z AUTO 35010G16KT 40SM 14/03 A2988 RMK AO1 T01440033
PLAINS      |KS34 040555Z AUTO 00000KT 40SM 11/07 A2998 RMK AO1 T01110072






000
SXUS55 KMSO 040603
OSOMSO
MONTANA AWOS SUMMARY
NATIONAL WEATHER SERVICE MISSOULA MT
1203 AM MDT FRI SEP 4 2015

Montana AWOS Reports

TWIN BRIDGES|K7S1 040555Z AUTO 34011G17KT 40SM 12/02 A2994 RMK AO1 T01220022
ROUNDUP     |KRPX 040555Z AUTO 34006KT 40SM 17/02 A2980 RMK AO1 T01720017
MALTA       |KM75 040555Z AUTO 35010G16KT 40SM 14/03 A2988 RMK AO1 T01440033
SCOBEY      |K9S2 040555Z AUTO 36004KT 25SM 14/05 A2992 RMK AO1 T01390050
MALTA       |KM75 040555Z AUTO 35010G16KT 40SM 14/03 A2988 RMK AO1 T01440033
PLAINS      |KS34 040555Z AUTO 00000KT 40SM 11/07 A2998 RMK AO1 T01110072






000
SXUS55 KMSO 040544
OSOMSO
MONTANA AWOS SUMMARY
NATIONAL WEATHER SERVICE MISSOULA MT
1143 PM MDT THU SEP 3 2015

Montana AWOS Reports

TWIN BRIDGES|K7S1 040535Z AUTO 35014G21KT 40SM 12/02 A2993 RMK AO1 T01220017
ROUNDUP     |KRPX 040535Z AUTO 17007KT 080V260 40SM 17/02 A2978 RMK AO1 T01720022
MALTA       |KM75 040535Z AUTO 36010G15KT 40SM 15/04 A2987 RMK AO1 T01500044






000
SXUS55 KMSO 040544
OSOMSO
MONTANA AWOS SUMMARY
NATIONAL WEATHER SERVICE MISSOULA MT
1143 PM MDT THU SEP 3 2015

Montana AWOS Reports

TWIN BRIDGES|K7S1 040535Z AUTO 35014G21KT 40SM 12/02 A2993 RMK AO1 T01220017
ROUNDUP     |KRPX 040535Z AUTO 17007KT 080V260 40SM 17/02 A2978 RMK AO1 T01720022
MALTA       |KM75 040535Z AUTO 36010G15KT 40SM 15/04 A2987 RMK AO1 T01500044






000
SXUS55 KMSO 040523
OSOMSO
MONTANA AWOS SUMMARY
NATIONAL WEATHER SERVICE MISSOULA MT
1123 PM MDT THU SEP 3 2015

Montana AWOS Reports

LAUREL      |K6S8 040515Z AUTO 31007KT 10SM 17/04 A2984 RMK AO1 T01720044
TWIN BRIDGES|K7S1 040515Z AUTO 34015G21KT 40SM 13/02 A2992 RMK AO1 T01280022
ROUNDUP     |KRPX 040515Z AUTO 34010G17KT 40SM 18/03 A2978 RMK AO1 T01780028
MALTA       |KM75 040515Z AUTO 36010G15KT 40SM 15/04 A2988 RMK AO1 T01500044






000
SXUS55 KMSO 040523
OSOMSO
MONTANA AWOS SUMMARY
NATIONAL WEATHER SERVICE MISSOULA MT
1123 PM MDT THU SEP 3 2015

Montana AWOS Reports

LAUREL      |K6S8 040515Z AUTO 31007KT 10SM 17/04 A2984 RMK AO1 T01720044
TWIN BRIDGES|K7S1 040515Z AUTO 34015G21KT 40SM 13/02 A2992 RMK AO1 T01280022
ROUNDUP     |KRPX 040515Z AUTO 34010G17KT 40SM 18/03 A2978 RMK AO1 T01780028
MALTA       |KM75 040515Z AUTO 36010G15KT 40SM 15/04 A2988 RMK AO1 T01500044






000
SXUS55 KMSO 040503
OSOMSO
MONTANA AWOS SUMMARY
NATIONAL WEATHER SERVICE MISSOULA MT
1103 PM MDT THU SEP 3 2015

Montana AWOS Reports

TWIN BRIDGES|K7S1 040455Z AUTO 34012G17KT 40SM 13/02 A2994 RMK AO1 T01280022
ROUNDUP     |KRPX 040455Z AUTO 34013G17KT 40SM 18/03 A2978 RMK AO1 T01780033
MALTA       |KM75 040455Z AUTO 36011G16KT 40SM 16/04 A2987 RMK AO1 T01560044
SCOBEY      |K9S2 040455Z AUTO 35015G19KT 25SM 14/04 A2986 RMK AO1 T01440039
PLAINS      |KS34 040455Z AUTO 00000KT 40SM 12/07 A2998 RMK AO1 T01170072






000
SXUS55 KMSO 040503
OSOMSO
MONTANA AWOS SUMMARY
NATIONAL WEATHER SERVICE MISSOULA MT
1103 PM MDT THU SEP 3 2015

Montana AWOS Reports

TWIN BRIDGES|K7S1 040455Z AUTO 34012G17KT 40SM 13/02 A2994 RMK AO1 T01280022
ROUNDUP     |KRPX 040455Z AUTO 34013G17KT 40SM 18/03 A2978 RMK AO1 T01780033
MALTA       |KM75 040455Z AUTO 36011G16KT 40SM 16/04 A2987 RMK AO1 T01560044
SCOBEY      |K9S2 040455Z AUTO 35015G19KT 25SM 14/04 A2986 RMK AO1 T01440039
PLAINS      |KS34 040455Z AUTO 00000KT 40SM 12/07 A2998 RMK AO1 T01170072






000
SXUS55 KMSO 040443
OSOMSO
MONTANA AWOS SUMMARY
NATIONAL WEATHER SERVICE MISSOULA MT
1043 PM MDT THU SEP 3 2015

Montana AWOS Reports

TWIN BRIDGES|K7S1 040435Z AUTO 34014G23KT 40SM 13/02 A2992 RMK AO1 T01280017
ROUNDUP     |KRPX 040435Z AUTO 17007KT 080V260 40SM 18/04 A2978 RMK AO1 T01830039
MALTA       |KM75 040435Z AUTO 36011G17KT 40SM 16/04 A2986 RMK AO1 T01610044






000
SXUS55 KMSO 040443
OSOMSO
MONTANA AWOS SUMMARY
NATIONAL WEATHER SERVICE MISSOULA MT
1043 PM MDT THU SEP 3 2015

Montana AWOS Reports

TWIN BRIDGES|K7S1 040435Z AUTO 34014G23KT 40SM 13/02 A2992 RMK AO1 T01280017
ROUNDUP     |KRPX 040435Z AUTO 17007KT 080V260 40SM 18/04 A2978 RMK AO1 T01830039
MALTA       |KM75 040435Z AUTO 36011G17KT 40SM 16/04 A2986 RMK AO1 T01610044






000
SXUS55 KMSO 040423
OSOMSO
MONTANA AWOS SUMMARY
NATIONAL WEATHER SERVICE MISSOULA MT
1022 PM MDT THU SEP 3 2015

Montana AWOS Reports

LAUREL      |K6S8 040415Z AUTO 00000KT 40SM 18/05 A2983 RMK AO1 T01830050
TWIN BRIDGES|K7S1 040415Z AUTO 35018G25KT 40SM 13/02 A2989 RMK AO1 T01330022
MALTA       |KM75 040415Z AUTO 36011G16KT 40SM 16/04 A2987 RMK AO1 T01610044
ROUNDUP     |KRPX 040415Z AUTO 34008KT 40SM 19/03 A2978 RMK AO1 T01890033






000
SXUS55 KMSO 040404
OSOMSO
MONTANA AWOS SUMMARY
NATIONAL WEATHER SERVICE MISSOULA MT
1003 PM MDT THU SEP 3 2015

Montana AWOS Reports

LAUREL      |K6S8 040355Z AUTO 32005KT 40SM 18/04 A2984 RMK AO1 T01830039
MALTA       |KM75 040355Z AUTO 35009G17KT 40SM 17/05 A2987 RMK AO1 T01670050
SCOBEY      |K9S2 040355Z AUTO 35008KT 25SM 16/03 A2987 RMK AO1 T01610033
EKALAKA     |K97M 040355Z AUTO 00000KT 40SM 24/09 A2976 RMK AO1 T02440089






000
SXUS55 KMSO 040404
OSOMSO
MONTANA AWOS SUMMARY
NATIONAL WEATHER SERVICE MISSOULA MT
1003 PM MDT THU SEP 3 2015

Montana AWOS Reports

LAUREL      |K6S8 040355Z AUTO 32005KT 40SM 18/04 A2984 RMK AO1 T01830039
MALTA       |KM75 040355Z AUTO 35009G17KT 40SM 17/05 A2987 RMK AO1 T01670050
SCOBEY      |K9S2 040355Z AUTO 35008KT 25SM 16/03 A2987 RMK AO1 T01610033
EKALAKA     |K97M 040355Z AUTO 00000KT 40SM 24/09 A2976 RMK AO1 T02440089






000
SXUS55 KMSO 040343
OSOMSO
MONTANA AWOS SUMMARY
NATIONAL WEATHER SERVICE MISSOULA MT
943 PM MDT THU SEP 3 2015

Montana AWOS Reports

TWIN BRIDGES|K7S1 040335Z AUTO 35019G23KT 40SM 14/02 A2990 RMK AO1 T01440017
ROUNDUP     |KRPX 040335Z AUTO VRB05KT 40SM 20/03 A2978 RMK AO1 T02000033






000
SXUS55 KMSO 040323
OSOMSO
MONTANA AWOS SUMMARY
NATIONAL WEATHER SERVICE MISSOULA MT
923 PM MDT THU SEP 3 2015

Montana AWOS Reports

LAUREL      |K6S8 040315Z AUTO 00000KT 40SM 19/04 A2984 RMK AO1 T01890039
TWIN BRIDGES|K7S1 040315Z AUTO 34016G21KT 40SM 15/02 A2990 RMK AO1 T01500017
ROUNDUP     |KRPX 040315Z AUTO 34004KT 40SM 20/03 A2978 RMK AO1 T02000033
MALTA       |KM75 040315Z AUTO 35009G13KT 40SM 18/04 A2986 RMK AO1 T01780044






000
SXUS55 KMSO 040313
OSOMSO
MONTANA AWOS SUMMARY
NATIONAL WEATHER SERVICE MISSOULA MT
913 PM MDT THU SEP 3 2015

Montana AWOS Reports

PLAINS      |KS34 040255Z AUTO 00000KT 25SM 13/08 A2997 RMK AO1 T01280078






000
SXUS55 KMSO 040313
OSOMSO
MONTANA AWOS SUMMARY
NATIONAL WEATHER SERVICE MISSOULA MT
913 PM MDT THU SEP 3 2015

Montana AWOS Reports

PLAINS      |KS34 040255Z AUTO 00000KT 25SM 13/08 A2997 RMK AO1 T01280078






000
SXUS55 KMSO 040303
OSOMSO
MONTANA AWOS SUMMARY
NATIONAL WEATHER SERVICE MISSOULA MT
903 PM MDT THU SEP 3 2015

Montana AWOS Reports

TWIN BRIDGES|K7S1 040255Z AUTO 33015G19KT 40SM 15/02 A2989 RMK AO1 T01500017
ROUNDUP     |KRPX 040255Z AUTO 00000KT 40SM 21/03 A2978 RMK AO1 T02060033
MALTA       |KM75 040255Z AUTO 35007KT 40SM 19/04 A2986 RMK AO1 T01890039
SCOBEY      |K9S2 040255Z AUTO 34009G13KT 25SM 17/01 A2986 RMK AO1 T01720011






000
SXUS55 KMSO 040243
OSOMSO
MONTANA AWOS SUMMARY
NATIONAL WEATHER SERVICE MISSOULA MT
843 PM MDT THU SEP 3 2015

Montana AWOS Reports

LAUREL      |K6S8 040235Z AUTO 01008KT 40SM 20/05 A2981 RMK AO1 T02000050
TWIN BRIDGES|K7S1 040235Z AUTO 34018G24KT 310V010 40SM 16/03 A2987 RMK AO1 T01610033
MALTA       |KM75 040235Z AUTO 01009KT 40SM 20/03 A2985 RMK AO1 T02000033
ROUNDUP     |KRPX 040235Z AUTO 00000KT 40SM 21/03 A2977 RMK AO1 T02110028






000
SXUS55 KMSO 040224
OSOMSO
MONTANA AWOS SUMMARY
NATIONAL WEATHER SERVICE MISSOULA MT
823 PM MDT THU SEP 3 2015

Montana AWOS Reports

LAUREL      |K6S8 040215Z AUTO 32007KT 40SM 19/05 A2983 RMK AO1 T01940050
TWIN BRIDGES|K7S1 040215Z AUTO 34016G23KT 40SM 16/03 A2987 RMK AO1 T01610028
ROUNDUP     |KRPX 040215Z AUTO 00000KT 40SM 22/02 A2978 RMK AO1 T02170022
MALTA       |KM75 040215Z AUTO 36007KT 40SM 24/07 A2984 RMK AO1 T02440072






000
SXUS55 KMSO 040203
OSOMSO
MONTANA AWOS SUMMARY
NATIONAL WEATHER SERVICE MISSOULA MT
803 PM MDT THU SEP 3 2015

Montana AWOS Reports

TWIN BRIDGES|K7S1 040155Z AUTO 34016G26KT 40SM 17/03 A2986 RMK AO1 T01720033
ROUNDUP     |KRPX 040155Z AUTO 02005KT 40SM 22/02 A2977 RMK AO1 T02220022






000
SXUS55 KMSO 040153
OSOMSO
MONTANA AWOS SUMMARY
NATIONAL WEATHER SERVICE MISSOULA MT
753 PM MDT THU SEP 3 2015

Montana AWOS Reports

EKALAKA     |K97M 040055Z AUTO 00000KT 40SM 28/08 A2978 RMK AO1 T02780078






000
SXUS55 KMSO 040153
OSOMSO
MONTANA AWOS SUMMARY
NATIONAL WEATHER SERVICE MISSOULA MT
753 PM MDT THU SEP 3 2015

Montana AWOS Reports

EKALAKA     |K97M 040055Z AUTO 00000KT 40SM 28/08 A2978 RMK AO1 T02780078






000
SXUS55 KMSO 040144
OSOMSO
MONTANA AWOS SUMMARY
NATIONAL WEATHER SERVICE MISSOULA MT
743 PM MDT THU SEP 3 2015

Montana AWOS Reports

LAUREL      |K6S8 040135Z AUTO 04008KT 40SM 22/04 A2981 RMK AO1 T02220039
TWIN BRIDGES|K7S1 040135Z AUTO 34015G19KT 40SM 18/03 A2987 RMK AO1 T01780033
ROUNDUP     |KRPX 040135Z AUTO 36005KT 40SM 23/03 A2977 RMK AO1 T02280028
MALTA       |KM75 040135Z AUTO 01010KT 40SM 22/04 A2983 RMK AO1 T02170039






000
SXUS55 KMSO 040123
OSOMSO
MONTANA AWOS SUMMARY
NATIONAL WEATHER SERVICE MISSOULA MT
722 PM MDT THU SEP 3 2015

Montana AWOS Reports

LAUREL      |K6S8 040115Z AUTO 00000KT 40SM 22/04 A2984 RMK AO1 T02220039
TWIN BRIDGES|K7S1 040115Z AUTO 34013KT 40SM 18/04 A2986 RMK AO1 T01830039
ROUNDUP     |KRPX 040115Z AUTO 02005KT 40SM 23/03 A2978 RMK AO1 T02280028
MALTA       |KM75 040115Z AUTO 36010G17KT 40SM 22/04 A2982 RMK AO1 T02220039






000
SXUS55 KMSO 040123
OSOMSO
MONTANA AWOS SUMMARY
NATIONAL WEATHER SERVICE MISSOULA MT
722 PM MDT THU SEP 3 2015

Montana AWOS Reports

LAUREL      |K6S8 040115Z AUTO 00000KT 40SM 22/04 A2984 RMK AO1 T02220039
TWIN BRIDGES|K7S1 040115Z AUTO 34013KT 40SM 18/04 A2986 RMK AO1 T01830039
ROUNDUP     |KRPX 040115Z AUTO 02005KT 40SM 23/03 A2978 RMK AO1 T02280028
MALTA       |KM75 040115Z AUTO 36010G17KT 40SM 22/04 A2982 RMK AO1 T02220039






000
SXUS55 KMSO 040113
OSOMSO
MONTANA AWOS SUMMARY
NATIONAL WEATHER SERVICE MISSOULA MT
713 PM MDT THU SEP 3 2015

Montana AWOS Reports

PLAINS      |KS34 040055Z AUTO 30005KT 40SM 16/05 A2994 RMK AO1 T01610050






000
SXUS55 KMSO 040113
OSOMSO
MONTANA AWOS SUMMARY
NATIONAL WEATHER SERVICE MISSOULA MT
713 PM MDT THU SEP 3 2015

Montana AWOS Reports

PLAINS      |KS34 040055Z AUTO 30005KT 40SM 16/05 A2994 RMK AO1 T01610050






000
SXUS55 KMSO 040104
OSOMSO
MONTANA AWOS SUMMARY
NATIONAL WEATHER SERVICE MISSOULA MT
703 PM MDT THU SEP 3 2015

Montana AWOS Reports

TWIN BRIDGES|K7S1 040055Z AUTO 35011G15KT 40SM 19/03 A2985 RMK AO1 T01890033
ROUNDUP     |KRPX 040055Z AUTO 02006KT 40SM 23/03 A2976 RMK AO1 T02330033
MALTA       |KM75 040055Z AUTO 36010G17KT 40SM 23/04 A2981 RMK AO1 T02280039






000
SXUS55 KMSO 040104
OSOMSO
MONTANA AWOS SUMMARY
NATIONAL WEATHER SERVICE MISSOULA MT
703 PM MDT THU SEP 3 2015

Montana AWOS Reports

TWIN BRIDGES|K7S1 040055Z AUTO 35011G15KT 40SM 19/03 A2985 RMK AO1 T01890033
ROUNDUP     |KRPX 040055Z AUTO 02006KT 40SM 23/03 A2976 RMK AO1 T02330033
MALTA       |KM75 040055Z AUTO 36010G17KT 40SM 23/04 A2981 RMK AO1 T02280039






000
SXUS55 KMSO 040053
OSOMSO
MONTANA AWOS SUMMARY
NATIONAL WEATHER SERVICE MISSOULA MT
653 PM MDT THU SEP 3 2015

Montana AWOS Reports

TWIN BRIDGES|K7S1 040035Z AUTO 34010KT 40SM 19/03 A2986 RMK AO1 T01890028
ROUNDUP     |KRPX 040035Z AUTO 02009KT 40SM 23/03 A2975 RMK AO1 T02330028
MALTA       |KM75 040035Z AUTO 01009G17KT 40SM 24/04 A2980 RMK AO1 T02390044






000
SXUS55 KMSO 040053
OSOMSO
MONTANA AWOS SUMMARY
NATIONAL WEATHER SERVICE MISSOULA MT
653 PM MDT THU SEP 3 2015

Montana AWOS Reports

TWIN BRIDGES|K7S1 040035Z AUTO 34010KT 40SM 19/03 A2986 RMK AO1 T01890028
ROUNDUP     |KRPX 040035Z AUTO 02009KT 40SM 23/03 A2975 RMK AO1 T02330028
MALTA       |KM75 040035Z AUTO 01009G17KT 40SM 24/04 A2980 RMK AO1 T02390044






000
SXUS55 KMSO 040043
OSOMSO
MONTANA AWOS SUMMARY
NATIONAL WEATHER SERVICE MISSOULA MT
642 PM MDT THU SEP 3 2015

Montana AWOS Reports

LAUREL      |K6S8 040035Z AUTO 01004KT 40SM 23/05 A2980 RMK AO1 T02330050






000
SXUS55 KMSO 040023
OSOMSO
MONTANA AWOS SUMMARY
NATIONAL WEATHER SERVICE MISSOULA MT
623 PM MDT THU SEP 3 2015

Montana AWOS Reports

TWIN BRIDGES|K7S1 040015Z AUTO 34010KT 40SM 19/03 A2985 RMK AO1 T01890033
MALTA       |KM75 040015Z AUTO 01008KT 40SM 24/04 A2979 RMK AO1 T02440039
ROUNDUP     |KRPX 040015Z AUTO 02006KT 40SM 24/03 A2976 RMK AO1 T02390033






000
SXUS55 KMSO 040023
OSOMSO
MONTANA AWOS SUMMARY
NATIONAL WEATHER SERVICE MISSOULA MT
623 PM MDT THU SEP 3 2015

Montana AWOS Reports

TWIN BRIDGES|K7S1 040015Z AUTO 34010KT 40SM 19/03 A2985 RMK AO1 T01890033
MALTA       |KM75 040015Z AUTO 01008KT 40SM 24/04 A2979 RMK AO1 T02440039
ROUNDUP     |KRPX 040015Z AUTO 02006KT 40SM 24/03 A2976 RMK AO1 T02390033






000
SXUS55 KMSO 040003
OSOMSO
MONTANA AWOS SUMMARY
NATIONAL WEATHER SERVICE MISSOULA MT
603 PM MDT THU SEP 3 2015

Montana AWOS Reports

TWIN BRIDGES|K7S1 032355Z AUTO 34005KT 25SM 21/01 A2984 RMK AO1 T02060011
MALTA       |KM75 032355Z AUTO 01008KT 40SM 24/03 A2980 RMK AO1 T02440033
PLAINS      |KS34 032355Z AUTO 00000KT 40SM 17/04 A2994 RMK AO1 T01670044
ROUNDUP     |KRPX 032355Z AUTO 02005KT 40SM 23/03 A2977 RMK AO1 T02330028
SCOBEY      |K9S2 032355Z AUTO 17015G23KT 070V270 40SM 22/05 A2983 RMK AO1 T02220050
EKALAKA     |K97M 032355Z AUTO 06005KT 40SM 29/08 A2977 RMK AO1 T02940078






000
SXUS55 KMSO 040003
OSOMSO
MONTANA AWOS SUMMARY
NATIONAL WEATHER SERVICE MISSOULA MT
603 PM MDT THU SEP 3 2015

Montana AWOS Reports

TWIN BRIDGES|K7S1 032355Z AUTO 34005KT 25SM 21/01 A2984 RMK AO1 T02060011
MALTA       |KM75 032355Z AUTO 01008KT 40SM 24/03 A2980 RMK AO1 T02440033
PLAINS      |KS34 032355Z AUTO 00000KT 40SM 17/04 A2994 RMK AO1 T01670044
ROUNDUP     |KRPX 032355Z AUTO 02005KT 40SM 23/03 A2977 RMK AO1 T02330028
SCOBEY      |K9S2 032355Z AUTO 17015G23KT 070V270 40SM 22/05 A2983 RMK AO1 T02220050
EKALAKA     |K97M 032355Z AUTO 06005KT 40SM 29/08 A2977 RMK AO1 T02940078






000
SXUS55 KMSO 032343
OSOMSO
MONTANA AWOS SUMMARY
NATIONAL WEATHER SERVICE MISSOULA MT
543 PM MDT THU SEP 3 2015

Montana AWOS Reports

LAUREL      |K6S8 032335Z AUTO 03009G15KT 40SM 25/04 A2978 RMK AO1 T02500044
MALTA       |KM75 032335Z AUTO 01010G14KT 40SM 25/03 A2979 RMK AO1 T02500033
TWIN BRIDGES|K7S1 032335Z AUTO 36009G14KT 40SM 20/03 A2984 RMK AO1 T02000028
ROUNDUP     |KRPX 032335Z AUTO 00000KT 40SM 23/02 A2979 RMK AO1 T02330022






000
SXUS55 KMSO 032343
OSOMSO
MONTANA AWOS SUMMARY
NATIONAL WEATHER SERVICE MISSOULA MT
543 PM MDT THU SEP 3 2015

Montana AWOS Reports

LAUREL      |K6S8 032335Z AUTO 03009G15KT 40SM 25/04 A2978 RMK AO1 T02500044
MALTA       |KM75 032335Z AUTO 01010G14KT 40SM 25/03 A2979 RMK AO1 T02500033
TWIN BRIDGES|K7S1 032335Z AUTO 36009G14KT 40SM 20/03 A2984 RMK AO1 T02000028
ROUNDUP     |KRPX 032335Z AUTO 00000KT 40SM 23/02 A2979 RMK AO1 T02330022






000
SXUS55 KMSO 032324
OSOMSO
MONTANA AWOS SUMMARY
NATIONAL WEATHER SERVICE MISSOULA MT
523 PM MDT THU SEP 3 2015

Montana AWOS Reports

LAUREL      |K6S8 032315Z AUTO 03010G14KT 25SM 26/04 A2980 RMK AO1 T02560039
MALTA       |KM75 032315Z AUTO 01008KT 40SM 24/03 A2980 RMK AO1 T02440033
ROUNDUP     |KRPX 032315Z AUTO 00000KT 40SM 23/02 A2978 RMK AO1 T02330022






000
SXUS55 KMSO 032324
OSOMSO
MONTANA AWOS SUMMARY
NATIONAL WEATHER SERVICE MISSOULA MT
523 PM MDT THU SEP 3 2015

Montana AWOS Reports

LAUREL      |K6S8 032315Z AUTO 03010G14KT 25SM 26/04 A2980 RMK AO1 T02560039
MALTA       |KM75 032315Z AUTO 01008KT 40SM 24/03 A2980 RMK AO1 T02440033
ROUNDUP     |KRPX 032315Z AUTO 00000KT 40SM 23/02 A2978 RMK AO1 T02330022






000
SXUS55 KMSO 032313
OSOMSO
MONTANA AWOS SUMMARY
NATIONAL WEATHER SERVICE MISSOULA MT
513 PM MDT THU SEP 3 2015

Montana AWOS Reports

TWIN BRIDGES|K7S1 032255Z AUTO 36010G17KT 40SM 21/02 A2985 RMK AO1 T02060022
ROUNDUP     |KRPX 032255Z AUTO 01008KT 40SM 24/02 A2976 RMK AO1 T02440022
SCOBEY      |K9S2 032255Z AUTO 34015G21KT 40SM 23/04 A2983 RMK AO1 T02280044






000
SXUS55 KMSO 032313
OSOMSO
MONTANA AWOS SUMMARY
NATIONAL WEATHER SERVICE MISSOULA MT
513 PM MDT THU SEP 3 2015

Montana AWOS Reports

TWIN BRIDGES|K7S1 032255Z AUTO 36010G17KT 40SM 21/02 A2985 RMK AO1 T02060022
ROUNDUP     |KRPX 032255Z AUTO 01008KT 40SM 24/02 A2976 RMK AO1 T02440022
SCOBEY      |K9S2 032255Z AUTO 34015G21KT 40SM 23/04 A2983 RMK AO1 T02280044






000
SXUS55 KMSO 032303
OSOMSO
MONTANA AWOS SUMMARY
NATIONAL WEATHER SERVICE MISSOULA MT
503 PM MDT THU SEP 3 2015

Montana AWOS Reports

LAUREL      |K6S8 032255Z AUTO 00000KT 40SM 24/04 A2988 RMK AO1 T02390039
MALTA       |KM75 032255Z AUTO 34006KT 40SM 25/03 A2979 RMK AO1 T02500033
EKALAKA     |K97M 032255Z AUTO 04006KT 40SM 29/07 A2979 RMK AO1 T02940067
PLAINS      |KS34 032255Z AUTO 11009KT 40SM 17/05 A2993 RMK AO1 T01670050






000
SXUS55 KMSO 032303
OSOMSO
MONTANA AWOS SUMMARY
NATIONAL WEATHER SERVICE MISSOULA MT
503 PM MDT THU SEP 3 2015

Montana AWOS Reports

LAUREL      |K6S8 032255Z AUTO 00000KT 40SM 24/04 A2988 RMK AO1 T02390039
MALTA       |KM75 032255Z AUTO 34006KT 40SM 25/03 A2979 RMK AO1 T02500033
EKALAKA     |K97M 032255Z AUTO 04006KT 40SM 29/07 A2979 RMK AO1 T02940067
PLAINS      |KS34 032255Z AUTO 11009KT 40SM 17/05 A2993 RMK AO1 T01670050






000
SXUS55 KMSO 032243
OSOMSO
MONTANA AWOS SUMMARY
NATIONAL WEATHER SERVICE MISSOULA MT
443 PM MDT THU SEP 3 2015

Montana AWOS Reports

TWIN BRIDGES|K7S1 032235Z AUTO 34013G17KT 40SM 21/03 A2985 RMK AO1 T02060028
ROUNDUP     |KRPX 032235Z AUTO 03007KT 40SM 25/02 A2976 RMK AO1 T02500022
MALTA       |KM75 032235Z AUTO 01006KT 40SM 26/03 A2980 RMK AO1 T02560033






000
SXUS55 KMSO 032243
OSOMSO
MONTANA AWOS SUMMARY
NATIONAL WEATHER SERVICE MISSOULA MT
443 PM MDT THU SEP 3 2015

Montana AWOS Reports

TWIN BRIDGES|K7S1 032235Z AUTO 34013G17KT 40SM 21/03 A2985 RMK AO1 T02060028
ROUNDUP     |KRPX 032235Z AUTO 03007KT 40SM 25/02 A2976 RMK AO1 T02500022
MALTA       |KM75 032235Z AUTO 01006KT 40SM 26/03 A2980 RMK AO1 T02560033






000
SXUS55 KMSO 032223
OSOMSO
MONTANA AWOS SUMMARY
NATIONAL WEATHER SERVICE MISSOULA MT
423 PM MDT THU SEP 3 2015

Montana AWOS Reports

LAUREL      |K6S8 032215Z AUTO 02005KT 40SM 24/03 A2981 RMK AO1 T02440033
TWIN BRIDGES|K7S1 032215Z AUTO 34012KT 40SM 21/03 A2986 RMK AO1 T02060028
ROUNDUP     |KRPX 032215Z AUTO 01006KT 40SM 24/02 A2976 RMK AO1 T02440017
MALTA       |KM75 032215Z AUTO 01008KT 40SM 26/04 A2980 RMK AO1 T02610039






000
SXUS55 KMSO 032223
OSOMSO
MONTANA AWOS SUMMARY
NATIONAL WEATHER SERVICE MISSOULA MT
423 PM MDT THU SEP 3 2015

Montana AWOS Reports

LAUREL      |K6S8 032215Z AUTO 02005KT 40SM 24/03 A2981 RMK AO1 T02440033
TWIN BRIDGES|K7S1 032215Z AUTO 34012KT 40SM 21/03 A2986 RMK AO1 T02060028
ROUNDUP     |KRPX 032215Z AUTO 01006KT 40SM 24/02 A2976 RMK AO1 T02440017
MALTA       |KM75 032215Z AUTO 01008KT 40SM 26/04 A2980 RMK AO1 T02610039






000
SXUS55 KMSO 032203
OSOMSO
MONTANA AWOS SUMMARY
NATIONAL WEATHER SERVICE MISSOULA MT
403 PM MDT THU SEP 3 2015

Montana AWOS Reports

TWIN BRIDGES|K7S1 032155Z AUTO 33008KT 25SM 20/02 A2988 RMK AO1 T02000017
ROUNDUP     |KRPX 032155Z AUTO 35010G17KT 40SM 25/02 A2976 RMK AO1 T02500022
SCOBEY      |K9S2 032155Z AUTO 36016G23KT 40SM 23/04 A2980 RMK AO1 T02280044
PLAINS      |KS34 032155Z AUTO 10008KT 25SM 19/06 A2993 RMK AO1 T01890056
EKALAKA     |K97M 032155Z AUTO 34005KT 40SM 29/06 A2979 RMK AO1 T02940056
TWIN BRIDGES|K7S1 032155Z AUTO 33008KT 25SM 20/02 A2988 RMK AO1 T02000017
MALTA       |KM75 032155Z AUTO 03004KT 40SM 26/04 A2980 RMK AO1 T02610039






000
SXUS55 KMSO 032144
OSOMSO
MONTANA AWOS SUMMARY
NATIONAL WEATHER SERVICE MISSOULA MT
343 PM MDT THU SEP 3 2015

Montana AWOS Reports

TWIN BRIDGES|K7S1 032135Z AUTO 34008KT 25SM 20/02 A2987 RMK AO1 T02000017
ROUNDUP     |KRPX 032135Z AUTO 34009G16KT 40SM 24/02 A2976 RMK AO1 T02440022
MALTA       |KM75 032135Z AUTO 01005KT 40SM 26/04 A2981 RMK AO1 T02610039






000
SXUS55 KMSO 032123
OSOMSO
MONTANA AWOS SUMMARY
NATIONAL WEATHER SERVICE MISSOULA MT
323 PM MDT THU SEP 3 2015

Montana AWOS Reports

TWIN BRIDGES|K7S1 032115Z AUTO 16008KT 070V250 25SM 21/02 A2987 RMK AO1 T02060022
ROUNDUP     |KRPX 032115Z AUTO 02006KT 40SM 24/02 A2977 RMK AO1 T02390022
MALTA       |KM75 032115Z AUTO 00000KT 40SM 26/04 A2980 RMK AO1 T02610039






000
SXUS55 KMSO 032123
OSOMSO
MONTANA AWOS SUMMARY
NATIONAL WEATHER SERVICE MISSOULA MT
323 PM MDT THU SEP 3 2015

Montana AWOS Reports

TWIN BRIDGES|K7S1 032115Z AUTO 16008KT 070V250 25SM 21/02 A2987 RMK AO1 T02060022
ROUNDUP     |KRPX 032115Z AUTO 02006KT 40SM 24/02 A2977 RMK AO1 T02390022
MALTA       |KM75 032115Z AUTO 00000KT 40SM 26/04 A2980 RMK AO1 T02610039






000
SXUS55 KMSO 032113
OSOMSO
MONTANA AWOS SUMMARY
NATIONAL WEATHER SERVICE MISSOULA MT
313 PM MDT THU SEP 3 2015

Montana AWOS Reports

SCOBEY      |K9S2 032055Z AUTO 34017G24KT 40SM 24/06 A2980 RMK AO1 T02440056
PLAINS      |KS34 032055Z AUTO 00000KT 25SM 17/04 A2994 RMK AO1 T01720044
EKALAKA     |K97M 032055Z AUTO 34005KT 40SM 28/06 A2980 RMK AO1 T02830056






000
SXUS55 KMSO 032113
OSOMSO
MONTANA AWOS SUMMARY
NATIONAL WEATHER SERVICE MISSOULA MT
313 PM MDT THU SEP 3 2015

Montana AWOS Reports

SCOBEY      |K9S2 032055Z AUTO 34017G24KT 40SM 24/06 A2980 RMK AO1 T02440056
PLAINS      |KS34 032055Z AUTO 00000KT 25SM 17/04 A2994 RMK AO1 T01720044
EKALAKA     |K97M 032055Z AUTO 34005KT 40SM 28/06 A2980 RMK AO1 T02830056






000
SXUS55 KMSO 032103
OSOMSO
MONTANA AWOS SUMMARY
NATIONAL WEATHER SERVICE MISSOULA MT
303 PM MDT THU SEP 3 2015

Montana AWOS Reports

LAUREL      |K6S8 032055Z AUTO 03009G13KT 40SM 25/03 A2983 RMK AO1 T02500028
TWIN BRIDGES|K7S1 032055Z AUTO 31010G14KT 25SM 21/02 A2986 RMK AO1 T02110022
ROUNDUP     |KRPX 032055Z AUTO 04007KT 40SM 24/02 A2977 RMK AO1 T02390022
MALTA       |KM75 032055Z AUTO 36004KT 40SM 26/04 A2980 RMK AO1 T02560039






000
SXUS55 KMSO 032043
OSOMSO
MONTANA AWOS SUMMARY
NATIONAL WEATHER SERVICE MISSOULA MT
243 PM MDT THU SEP 3 2015

Montana AWOS Reports

LAUREL      |K6S8 032035Z AUTO 03004KT 40SM 24/04 A2983 RMK AO1 T02440039
TWIN BRIDGES|K7S1 032035Z AUTO 32008KT 25SM 22/02 A2986 RMK AO1 T02170017
MALTA       |KM75 032035Z AUTO 35006KT 40SM 26/04 A2981 RMK AO1 T02560039
ROUNDUP     |KRPX 032035Z AUTO 02006KT 40SM 23/02 A2978 RMK AO1 T02330017






000
SXUS55 KMSO 032023
OSOMSO
MONTANA AWOS SUMMARY
NATIONAL WEATHER SERVICE MISSOULA MT
223 PM MDT THU SEP 3 2015

Montana AWOS Reports

LAUREL      |K6S8 032015Z AUTO 04004KT 40SM 24/03 A2983 RMK AO1 T02440033
MALTA       |KM75 032015Z AUTO 36005KT 40SM 26/05 A2982 RMK AO1 T02560050
TWIN BRIDGES|K7S1 032015Z AUTO 34008KT 40SM 21/02 A2986 RMK AO1 T02110017
ROUNDUP     |KRPX 032015Z AUTO 03006KT 40SM 23/02 A2978 RMK AO1 T02280017






000
SXUS55 KMSO 032013
OSOMSO
MONTANA AWOS SUMMARY
NATIONAL WEATHER SERVICE MISSOULA MT
213 PM MDT THU SEP 3 2015

Montana AWOS Reports

SCOBEY      |K9S2 031955Z AUTO 34015G23KT 40SM 24/06 A2980 RMK AO1 T02390061
EKALAKA     |K97M 031955Z AUTO 31004KT 40SM 27/06 A2981 RMK AO1 T02720061






000
SXUS55 KMSO 032003
OSOMSO
MONTANA AWOS SUMMARY
NATIONAL WEATHER SERVICE MISSOULA MT
202 PM MDT THU SEP 3 2015

Montana AWOS Reports

TWIN BRIDGES|K7S1 031935Z AUTO 34009G14KT 25SM 20/02 A2988 RMK AO1 T02000022
ROUNDUP     |KRPX 031935Z AUTO 02006KT 40SM 22/01 A2979 RMK AO1 T02220011
MALTA       |KM75 031935Z AUTO 17007KT 070V270 40SM 24/04 A2982 RMK AO1 T02440039
LAUREL      |K6S8 031955Z AUTO 35005KT 40SM 24/03 A2983 RMK AO1 T02390033
MALTA       |KM75 031955Z AUTO 36004KT 40SM 25/04 A2982 RMK AO1 T02500044
PLAINS      |KS34 031955Z AUTO 11007KT 25SM 17/06 A2994 RMK AO1 T01720056
TWIN BRIDGES|K7S1 031955Z AUTO 32009G14KT 25SM 21/02 A2987 RMK AO1 T02060022
ROUNDUP     |KRPX 031955Z AUTO 36009KT 40SM 23/02 A2978 RMK AO1 T02280017






000
SXUS55 KMSO 031943
OSOMSO
MONTANA AWOS SUMMARY
NATIONAL WEATHER SERVICE MISSOULA MT
143 PM MDT THU SEP 3 2015

Montana AWOS Reports

LAUREL      |K6S8 031935Z AUTO 01006KT 40SM 24/03 A2983 RMK AO1 T02440033






000
SXUS55 KMSO 031943
OSOMSO
MONTANA AWOS SUMMARY
NATIONAL WEATHER SERVICE MISSOULA MT
143 PM MDT THU SEP 3 2015

Montana AWOS Reports

LAUREL      |K6S8 031935Z AUTO 01006KT 40SM 24/03 A2983 RMK AO1 T02440033






000
SXUS55 KMSO 031923
OSOMSO
MONTANA AWOS SUMMARY
NATIONAL WEATHER SERVICE MISSOULA MT
122 PM MDT THU SEP 3 2015

Montana AWOS Reports

LAUREL      |K6S8 031915Z AUTO 02007KT 40SM 24/03 A2983 RMK AO1 T02390033
TWIN BRIDGES|K7S1 031915Z AUTO 33010G15KT 25SM 20/02 A2988 RMK AO1 T02000022
ROUNDUP     |KRPX 031915Z AUTO 03009G13KT 40SM 23/02 A2979 RMK AO1 T02280017
MALTA       |KM75 031915Z AUTO 02008KT 40SM 24/04 A2982 RMK AO1 T02440039






000
SXUS55 KMSO 031923
OSOMSO
MONTANA AWOS SUMMARY
NATIONAL WEATHER SERVICE MISSOULA MT
122 PM MDT THU SEP 3 2015

Montana AWOS Reports

LAUREL      |K6S8 031915Z AUTO 02007KT 40SM 24/03 A2983 RMK AO1 T02390033
TWIN BRIDGES|K7S1 031915Z AUTO 33010G15KT 25SM 20/02 A2988 RMK AO1 T02000022
ROUNDUP     |KRPX 031915Z AUTO 03009G13KT 40SM 23/02 A2979 RMK AO1 T02280017
MALTA       |KM75 031915Z AUTO 02008KT 40SM 24/04 A2982 RMK AO1 T02440039






000
SXUS55 KMSO 031903
OSOMSO
MONTANA AWOS SUMMARY
NATIONAL WEATHER SERVICE MISSOULA MT
103 PM MDT THU SEP 3 2015

Montana AWOS Reports

TWIN BRIDGES|K7S1 031855Z AUTO 35010G16KT 25SM 19/03 A2989 RMK AO1 T01940028
ROUNDUP     |KRPX 031855Z AUTO 05005KT 40SM 22/01 A2979 RMK AO1 T02220011
MALTA       |KM75 031855Z AUTO 34006KT 40SM 24/04 A2982 RMK AO1 T02390044
PLAINS      |KS34 031855Z AUTO 00000KT 25SM 17/06 A2995 RMK AO1 T01670061
SCOBEY      |K9S2 031855Z AUTO 35019G28KT 25SM 22/06 A2979 RMK AO1 T02220061
EKALAKA     |K97M 031855Z AUTO 31007KT 40SM 27/06 A2982 RMK AO1 T02670061






000
SXUS55 KMSO 031843
OSOMSO
MONTANA AWOS SUMMARY
NATIONAL WEATHER SERVICE MISSOULA MT
1243 PM MDT THU SEP 3 2015

Montana AWOS Reports

TWIN BRIDGES|K7S1 031835Z AUTO 34011G15KT 25SM 18/03 A2990 RMK AO1 T01830028
MALTA       |KM75 031835Z AUTO 02007KT 40SM 24/06 A2983 RMK AO1 T02390056
ROUNDUP     |KRPX 031835Z AUTO 02006KT 40SM 23/02 A2979 RMK AO1 T02330017






000
SXUS55 KMSO 031843
OSOMSO
MONTANA AWOS SUMMARY
NATIONAL WEATHER SERVICE MISSOULA MT
1243 PM MDT THU SEP 3 2015

Montana AWOS Reports

TWIN BRIDGES|K7S1 031835Z AUTO 34011G15KT 25SM 18/03 A2990 RMK AO1 T01830028
MALTA       |KM75 031835Z AUTO 02007KT 40SM 24/06 A2983 RMK AO1 T02390056
ROUNDUP     |KRPX 031835Z AUTO 02006KT 40SM 23/02 A2979 RMK AO1 T02330017






000
SXUS55 KMSO 031823
OSOMSO
MONTANA AWOS SUMMARY
NATIONAL WEATHER SERVICE MISSOULA MT
1223 PM MDT THU SEP 3 2015

Montana AWOS Reports

LAUREL      |K6S8 031815Z AUTO 02005KT 40SM 22/02 A2986 RMK AO1 T02170017
MALTA       |KM75 031815Z AUTO 00000KT 40SM 23/05 A2983 RMK AO1 T02330050
TWIN BRIDGES|K7S1 031815Z AUTO 34010KT 25SM 17/03 A2990 RMK AO1 T01720028
ROUNDUP     |KRPX 031815Z AUTO 02013G17KT 40SM 23/02 A2980 RMK AO1 T02280017






000
SXUS55 KMSO 031823
OSOMSO
MONTANA AWOS SUMMARY
NATIONAL WEATHER SERVICE MISSOULA MT
1223 PM MDT THU SEP 3 2015

Montana AWOS Reports

LAUREL      |K6S8 031815Z AUTO 02005KT 40SM 22/02 A2986 RMK AO1 T02170017
MALTA       |KM75 031815Z AUTO 00000KT 40SM 23/05 A2983 RMK AO1 T02330050
TWIN BRIDGES|K7S1 031815Z AUTO 34010KT 25SM 17/03 A2990 RMK AO1 T01720028
ROUNDUP     |KRPX 031815Z AUTO 02013G17KT 40SM 23/02 A2980 RMK AO1 T02280017






000
SXUS55 KMSO 031803
OSOMSO
MONTANA AWOS SUMMARY
NATIONAL WEATHER SERVICE MISSOULA MT
1203 PM MDT THU SEP 3 2015

Montana AWOS Reports

TWIN BRIDGES|K7S1 031755Z AUTO 34011KT 25SM 17/02 A2990 RMK AO1 T01720022
ROUNDUP     |KRPX 031755Z AUTO 01008KT 40SM 22/02 A2981 RMK AO1 T02170017
MALTA       |KM75 031755Z AUTO 34008KT 40SM 23/06 A2983 RMK AO1 T02280056
SCOBEY      |K9S2 031755Z AUTO 35017G23KT 25SM 21/06 A2982 RMK AO1 T02110061
PLAINS      |KS34 031755Z AUTO 10006KT 25SM 16/07 A2996 RMK AO1 T01560072
EKALAKA     |K97M 031755Z AUTO 27009G13KT 40SM 24/05 A2983 RMK AO1 T02440050






000
SXUS55 KMSO 031803
OSOMSO
MONTANA AWOS SUMMARY
NATIONAL WEATHER SERVICE MISSOULA MT
1203 PM MDT THU SEP 3 2015

Montana AWOS Reports

TWIN BRIDGES|K7S1 031755Z AUTO 34011KT 25SM 17/02 A2990 RMK AO1 T01720022
ROUNDUP     |KRPX 031755Z AUTO 01008KT 40SM 22/02 A2981 RMK AO1 T02170017
MALTA       |KM75 031755Z AUTO 34008KT 40SM 23/06 A2983 RMK AO1 T02280056
SCOBEY      |K9S2 031755Z AUTO 35017G23KT 25SM 21/06 A2982 RMK AO1 T02110061
PLAINS      |KS34 031755Z AUTO 10006KT 25SM 16/07 A2996 RMK AO1 T01560072
EKALAKA     |K97M 031755Z AUTO 27009G13KT 40SM 24/05 A2983 RMK AO1 T02440050






000
SXUS55 KMSO 031744
OSOMSO
MONTANA AWOS SUMMARY
NATIONAL WEATHER SERVICE MISSOULA MT
1143 AM MDT THU SEP 3 2015

Montana AWOS Reports

LAUREL      |K6S8 031735Z AUTO 00000KT 40SM 21/02 A2987 RMK AO1 T02110017
TWIN BRIDGES|K7S1 031735Z AUTO 34009KT 25SM 17/02 A2990 RMK AO1 T01720017
ROUNDUP     |KRPX 031735Z AUTO 01007KT 40SM 21/01 A2980 RMK AO1 T02110011
MALTA       |KM75 031735Z AUTO 34008KT 40SM 22/06 A2984 RMK AO1 T02170056






000
SXUS55 KMSO 031744
OSOMSO
MONTANA AWOS SUMMARY
NATIONAL WEATHER SERVICE MISSOULA MT
1143 AM MDT THU SEP 3 2015

Montana AWOS Reports

LAUREL      |K6S8 031735Z AUTO 00000KT 40SM 21/02 A2987 RMK AO1 T02110017
TWIN BRIDGES|K7S1 031735Z AUTO 34009KT 25SM 17/02 A2990 RMK AO1 T01720017
ROUNDUP     |KRPX 031735Z AUTO 01007KT 40SM 21/01 A2980 RMK AO1 T02110011
MALTA       |KM75 031735Z AUTO 34008KT 40SM 22/06 A2984 RMK AO1 T02170056






000
SXUS55 KMSO 031723
OSOMSO
MONTANA AWOS SUMMARY
NATIONAL WEATHER SERVICE MISSOULA MT
1122 AM MDT THU SEP 3 2015

Montana AWOS Reports

LAUREL      |K6S8 031715Z AUTO 04005KT 40SM 21/02 A2987 RMK AO1 T02060022
TWIN BRIDGES|K7S1 031715Z AUTO 34009KT 40SM 17/02 A2991 RMK AO1 T01670022
ROUNDUP     |KRPX 031715Z AUTO 02008KT 40SM 20/01 A2981 RMK AO1 T02000011
MALTA       |KM75 031715Z AUTO 34010G15KT 40SM 21/06 A2983 RMK AO1 T02110056






000
SXUS55 KMSO 031723
OSOMSO
MONTANA AWOS SUMMARY
NATIONAL WEATHER SERVICE MISSOULA MT
1122 AM MDT THU SEP 3 2015

Montana AWOS Reports

LAUREL      |K6S8 031715Z AUTO 04005KT 40SM 21/02 A2987 RMK AO1 T02060022
TWIN BRIDGES|K7S1 031715Z AUTO 34009KT 40SM 17/02 A2991 RMK AO1 T01670022
ROUNDUP     |KRPX 031715Z AUTO 02008KT 40SM 20/01 A2981 RMK AO1 T02000011
MALTA       |KM75 031715Z AUTO 34010G15KT 40SM 21/06 A2983 RMK AO1 T02110056






000
SXUS55 KMSO 031713
OSOMSO
MONTANA AWOS SUMMARY
NATIONAL WEATHER SERVICE MISSOULA MT
1113 AM MDT THU SEP 3 2015

Montana AWOS Reports

TWIN BRIDGES|K7S1 031655Z AUTO 36010G15KT 40SM 17/02 A2990 RMK AO1 T01670022






000
SXUS55 KMSO 031713
OSOMSO
MONTANA AWOS SUMMARY
NATIONAL WEATHER SERVICE MISSOULA MT
1113 AM MDT THU SEP 3 2015

Montana AWOS Reports

TWIN BRIDGES|K7S1 031655Z AUTO 36010G15KT 40SM 17/02 A2990 RMK AO1 T01670022






000
SXUS55 KMSO 031703
OSOMSO
MONTANA AWOS SUMMARY
NATIONAL WEATHER SERVICE MISSOULA MT
1103 AM MDT THU SEP 3 2015

Montana AWOS Reports

ROUNDUP     |KRPX 031655Z AUTO 01008KT 40SM 20/01 A2983 RMK AO1 T02000006
MALTA       |KM75 031655Z AUTO 34012G16KT 40SM 20/07 A2984 RMK AO1 T02000067
SCOBEY      |K9S2 031655Z AUTO 34015G23KT 40SM 20/06 A2983 RMK AO1 T02000061
PLAINS      |KS34 031655Z AUTO 10004KT 40SM 13/08 A2996 RMK AO1 T01330078
EKALAKA     |K97M 031655Z AUTO 28014KT 40SM 22/05 A2984 RMK AO1 T02220050






000
SXUS55 KMSO 031643
OSOMSO
MONTANA AWOS SUMMARY
NATIONAL WEATHER SERVICE MISSOULA MT
1043 AM MDT THU SEP 3 2015

Montana AWOS Reports

TWIN BRIDGES|K7S1 031635Z AUTO 35008KT 25SM 17/02 A2990 RMK AO1 T01670022
MALTA       |KM75 031635Z AUTO 34008KT 40SM 18/07 A2985 RMK AO1 T01830067
ROUNDUP     |KRPX 031635Z AUTO 36007KT 40SM 21/01 A2983 RMK AO1 T02060006






000
SXUS55 KMSO 031623
OSOMSO
MONTANA AWOS SUMMARY
NATIONAL WEATHER SERVICE MISSOULA MT
1023 AM MDT THU SEP 3 2015

Montana AWOS Reports

LAUREL      |K6S8 031615Z AUTO 04007KT 40SM 19/02 A2989 RMK AO1 T01890022
MALTA       |KM75 031615Z AUTO 34011G15KT 40SM 17/06 A2985 RMK AO1 T01720061
TWIN BRIDGES|K7S1 031615Z AUTO 34011G15KT 25SM 17/02 A2989 RMK AO1 T01670022
ROUNDUP     |KRPX 031615Z AUTO 03006KT 40SM 20/01 A2983 RMK AO1 T02000011






000
SXUS55 KMSO 031623
OSOMSO
MONTANA AWOS SUMMARY
NATIONAL WEATHER SERVICE MISSOULA MT
1023 AM MDT THU SEP 3 2015

Montana AWOS Reports

LAUREL      |K6S8 031615Z AUTO 04007KT 40SM 19/02 A2989 RMK AO1 T01890022
MALTA       |KM75 031615Z AUTO 34011G15KT 40SM 17/06 A2985 RMK AO1 T01720061
TWIN BRIDGES|K7S1 031615Z AUTO 34011G15KT 25SM 17/02 A2989 RMK AO1 T01670022
ROUNDUP     |KRPX 031615Z AUTO 03006KT 40SM 20/01 A2983 RMK AO1 T02000011






000
SXUS55 KMSO 031613
OSOMSO
MONTANA AWOS SUMMARY
NATIONAL WEATHER SERVICE MISSOULA MT
1013 AM MDT THU SEP 3 2015

Montana AWOS Reports

TWIN BRIDGES|K7S1 031555Z AUTO 35013G17KT 40SM 16/02 A2989 RMK AO1 T01610022
ROUNDUP     |KRPX 031555Z AUTO 34006KT 40SM 20/02 A2983 RMK AO1 T02000017
SCOBEY      |K9S2 031555Z AUTO 30017G23KT 25SM 19/06 A2984 RMK AO1 T01940056
PLAINS      |KS34 031555Z AUTO 00000KT 40SM 13/07 A2996 RMK AO1 T01280072
EKALAKA     |K97M 031555Z AUTO 27010G20KT 40SM 21/06 A2983 RMK AO1 T02110056






000
SXUS55 KMSO 031603
OSOMSO
MONTANA AWOS SUMMARY
NATIONAL WEATHER SERVICE MISSOULA MT
1003 AM MDT THU SEP 3 2015

Montana AWOS Reports

LAUREL      |K6S8 031555Z AUTO 04004KT 40SM 19/03 A2990 RMK AO1 T01940028
MALTA       |KM75 031555Z AUTO 33009G15KT 40SM 17/07 A2986 RMK AO1 T01670067






000
SXUS55 KMSO 031544
OSOMSO
MONTANA AWOS SUMMARY
NATIONAL WEATHER SERVICE MISSOULA MT
943 AM MDT THU SEP 3 2015

Montana AWOS Reports

TWIN BRIDGES|K7S1 031535Z AUTO 35013G19KT 40SM 16/02 A2989 RMK AO1 T01560022
ROUNDUP     |KRPX 031535Z AUTO 34009G13KT 40SM 19/02 A2982 RMK AO1 T01940017
MALTA       |KM75 031535Z AUTO 33013G18KT 40SM 17/06 A2986 RMK AO1 T01670056






000
SXUS55 KMSO 031524
OSOMSO
MONTANA AWOS SUMMARY
NATIONAL WEATHER SERVICE MISSOULA MT
923 AM MDT THU SEP 3 2015

Montana AWOS Reports

LAUREL      |K6S8 031515Z AUTO 00000KT 40SM 18/02 A2990 RMK AO1 T01830017
TWIN BRIDGES|K7S1 031515Z AUTO 01013KT 25SM 15/02 A2990 RMK AO1 T01500022
ROUNDUP     |KRPX 031515Z AUTO 35010G15KT 40SM 19/02 A2979 RMK AO1 T01890022
MALTA       |KM75 031515Z AUTO 34012G18KT 40SM 17/06 A2985 RMK AO1 T01670056






000
SXUS55 KMSO 031524
OSOMSO
MONTANA AWOS SUMMARY
NATIONAL WEATHER SERVICE MISSOULA MT
923 AM MDT THU SEP 3 2015

Montana AWOS Reports

LAUREL      |K6S8 031515Z AUTO 00000KT 40SM 18/02 A2990 RMK AO1 T01830017
TWIN BRIDGES|K7S1 031515Z AUTO 01013KT 25SM 15/02 A2990 RMK AO1 T01500022
ROUNDUP     |KRPX 031515Z AUTO 35010G15KT 40SM 19/02 A2979 RMK AO1 T01890022
MALTA       |KM75 031515Z AUTO 34012G18KT 40SM 17/06 A2985 RMK AO1 T01670056






000
SXUS55 KMSO 031513
OSOMSO
MONTANA AWOS SUMMARY
NATIONAL WEATHER SERVICE MISSOULA MT
913 AM MDT THU SEP 3 2015

Montana AWOS Reports

SCOBEY      |K9S2 031455Z AUTO 33012KT 40SM 19/05 A2979 RMK AO1 T01890050
PLAINS      |KS34 031455Z AUTO 00000KT 40SM 12/07 A2995 RMK AO1 T01170067






000
SXUS55 KMSO 031513
OSOMSO
MONTANA AWOS SUMMARY
NATIONAL WEATHER SERVICE MISSOULA MT
913 AM MDT THU SEP 3 2015

Montana AWOS Reports

SCOBEY      |K9S2 031455Z AUTO 33012KT 40SM 19/05 A2979 RMK AO1 T01890050
PLAINS      |KS34 031455Z AUTO 00000KT 40SM 12/07 A2995 RMK AO1 T01170067






000
SXUS55 KMSO 031503
OSOMSO
MONTANA AWOS SUMMARY
NATIONAL WEATHER SERVICE MISSOULA MT
903 AM MDT THU SEP 3 2015

Montana AWOS Reports

TWIN BRIDGES|K7S1 031455Z AUTO 36013G18KT 25SM 15/02 A2991 RMK AO1 T01500022
ROUNDUP     |KRPX 031455Z AUTO 01006KT 40SM 18/01 A2979 RMK AO1 T01780011
MALTA       |KM75 031455Z AUTO 32009G13KT 40SM 17/06 A2986 RMK AO1 T01670056






000
SXUS55 KMSO 031503
OSOMSO
MONTANA AWOS SUMMARY
NATIONAL WEATHER SERVICE MISSOULA MT
903 AM MDT THU SEP 3 2015

Montana AWOS Reports

TWIN BRIDGES|K7S1 031455Z AUTO 36013G18KT 25SM 15/02 A2991 RMK AO1 T01500022
ROUNDUP     |KRPX 031455Z AUTO 01006KT 40SM 18/01 A2979 RMK AO1 T01780011
MALTA       |KM75 031455Z AUTO 32009G13KT 40SM 17/06 A2986 RMK AO1 T01670056






000
SXUS55 KMSO 031443
OSOMSO
MONTANA AWOS SUMMARY
NATIONAL WEATHER SERVICE MISSOULA MT
843 AM MDT THU SEP 3 2015

Montana AWOS Reports

LAUREL      |K6S8 031435Z AUTO 00000KT 25SM 17/03 A2988 RMK AO1 T01670033
TWIN BRIDGES|K7S1 031435Z AUTO 35013G17KT 25SM 14/02 A2991 RMK AO1 T01440017
ROUNDUP     |KRPX 031435Z AUTO 00000KT 40SM 17/01 A2979 RMK AO1 T01670006
MALTA       |KM75 031435Z AUTO 00000KT 40SM 14/04 A2986 RMK AO1 T01440044






000
SXUS55 KMSO 031423
OSOMSO
MONTANA AWOS SUMMARY
NATIONAL WEATHER SERVICE MISSOULA MT
823 AM MDT THU SEP 3 2015

Montana AWOS Reports

LAUREL      |K6S8 031415Z AUTO 00000KT 25SM 16/02 A2988 RMK AO1 T01610022
MALTA       |KM75 031415Z AUTO 00000KT 40SM 14/05 A2986 RMK AO1 T01440050
TWIN BRIDGES|K7S1 031415Z AUTO 35011G15KT 25SM 14/02 A2990 RMK AO1 T01390022
ROUNDUP     |KRPX 031415Z AUTO 06006KT 40SM 17/01 A2978 RMK AO1 T01670006
EKALAKA     |K97M 031355Z AUTO 24008KT 40SM 18/03 A2978 RMK AO1 T01830033






000
SXUS55 KMSO 031403
OSOMSO
MONTANA AWOS SUMMARY
NATIONAL WEATHER SERVICE MISSOULA MT
803 AM MDT THU SEP 3 2015

Montana AWOS Reports

LAUREL      |K6S8 031355Z AUTO 00000KT 40SM 17/02 A2987 RMK AO1 T01670017
MALTA       |KM75 031355Z AUTO 00000KT 40SM 13/04 A2985 RMK AO1 T01330039
ROUNDUP     |KRPX 031355Z AUTO 07011G18KT 40SM 17/01 A2979 RMK AO1 T01720011






000
SXUS55 KMSO 031343
OSOMSO
MONTANA AWOS SUMMARY
NATIONAL WEATHER SERVICE MISSOULA MT
743 AM MDT THU SEP 3 2015

Montana AWOS Reports

TWIN BRIDGES|K7S1 031335Z AUTO 32005KT 25SM 13/02 A2989 RMK AO1 T01330022
ROUNDUP     |KRPX 031335Z AUTO 00000KT 40SM 17/01 A2983 RMK AO1 T01720006






000
SXUS55 KMSO 031323
OSOMSO
MONTANA AWOS SUMMARY
NATIONAL WEATHER SERVICE MISSOULA MT
722 AM MDT THU SEP 3 2015

Montana AWOS Reports

LAUREL      |K6S8 031315Z AUTO 00000KT 25SM 16/02 A2993 RMK AO1 T01610022
TWIN BRIDGES|K7S1 031315Z AUTO 31006KT 25SM 13/03 A2989 RMK AO1 T01330028
ROUNDUP     |KRPX 031315Z AUTO 00000KT 40SM 17/01 A2986 RMK AO1 T01720006
MALTA       |KM75 031315Z AUTO 00000KT 40SM 12/03 A2986 RMK AO1 T01170033






000
SXUS55 KMSO 031323
OSOMSO
MONTANA AWOS SUMMARY
NATIONAL WEATHER SERVICE MISSOULA MT
722 AM MDT THU SEP 3 2015

Montana AWOS Reports

LAUREL      |K6S8 031315Z AUTO 00000KT 25SM 16/02 A2993 RMK AO1 T01610022
TWIN BRIDGES|K7S1 031315Z AUTO 31006KT 25SM 13/03 A2989 RMK AO1 T01330028
ROUNDUP     |KRPX 031315Z AUTO 00000KT 40SM 17/01 A2986 RMK AO1 T01720006
MALTA       |KM75 031315Z AUTO 00000KT 40SM 12/03 A2986 RMK AO1 T01170033






000
SXUS55 KMSO 031303
OSOMSO
MONTANA AWOS SUMMARY
NATIONAL WEATHER SERVICE MISSOULA MT
703 AM MDT THU SEP 3 2015

Montana AWOS Reports

TWIN BRIDGES|K7S1 031255Z AUTO 31006KT 25SM 13/02 A2988 RMK AO1 T01330022
ROUNDUP     |KRPX 031255Z AUTO 00000KT 40SM 17/01 A2984 RMK AO1 T01720006
MALTA       |KM75 031255Z AUTO 20006KT 40SM 11/03 A2983 RMK AO1 T01110028
SCOBEY      |K9S2 031255Z AUTO 34004KT 40SM 14/04 A2975 RMK AO1 T01390039
PLAINS      |KS34 031255Z AUTO 00000KT 40SM 12/05 A2993 RMK AO1 T01170050
EKALAKA     |K97M 031255Z AUTO 25005KT 40SM 18/02 A2978 RMK AO1 T01830022






000
SXUS55 KMSO 031303
OSOMSO
MONTANA AWOS SUMMARY
NATIONAL WEATHER SERVICE MISSOULA MT
703 AM MDT THU SEP 3 2015

Montana AWOS Reports

TWIN BRIDGES|K7S1 031255Z AUTO 31006KT 25SM 13/02 A2988 RMK AO1 T01330022
ROUNDUP     |KRPX 031255Z AUTO 00000KT 40SM 17/01 A2984 RMK AO1 T01720006
MALTA       |KM75 031255Z AUTO 20006KT 40SM 11/03 A2983 RMK AO1 T01110028
SCOBEY      |K9S2 031255Z AUTO 34004KT 40SM 14/04 A2975 RMK AO1 T01390039
PLAINS      |KS34 031255Z AUTO 00000KT 40SM 12/05 A2993 RMK AO1 T01170050
EKALAKA     |K97M 031255Z AUTO 25005KT 40SM 18/02 A2978 RMK AO1 T01830022






000
SXUS55 KMSO 031243
OSOMSO
MONTANA AWOS SUMMARY
NATIONAL WEATHER SERVICE MISSOULA MT
643 AM MDT THU SEP 3 2015

Montana AWOS Reports

TWIN BRIDGES|K7S1 031235Z AUTO 31004KT 25SM 12/02 A2988 RMK AO1 T01220022
ROUNDUP     |KRPX 031235Z AUTO 17007KT 080V260 40SM 17/01 A2983 RMK AO1 T01720006
MALTA       |KM75 031235Z AUTO 00000KT 40SM 13/03 A2982 RMK AO1 T01330028






000
SXUS55 KMSO 031243
OSOMSO
MONTANA AWOS SUMMARY
NATIONAL WEATHER SERVICE MISSOULA MT
643 AM MDT THU SEP 3 2015

Montana AWOS Reports

TWIN BRIDGES|K7S1 031235Z AUTO 31004KT 25SM 12/02 A2988 RMK AO1 T01220022
ROUNDUP     |KRPX 031235Z AUTO 17007KT 080V260 40SM 17/01 A2983 RMK AO1 T01720006
MALTA       |KM75 031235Z AUTO 00000KT 40SM 13/03 A2982 RMK AO1 T01330028






000
SXUS55 KMSO 031223
OSOMSO
MONTANA AWOS SUMMARY
NATIONAL WEATHER SERVICE MISSOULA MT
622 AM MDT THU SEP 3 2015

Montana AWOS Reports

TWIN BRIDGES|K7S1 031215Z AUTO 30006KT 25SM 13/03 A2987 RMK AO1 T01280028
ROUNDUP     |KRPX 031215Z AUTO 29009G16KT 40SM 16/01 A2987 RMK AO1 T01610011
MALTA       |KM75 031215Z AUTO 29006KT 40SM 13/03 A2980 RMK AO1 T01280028






000
SXUS55 KMSO 031223
OSOMSO
MONTANA AWOS SUMMARY
NATIONAL WEATHER SERVICE MISSOULA MT
622 AM MDT THU SEP 3 2015

Montana AWOS Reports

TWIN BRIDGES|K7S1 031215Z AUTO 30006KT 25SM 13/03 A2987 RMK AO1 T01280028
ROUNDUP     |KRPX 031215Z AUTO 29009G16KT 40SM 16/01 A2987 RMK AO1 T01610011
MALTA       |KM75 031215Z AUTO 29006KT 40SM 13/03 A2980 RMK AO1 T01280028






000
SXUS55 KMSO 031204
OSOMSO
MONTANA AWOS SUMMARY
NATIONAL WEATHER SERVICE MISSOULA MT
603 AM MDT THU SEP 3 2015

Montana AWOS Reports

TWIN BRIDGES|K7S1 031155Z AUTO 30004KT 25SM 13/03 A2986 RMK AO1 T01280028
ROUNDUP     |KRPX 031155Z AUTO 27007KT 40SM 16/01 A2984 RMK AO1 T01560006
PLAINS      |KS34 031155Z AUTO 00000KT 40SM 12/05 A2992 RMK AO1 T01170050
SCOBEY      |K9S2 031155Z AUTO 00000KT 40SM 14/04 A2975 RMK AO1 T01440039
EKALAKA     |K97M 031155Z AUTO 26004KT 40SM 22/02 A2976 RMK AO1 T02170017






000
SXUS55 KMSO 031204
OSOMSO
MONTANA AWOS SUMMARY
NATIONAL WEATHER SERVICE MISSOULA MT
603 AM MDT THU SEP 3 2015

Montana AWOS Reports

TWIN BRIDGES|K7S1 031155Z AUTO 30004KT 25SM 13/03 A2986 RMK AO1 T01280028
ROUNDUP     |KRPX 031155Z AUTO 27007KT 40SM 16/01 A2984 RMK AO1 T01560006
PLAINS      |KS34 031155Z AUTO 00000KT 40SM 12/05 A2992 RMK AO1 T01170050
SCOBEY      |K9S2 031155Z AUTO 00000KT 40SM 14/04 A2975 RMK AO1 T01440039
EKALAKA     |K97M 031155Z AUTO 26004KT 40SM 22/02 A2976 RMK AO1 T02170017






000
SXUS55 KMSO 031143
OSOMSO
MONTANA AWOS SUMMARY
NATIONAL WEATHER SERVICE MISSOULA MT
543 AM MDT THU SEP 3 2015

Montana AWOS Reports

TWIN BRIDGES|K7S1 031135Z AUTO 00000KT 25SM 12/03 A2986 RMK AO1 T01220028
ROUNDUP     |KRPX 031135Z AUTO 00000KT 40SM 15/00 A2979 RMK AO1 T01500000






000
SXUS55 KMSO 031143
OSOMSO
MONTANA AWOS SUMMARY
NATIONAL WEATHER SERVICE MISSOULA MT
543 AM MDT THU SEP 3 2015

Montana AWOS Reports

TWIN BRIDGES|K7S1 031135Z AUTO 00000KT 25SM 12/03 A2986 RMK AO1 T01220028
ROUNDUP     |KRPX 031135Z AUTO 00000KT 40SM 15/00 A2979 RMK AO1 T01500000






000
SXUS55 KMSO 031123
OSOMSO
MONTANA AWOS SUMMARY
NATIONAL WEATHER SERVICE MISSOULA MT
523 AM MDT THU SEP 3 2015

Montana AWOS Reports

LAUREL      |K6S8 031115Z AUTO 25SM 16/M01 A2986 RMK AO1 T01611005
TWIN BRIDGES|K7S1 031115Z AUTO 34005KT 25SM 13/03 A2985 RMK AO1 T01280028
ROUNDUP     |KRPX 031115Z AUTO 00000KT 40SM 15/00 A2978 RMK AO1 T01500000
MALTA       |KM75 031115Z AUTO 00000KT 40SM 12/04 A2979 RMK AO1 T01220039






000
SXUS55 KMSO 031123
OSOMSO
MONTANA AWOS SUMMARY
NATIONAL WEATHER SERVICE MISSOULA MT
523 AM MDT THU SEP 3 2015

Montana AWOS Reports

LAUREL      |K6S8 031115Z AUTO 25SM 16/M01 A2986 RMK AO1 T01611005
TWIN BRIDGES|K7S1 031115Z AUTO 34005KT 25SM 13/03 A2985 RMK AO1 T01280028
ROUNDUP     |KRPX 031115Z AUTO 00000KT 40SM 15/00 A2978 RMK AO1 T01500000
MALTA       |KM75 031115Z AUTO 00000KT 40SM 12/04 A2979 RMK AO1 T01220039






000
SXUS55 KMSO 031103
OSOMSO
MONTANA AWOS SUMMARY
NATIONAL WEATHER SERVICE MISSOULA MT
503 AM MDT THU SEP 3 2015

Montana AWOS Reports

TWIN BRIDGES|K7S1 031055Z AUTO 28005KT 25SM 13/03 A2986 RMK AO1 T01280028
ROUNDUP     |KRPX 031055Z AUTO 00000KT 40SM 16/01 A2977 RMK AO1 T01560006
MALTA       |KM75 031055Z AUTO 00000KT 40SM 10/03 A2978 RMK AO1 T01000033
SCOBEY      |K9S2 031055Z AUTO 34007KT 40SM 16/04 A2976 RMK AO1 T01610044
PLAINS      |KS34 031055Z AUTO 00000KT 40SM 12/06 A2991 RMK AO1 T01220056
EKALAKA     |K97M 031055Z AUTO 00000KT 40SM 24/02 A2975 RMK AO1 T02440017






000
SXUS55 KMSO 031043
OSOMSO
MONTANA AWOS SUMMARY
NATIONAL WEATHER SERVICE MISSOULA MT
443 AM MDT THU SEP 3 2015

Montana AWOS Reports

TWIN BRIDGES|K7S1 031035Z AUTO 28007KT 25SM 13/03 A2984 RMK AO1 T01280028
ROUNDUP     |KRPX 031035Z AUTO 00000KT 40SM 16/00 A2977 RMK AO1 T01610000
MALTA       |KM75 031035Z AUTO 00000KT 40SM 09/03 A2977 RMK AO1 T00890033






000
SXUS55 KMSO 031023
OSOMSO
MONTANA AWOS SUMMARY
NATIONAL WEATHER SERVICE MISSOULA MT
422 AM MDT THU SEP 3 2015

Montana AWOS Reports

LAUREL      |K6S8 031015Z AUTO 25SM 16/M01 A2984 RMK AO1 T01561005
TWIN BRIDGES|K7S1 031015Z AUTO 33006KT 25SM 13/02 A2984 RMK AO1 T01280022
ROUNDUP     |KRPX 031015Z AUTO 00000KT 40SM 16/00 A2978 RMK AO1 T01610000
MALTA       |KM75 031015Z AUTO 00000KT 40SM 10/04 A2977 RMK AO1 T01000039






000
SXUS55 KMSO 031003
OSOMSO
MONTANA AWOS SUMMARY
NATIONAL WEATHER SERVICE MISSOULA MT
403 AM MDT THU SEP 3 2015

Montana AWOS Reports

TWIN BRIDGES|K7S1 030955Z AUTO 31005KT 25SM 13/02 A2985 RMK AO1 T01330022
ROUNDUP     |KRPX 030955Z AUTO 00000KT 40SM 17/00 A2976 RMK AO1 T01670000
SCOBEY      |K9S2 030955Z AUTO 34009KT 25SM 16/04 A2976 RMK AO1 T01610044
EKALAKA     |K97M 030955Z AUTO VRB04KT 40SM 26/01 A2974 RMK AO1 T02610011
MALTA       |KM75 030955Z AUTO 00000KT 40SM 10/04 A2977 RMK AO1 T01000039
PLAINS      |KS34 030955Z AUTO 00000KT 40SM 12/06 A2991 RMK AO1 T01220056






000
SXUS55 KMSO 030943
OSOMSO
MONTANA AWOS SUMMARY
NATIONAL WEATHER SERVICE MISSOULA MT
343 AM MDT THU SEP 3 2015

Montana AWOS Reports

LAUREL      |K6S8 030935Z AUTO 25SM 17/00 A2983 RMK AO1 T01720000
MALTA       |KM75 030935Z AUTO 00000KT 40SM 11/03 A2976 RMK AO1 T01110033
TWIN BRIDGES|K7S1 030935Z AUTO 30004KT 25SM 13/02 A2985 RMK AO1 T01330017
ROUNDUP     |KRPX 030935Z AUTO 00000KT 40SM 17/00 A2975 RMK AO1 T01670000






000
SXUS55 KMSO 030923
OSOMSO
MONTANA AWOS SUMMARY
NATIONAL WEATHER SERVICE MISSOULA MT
323 AM MDT THU SEP 3 2015

Montana AWOS Reports

TWIN BRIDGES|K7S1 030915Z AUTO 26005KT 25SM 13/02 A2984 RMK AO1 T01330017
ROUNDUP     |KRPX 030915Z AUTO 00000KT 40SM 17/01 A2975 RMK AO1 T01720006
MALTA       |KM75 030915Z AUTO 00000KT 40SM 12/04 A2975 RMK AO1 T01220039






000
SXUS55 KMSO 030903
OSOMSO
MONTANA AWOS SUMMARY
NATIONAL WEATHER SERVICE MISSOULA MT
303 AM MDT THU SEP 3 2015

Montana AWOS Reports

ROUNDUP     |KRPX 030855Z AUTO 00000KT 40SM 18/01 A2976 RMK AO1 T01830006
MALTA       |KM75 030855Z AUTO 00000KT 40SM 13/03 A2976 RMK AO1 T01280033
SCOBEY      |K9S2 030855Z AUTO 31006KT 15SM 17/04 A2975 RMK AO1 T01670044
PLAINS      |KS34 030855Z AUTO 00000KT 40SM 12/06 A2991 RMK AO1 T01220061
TWIN BRIDGES|K7S1 030855Z AUTO 00000KT 25SM 14/02 A2984 RMK AO1 T01390017






000
SXUS55 KMSO 030843
OSOMSO
MONTANA AWOS SUMMARY
NATIONAL WEATHER SERVICE MISSOULA MT
243 AM MDT THU SEP 3 2015

Montana AWOS Reports

TWIN BRIDGES|K7S1 030835Z AUTO 25009G15KT 25SM 15/02 A2985 RMK AO1 T01500022
ROUNDUP     |KRPX 030835Z AUTO 00000KT 40SM 18/01 A2975 RMK AO1 T01830006
MALTA       |KM75 030835Z AUTO 00000KT 40SM 12/03 A2977 RMK AO1 T01170033






000
SXUS55 KMSO 030823
OSOMSO
MONTANA AWOS SUMMARY
NATIONAL WEATHER SERVICE MISSOULA MT
222 AM MDT THU SEP 3 2015

Montana AWOS Reports

LAUREL      |K6S8 030815Z AUTO 00000KT 25SM 19/00 A2982 RMK AO1 T01940000
TWIN BRIDGES|K7S1 030815Z AUTO 00000KT 25SM 13/01 A2985 RMK AO1 T01280011
ROUNDUP     |KRPX 030815Z AUTO 00000KT 40SM 18/01 A2975 RMK AO1 T01830006
MALTA       |KM75 030815Z AUTO 00000KT 40SM 13/04 A2977 RMK AO1 T01280039






000
SXUS55 KMSO 030823
OSOMSO
MONTANA AWOS SUMMARY
NATIONAL WEATHER SERVICE MISSOULA MT
222 AM MDT THU SEP 3 2015

Montana AWOS Reports

LAUREL      |K6S8 030815Z AUTO 00000KT 25SM 19/00 A2982 RMK AO1 T01940000
TWIN BRIDGES|K7S1 030815Z AUTO 00000KT 25SM 13/01 A2985 RMK AO1 T01280011
ROUNDUP     |KRPX 030815Z AUTO 00000KT 40SM 18/01 A2975 RMK AO1 T01830006
MALTA       |KM75 030815Z AUTO 00000KT 40SM 13/04 A2977 RMK AO1 T01280039






000
SXUS55 KMSO 030803
OSOMSO
MONTANA AWOS SUMMARY
NATIONAL WEATHER SERVICE MISSOULA MT
203 AM MDT THU SEP 3 2015

Montana AWOS Reports

LAUREL      |K6S8 030755Z AUTO 00000KT 25SM 20/00 A2981 RMK AO1 T02000000
TWIN BRIDGES|K7S1 030755Z AUTO 00000KT 25SM 13/01 A2984 RMK AO1 T01280011
MALTA       |KM75 030755Z AUTO 00000KT 40SM 14/04 A2977 RMK AO1 T01440039
ROUNDUP     |KRPX 030755Z AUTO 00000KT 40SM 19/00 A2974 RMK AO1 T01890000
EKALAKA     |K97M 030755Z AUTO 14006KT 40SM 27/04 A2973 RMK AO1 T02670039
SCOBEY      |K9S2 030755Z AUTO 31006KT 25SM 18/06 A2974 RMK AO1 T01780061
PLAINS      |KS34 030755Z AUTO 00000KT 40SM 12/05 A2991 RMK AO1 T01220050






000
SXUS55 KMSO 030753
OSOMSO
MONTANA AWOS SUMMARY
NATIONAL WEATHER SERVICE MISSOULA MT
153 AM MDT THU SEP 3 2015

Montana AWOS Reports

TWIN BRIDGES|K7S1 030735Z AUTO 35004KT 25SM 17/00 A2984 RMK AO1 T01670000
ROUNDUP     |KRPX 030735Z AUTO 00000KT 40SM 19/00 A2975 RMK AO1 T01940000






000
SXUS55 KMSO 030753
OSOMSO
MONTANA AWOS SUMMARY
NATIONAL WEATHER SERVICE MISSOULA MT
153 AM MDT THU SEP 3 2015

Montana AWOS Reports

TWIN BRIDGES|K7S1 030735Z AUTO 35004KT 25SM 17/00 A2984 RMK AO1 T01670000
ROUNDUP     |KRPX 030735Z AUTO 00000KT 40SM 19/00 A2975 RMK AO1 T01940000






000
SXUS55 KMSO 030743
OSOMSO
MONTANA AWOS SUMMARY
NATIONAL WEATHER SERVICE MISSOULA MT
143 AM MDT THU SEP 3 2015

Montana AWOS Reports

LAUREL      |K6S8 030735Z AUTO 00000KT 25SM 20/00 A2981 RMK AO1 T02000000
MALTA       |KM75 030735Z AUTO 00000KT 40SM 14/04 A2977 RMK AO1 T01440039






000
SXUS55 KMSO 030743
OSOMSO
MONTANA AWOS SUMMARY
NATIONAL WEATHER SERVICE MISSOULA MT
143 AM MDT THU SEP 3 2015

Montana AWOS Reports

LAUREL      |K6S8 030735Z AUTO 00000KT 25SM 20/00 A2981 RMK AO1 T02000000
MALTA       |KM75 030735Z AUTO 00000KT 40SM 14/04 A2977 RMK AO1 T01440039






000
SXUS55 KMSO 030723
OSOMSO
MONTANA AWOS SUMMARY
NATIONAL WEATHER SERVICE MISSOULA MT
122 AM MDT THU SEP 3 2015

Montana AWOS Reports

LAUREL      |K6S8 030715Z AUTO 00000KT 25SM 21/01 A2980 RMK AO1 T02060006
TWIN BRIDGES|K7S1 030715Z AUTO 01009G13KT 25SM 17/01 A2984 RMK AO1 T01720006
ROUNDUP     |KRPX 030715Z AUTO 35005KT 40SM 20/00 A2974 RMK AO1 T02000000
MALTA       |KM75 030715Z AUTO 00000KT 40SM 14/04 A2976 RMK AO1 T01390039






000
SXUS55 KMSO 030723
OSOMSO
MONTANA AWOS SUMMARY
NATIONAL WEATHER SERVICE MISSOULA MT
122 AM MDT THU SEP 3 2015

Montana AWOS Reports

LAUREL      |K6S8 030715Z AUTO 00000KT 25SM 21/01 A2980 RMK AO1 T02060006
TWIN BRIDGES|K7S1 030715Z AUTO 01009G13KT 25SM 17/01 A2984 RMK AO1 T01720006
ROUNDUP     |KRPX 030715Z AUTO 35005KT 40SM 20/00 A2974 RMK AO1 T02000000
MALTA       |KM75 030715Z AUTO 00000KT 40SM 14/04 A2976 RMK AO1 T01390039






000
SXUS55 KMSO 030703
OSOMSO
MONTANA AWOS SUMMARY
NATIONAL WEATHER SERVICE MISSOULA MT
103 AM MDT THU SEP 3 2015

Montana AWOS Reports

TWIN BRIDGES|K7S1 030655Z AUTO 01012G16KT 25SM 17/00 A2984 RMK AO1 T01720000
ROUNDUP     |KRPX 030655Z AUTO 34013G17KT 40SM 20/00 A2973 RMK AO1 T02000000
MALTA       |KM75 030655Z AUTO 00000KT 40SM 14/03 A2975 RMK AO1 T01440033
SCOBEY      |K9S2 030655Z AUTO 27007KT 25SM 17/07 A2972 RMK AO1 T01670067
EKALAKA     |K97M 030655Z AUTO 13009G13KT 40SM 26/05 A2974 RMK AO1 T02560050
PLAINS      |KS34 030655Z AUTO 00000KT 40SM 12/05 A2991 RMK AO1 T01220050
LAUREL      |K6S8 030655Z AUTO 00000KT 25SM 21/00 A2979 RMK AO1 T02060000






000
SXUS55 KMSO 030703
OSOMSO
MONTANA AWOS SUMMARY
NATIONAL WEATHER SERVICE MISSOULA MT
103 AM MDT THU SEP 3 2015

Montana AWOS Reports

TWIN BRIDGES|K7S1 030655Z AUTO 01012G16KT 25SM 17/00 A2984 RMK AO1 T01720000
ROUNDUP     |KRPX 030655Z AUTO 34013G17KT 40SM 20/00 A2973 RMK AO1 T02000000
MALTA       |KM75 030655Z AUTO 00000KT 40SM 14/03 A2975 RMK AO1 T01440033
SCOBEY      |K9S2 030655Z AUTO 27007KT 25SM 17/07 A2972 RMK AO1 T01670067
EKALAKA     |K97M 030655Z AUTO 13009G13KT 40SM 26/05 A2974 RMK AO1 T02560050
PLAINS      |KS34 030655Z AUTO 00000KT 40SM 12/05 A2991 RMK AO1 T01220050
LAUREL      |K6S8 030655Z AUTO 00000KT 25SM 21/00 A2979 RMK AO1 T02060000






000
SXUS55 KMSO 030643
OSOMSO
MONTANA AWOS SUMMARY
NATIONAL WEATHER SERVICE MISSOULA MT
1243 AM MDT THU SEP 3 2015

Montana AWOS Reports

LAUREL      |K6S8 030635Z AUTO 25SM 21/01 A2980 RMK AO1 T02110006
TWIN BRIDGES|K7S1 030635Z AUTO 35010G14KT 25SM 18/01 A2984 RMK AO1 T01780006
ROUNDUP     |KRPX 030635Z AUTO 34012G20KT 40SM 21/00 A2973 RMK AO1 T02110000
MALTA       |KM75 030635Z AUTO 00000KT 40SM 16/03 A2975 RMK AO1 T01610033






000
SXUS55 KMSO 030623
OSOMSO
MONTANA AWOS SUMMARY
NATIONAL WEATHER SERVICE MISSOULA MT
1223 AM MDT THU SEP 3 2015

Montana AWOS Reports

LAUREL      |K6S8 030615Z AUTO 40SM 22/01 A2979 RMK AO1 T02170006
TWIN BRIDGES|K7S1 030615Z AUTO 36011G15KT 25SM 18/01 A2984 RMK AO1 T01780006
MALTA       |KM75 030615Z AUTO 00000KT 40SM 18/03 A2975 RMK AO1 T01780033
ROUNDUP     |KRPX 030615Z AUTO 33013G19KT 40SM 22/01 A2973 RMK AO1 T02170006






000
SXUS55 KMSO 030623
OSOMSO
MONTANA AWOS SUMMARY
NATIONAL WEATHER SERVICE MISSOULA MT
1223 AM MDT THU SEP 3 2015

Montana AWOS Reports

LAUREL      |K6S8 030615Z AUTO 40SM 22/01 A2979 RMK AO1 T02170006
TWIN BRIDGES|K7S1 030615Z AUTO 36011G15KT 25SM 18/01 A2984 RMK AO1 T01780006
MALTA       |KM75 030615Z AUTO 00000KT 40SM 18/03 A2975 RMK AO1 T01780033
ROUNDUP     |KRPX 030615Z AUTO 33013G19KT 40SM 22/01 A2973 RMK AO1 T02170006






000
SXUS55 KMSO 030613
OSOMSO
MONTANA AWOS SUMMARY
NATIONAL WEATHER SERVICE MISSOULA MT
1212 AM MDT THU SEP 3 2015

Montana AWOS Reports

MALTA       |KM75 030555Z AUTO 00000KT 40SM 19/03 A2973 RMK AO1 T01890028
PLAINS      |KS34 030555Z AUTO 00000KT 40SM 13/06 A2991 RMK AO1 T01280056
EKALAKA     |K97M 030555Z AUTO 13010G17KT 40SM 26/07 A2975 RMK AO1 T02610072






000
SXUS55 KMSO 030613
OSOMSO
MONTANA AWOS SUMMARY
NATIONAL WEATHER SERVICE MISSOULA MT
1212 AM MDT THU SEP 3 2015

Montana AWOS Reports

MALTA       |KM75 030555Z AUTO 00000KT 40SM 19/03 A2973 RMK AO1 T01890028
PLAINS      |KS34 030555Z AUTO 00000KT 40SM 13/06 A2991 RMK AO1 T01280056
EKALAKA     |K97M 030555Z AUTO 13010G17KT 40SM 26/07 A2975 RMK AO1 T02610072






000
SXUS55 KMSO 030603
OSOMSO
MONTANA AWOS SUMMARY
NATIONAL WEATHER SERVICE MISSOULA MT
1203 AM MDT THU SEP 3 2015

Montana AWOS Reports

SCOBEY      |K9S2 030555Z AUTO 00000KT 15SM 17/07 A2972 RMK AO1 T01670067
LAUREL      |K6S8 030555Z AUTO 00000KT 40SM 22/00 A2979 RMK AO1 T02170000
TWIN BRIDGES|K7S1 030555Z AUTO 36010KT 25SM 18/00 A2984 RMK AO1 T01780000
ROUNDUP     |KRPX 030555Z AUTO 32005KT 40SM 23/01 A2973 RMK AO1 T02280011






000
SXUS55 KMSO 030603
OSOMSO
MONTANA AWOS SUMMARY
NATIONAL WEATHER SERVICE MISSOULA MT
1203 AM MDT THU SEP 3 2015

Montana AWOS Reports

SCOBEY      |K9S2 030555Z AUTO 00000KT 15SM 17/07 A2972 RMK AO1 T01670067
LAUREL      |K6S8 030555Z AUTO 00000KT 40SM 22/00 A2979 RMK AO1 T02170000
TWIN BRIDGES|K7S1 030555Z AUTO 36010KT 25SM 18/00 A2984 RMK AO1 T01780000
ROUNDUP     |KRPX 030555Z AUTO 32005KT 40SM 23/01 A2973 RMK AO1 T02280011






000
SXUS55 KMSO 030544
OSOMSO
MONTANA AWOS SUMMARY
NATIONAL WEATHER SERVICE MISSOULA MT
1143 PM MDT WED SEP 2 2015

Montana AWOS Reports

LAUREL      |K6S8 030535Z AUTO 00000KT 40SM 22/00 A2978 RMK AO1 T02170000
TWIN BRIDGES|K7S1 030535Z AUTO 01010G14KT 25SM 18/01 A2984 RMK AO1 T01830006
ROUNDUP     |KRPX 030535Z AUTO 00000KT 40SM 23/01 A2972 RMK AO1 T02330011
MALTA       |KM75 030535Z AUTO 00000KT 40SM 19/03 A2972 RMK AO1 T01940033






000
SXUS55 KMSO 030544
OSOMSO
MONTANA AWOS SUMMARY
NATIONAL WEATHER SERVICE MISSOULA MT
1143 PM MDT WED SEP 2 2015

Montana AWOS Reports

LAUREL      |K6S8 030535Z AUTO 00000KT 40SM 22/00 A2978 RMK AO1 T02170000
TWIN BRIDGES|K7S1 030535Z AUTO 01010G14KT 25SM 18/01 A2984 RMK AO1 T01830006
ROUNDUP     |KRPX 030535Z AUTO 00000KT 40SM 23/01 A2972 RMK AO1 T02330011
MALTA       |KM75 030535Z AUTO 00000KT 40SM 19/03 A2972 RMK AO1 T01940033






000
SXUS55 KMSO 030533
OSOMSO
MONTANA AWOS SUMMARY
NATIONAL WEATHER SERVICE MISSOULA MT
1133 PM MDT WED SEP 2 2015

Montana AWOS Reports

LAUREL      |K6S8 030515Z AUTO 00000KT 40SM 21/M01 A2976 RMK AO1 T02111010






000
SXUS55 KMSO 030523
OSOMSO
MONTANA AWOS SUMMARY
NATIONAL WEATHER SERVICE MISSOULA MT
1123 PM MDT WED SEP 2 2015

Montana AWOS Reports

TWIN BRIDGES|K7S1 030515Z AUTO 36008KT 25SM 18/00 A2984 RMK AO1 T01830000
ROUNDUP     |KRPX 030515Z AUTO 30006KT 40SM 24/01 A2971 RMK AO1 T02390006
MALTA       |KM75 030515Z AUTO 00000KT 40SM 23/03 A2971 RMK AO1 T02280028






000
SXUS55 KMSO 030523
OSOMSO
MONTANA AWOS SUMMARY
NATIONAL WEATHER SERVICE MISSOULA MT
1123 PM MDT WED SEP 2 2015

Montana AWOS Reports

TWIN BRIDGES|K7S1 030515Z AUTO 36008KT 25SM 18/00 A2984 RMK AO1 T01830000
ROUNDUP     |KRPX 030515Z AUTO 30006KT 40SM 24/01 A2971 RMK AO1 T02390006
MALTA       |KM75 030515Z AUTO 00000KT 40SM 23/03 A2971 RMK AO1 T02280028






000
SXUS55 KMSO 030513
OSOMSO
MONTANA AWOS SUMMARY
NATIONAL WEATHER SERVICE MISSOULA MT
1113 PM MDT WED SEP 2 2015

Montana AWOS Reports

EKALAKA     |K97M 030455Z AUTO 13011KT 40SM 26/07 A2976 RMK AO1 T02560067






000
SXUS55 KMSO 030513
OSOMSO
MONTANA AWOS SUMMARY
NATIONAL WEATHER SERVICE MISSOULA MT
1113 PM MDT WED SEP 2 2015

Montana AWOS Reports

EKALAKA     |K97M 030455Z AUTO 13011KT 40SM 26/07 A2976 RMK AO1 T02560067






000
SXUS55 KMSO 030503
OSOMSO
MONTANA AWOS SUMMARY
NATIONAL WEATHER SERVICE MISSOULA MT
1103 PM MDT WED SEP 2 2015

Montana AWOS Reports

TWIN BRIDGES|K7S1 030455Z AUTO 34009KT 25SM 19/00 A2984 RMK AO1 T01890000
ROUNDUP     |KRPX 030455Z AUTO 33007KT 40SM 24/00 A2971 RMK AO1 T02390000
MALTA       |KM75 030455Z AUTO 31007KT 25SM 23/03 A2971 RMK AO1 T02330033
LAUREL      |K6S8 030455Z AUTO 00000KT 40SM 22/M01 A2977 RMK AO1 T02171005






000
SXUS55 KMSO 030503
OSOMSO
MONTANA AWOS SUMMARY
NATIONAL WEATHER SERVICE MISSOULA MT
1103 PM MDT WED SEP 2 2015

Montana AWOS Reports

TWIN BRIDGES|K7S1 030455Z AUTO 34009KT 25SM 19/00 A2984 RMK AO1 T01890000
ROUNDUP     |KRPX 030455Z AUTO 33007KT 40SM 24/00 A2971 RMK AO1 T02390000
MALTA       |KM75 030455Z AUTO 31007KT 25SM 23/03 A2971 RMK AO1 T02330033
LAUREL      |K6S8 030455Z AUTO 00000KT 40SM 22/M01 A2977 RMK AO1 T02171005






000
SXUS55 KMSO 030453
OSOMSO
MONTANA AWOS SUMMARY
NATIONAL WEATHER SERVICE MISSOULA MT
1052 PM MDT WED SEP 2 2015

Montana AWOS Reports

LAUREL      |K6S8 030435Z AUTO 00000KT 40SM 22/01 A2977 RMK AO1 T02220006
TWIN BRIDGES|K7S1 030435Z AUTO 33006KT 25SM 19/M01 A2985 RMK AO1 T01891005
ROUNDUP     |KRPX 030435Z AUTO 32004KT 40SM 24/01 A2971 RMK AO1 T02440006
MALTA       |KM75 030435Z AUTO 32010G17KT 25SM 24/03 A2970 RMK AO1 T02390033






000
SXUS55 KMSO 030423
OSOMSO
MONTANA AWOS SUMMARY
NATIONAL WEATHER SERVICE MISSOULA MT
1023 PM MDT WED SEP 2 2015

Montana AWOS Reports

LAUREL      |K6S8 030415Z AUTO 00000KT 40SM 24/01 A2976 RMK AO1 T02390011
TWIN BRIDGES|K7S1 030415Z AUTO 34009KT 25SM 20/00 A2985 RMK AO1 T02000000
ROUNDUP     |KRPX 030415Z AUTO 32005KT 40SM 24/01 A2971 RMK AO1 T02440006
MALTA       |KM75 030415Z AUTO 31013G18KT 25SM 24/03 A2969 RMK AO1 T02390028






000
SXUS55 KMSO 030413
OSOMSO
MONTANA AWOS SUMMARY
NATIONAL WEATHER SERVICE MISSOULA MT
1013 PM MDT WED SEP 2 2015

Montana AWOS Reports

SCOBEY      |K9S2 030355Z AUTO 27004KT 15SM 17/06 A2968 RMK AO1 T01720061
EKALAKA     |K97M 030355Z AUTO 13007KT 40SM 26/06 A2977 RMK AO1 T02610056






000
SXUS55 KMSO 030404
OSOMSO
MONTANA AWOS SUMMARY
NATIONAL WEATHER SERVICE MISSOULA MT
1003 PM MDT WED SEP 2 2015

Montana AWOS Reports

LAUREL      |K6S8 030355Z AUTO 00000KT 40SM 23/M01 A2976 RMK AO1 T02331005
TWIN BRIDGES|K7S1 030355Z AUTO 34010G15KT 25SM 21/00 A2984 RMK AO1 T02110000
ROUNDUP     |KRPX 030355Z AUTO 31004KT 40SM 24/01 A2970 RMK AO1 T02440006
MALTA       |KM75 030355Z AUTO 32013G18KT 40SM 24/03 A2970 RMK AO1 T02440033
PLAINS      |KS34 030355Z AUTO 00000KT 40SM 15/06 A2993 RMK AO1 T01500056






000
SXUS55 KMSO 030343
OSOMSO
MONTANA AWOS SUMMARY
NATIONAL WEATHER SERVICE MISSOULA MT
943 PM MDT WED SEP 2 2015

Montana AWOS Reports

LAUREL      |K6S8 030335Z AUTO 00000KT 40SM 23/00 A2976 RMK AO1 T02330000
TWIN BRIDGES|K7S1 030335Z AUTO 34010G14KT 25SM 22/00 A2984 RMK AO1 T02170000
ROUNDUP     |KRPX 030335Z AUTO 31009G14KT 40SM 25/01 A2969 RMK AO1 T02500006
MALTA       |KM75 030335Z AUTO 31011G21KT 25SM 24/04 A2969 RMK AO1 T02440039






000
SXUS55 KMSO 030323
OSOMSO
MONTANA AWOS SUMMARY
NATIONAL WEATHER SERVICE MISSOULA MT
923 PM MDT WED SEP 2 2015

Montana AWOS Reports

TWIN BRIDGES|K7S1 030315Z AUTO 00000KT 25SM 19/M01 A2984 RMK AO1 T01941005
ROUNDUP     |KRPX 030315Z AUTO 32007KT 40SM 25/01 A2968 RMK AO1 T02500011
LAUREL      |K6S8 030315Z AUTO 00000KT 40SM 24/02 A2976 RMK AO1 T02440022
MALTA       |KM75 030315Z AUTO 34005KT 40SM 24/04 A2968 RMK AO1 T02440039






000
SXUS55 KMSO 030313
OSOMSO
MONTANA AWOS SUMMARY
NATIONAL WEATHER SERVICE MISSOULA MT
912 PM MDT WED SEP 2 2015

Montana AWOS Reports

SCOBEY      |K9S2 030255Z AUTO 00000KT 25SM 18/06 A2968 RMK AO1 T01780056
EKALAKA     |K97M 030255Z AUTO 13008KT 40SM 27/05 A2977 RMK AO1 T02720050
PLAINS      |KS34 030255Z AUTO 00000KT 40SM 15/06 A2992 RMK AO1 T01500056






000
SXUS55 KMSO 030313
OSOMSO
MONTANA AWOS SUMMARY
NATIONAL WEATHER SERVICE MISSOULA MT
912 PM MDT WED SEP 2 2015

Montana AWOS Reports

SCOBEY      |K9S2 030255Z AUTO 00000KT 25SM 18/06 A2968 RMK AO1 T01780056
EKALAKA     |K97M 030255Z AUTO 13008KT 40SM 27/05 A2977 RMK AO1 T02720050
PLAINS      |KS34 030255Z AUTO 00000KT 40SM 15/06 A2992 RMK AO1 T01500056






000
SXUS55 KMSO 030303
OSOMSO
MONTANA AWOS SUMMARY
NATIONAL WEATHER SERVICE MISSOULA MT
903 PM MDT WED SEP 2 2015

Montana AWOS Reports

LAUREL      |K6S8 030255Z AUTO 00000KT 40SM 25/01 A2975 RMK AO1 T02500006
ROUNDUP     |KRPX 030255Z AUTO 00000KT 40SM 24/M01 A2968 RMK AO1 T02441005
MALTA       |KM75 030255Z AUTO 33005KT 40SM 24/04 A2967 RMK AO1 T02440039
TWIN BRIDGES|K7S1 030255Z AUTO 00000KT 25SM 21/01 A2983 RMK AO1 T02110006






000
SXUS55 KMSO 030244
OSOMSO
MONTANA AWOS SUMMARY
NATIONAL WEATHER SERVICE MISSOULA MT
843 PM MDT WED SEP 2 2015

Montana AWOS Reports

LAUREL      |K6S8 030235Z AUTO 00000KT 40SM 26/00 A2974 RMK AO1 T02560000
ROUNDUP     |KRPX 030235Z AUTO 00000KT 40SM 29/M01 A2966 RMK AO1 T02941010
MALTA       |KM75 030235Z AUTO 33007KT 40SM 24/04 A2967 RMK AO1 T02440039






000
SXUS55 KMSO 030244
OSOMSO
MONTANA AWOS SUMMARY
NATIONAL WEATHER SERVICE MISSOULA MT
843 PM MDT WED SEP 2 2015

Montana AWOS Reports

LAUREL      |K6S8 030235Z AUTO 00000KT 40SM 26/00 A2974 RMK AO1 T02560000
ROUNDUP     |KRPX 030235Z AUTO 00000KT 40SM 29/M01 A2966 RMK AO1 T02941010
MALTA       |KM75 030235Z AUTO 33007KT 40SM 24/04 A2967 RMK AO1 T02440039






000
SXUS55 KMSO 030223
OSOMSO
MONTANA AWOS SUMMARY
NATIONAL WEATHER SERVICE MISSOULA MT
823 PM MDT WED SEP 2 2015

Montana AWOS Reports

LAUREL      |K6S8 030215Z AUTO 00000KT 40SM 26/00 A2973 RMK AO1 T02610000
TWIN BRIDGES|K7S1 030215Z AUTO 11006KT 25SM 23/01 A2981 RMK AO1 T02280006
ROUNDUP     |KRPX 030215Z AUTO 00000KT 40SM 30/M02 A2965 RMK AO1 T03001016
MALTA       |KM75 030215Z AUTO 33006KT 40SM 26/05 A2965 RMK AO1 T02560050
SCOBEY      |K9S2 030155Z AUTO 00000KT 25SM 23/06 A2968 RMK AO1 T02280061
MALTA       |KM75 030155Z AUTO 00000KT 40SM 26/05 A2965 RMK AO1 T02610050
PLAINS      |KS34 030155Z AUTO 20006KT 7SM 16/04 A2992 RMK AO1 T01610039
EKALAKA     |K97M 030155Z AUTO 13009KT 40SM 27/05 A2977 RMK AO1 T02720050






000
SXUS55 KMSO 030223
OSOMSO
MONTANA AWOS SUMMARY
NATIONAL WEATHER SERVICE MISSOULA MT
823 PM MDT WED SEP 2 2015

Montana AWOS Reports

LAUREL      |K6S8 030215Z AUTO 00000KT 40SM 26/00 A2973 RMK AO1 T02610000
TWIN BRIDGES|K7S1 030215Z AUTO 11006KT 25SM 23/01 A2981 RMK AO1 T02280006
ROUNDUP     |KRPX 030215Z AUTO 00000KT 40SM 30/M02 A2965 RMK AO1 T03001016
MALTA       |KM75 030215Z AUTO 33006KT 40SM 26/05 A2965 RMK AO1 T02560050
SCOBEY      |K9S2 030155Z AUTO 00000KT 25SM 23/06 A2968 RMK AO1 T02280061
MALTA       |KM75 030155Z AUTO 00000KT 40SM 26/05 A2965 RMK AO1 T02610050
PLAINS      |KS34 030155Z AUTO 20006KT 7SM 16/04 A2992 RMK AO1 T01610039
EKALAKA     |K97M 030155Z AUTO 13009KT 40SM 27/05 A2977 RMK AO1 T02720050






000
SXUS55 KMSO 030203
OSOMSO
MONTANA AWOS SUMMARY
NATIONAL WEATHER SERVICE MISSOULA MT
803 PM MDT WED SEP 2 2015

Montana AWOS Reports

LAUREL      |K6S8 030155Z AUTO 00000KT 40SM 27/00 A2973 RMK AO1 T02720000
TWIN BRIDGES|K7S1 030155Z AUTO 12007KT 25SM 24/01 A2981 RMK AO1 T02390006
ROUNDUP     |KRPX 030155Z AUTO 00000KT 40SM 30/M02 A2964 RMK AO1 T03001016






000
SXUS55 KMSO 030143
OSOMSO
MONTANA AWOS SUMMARY
NATIONAL WEATHER SERVICE MISSOULA MT
743 PM MDT WED SEP 2 2015

Montana AWOS Reports

TWIN BRIDGES|K7S1 030135Z AUTO 13010G14KT 25SM 25/01 A2980 RMK AO1 T02500006
ROUNDUP     |KRPX 030135Z AUTO 00000KT 40SM 31/M01 A2964 RMK AO1 T03061010
MALTA       |KM75 030135Z AUTO 32006KT 40SM 27/06 A2964 RMK AO1 T02720056
LAUREL      |K6S8 030135Z AUTO 00000KT 40SM 29/01 A2972 RMK AO1 T02890006






000
SXUS55 KMSO 030143
OSOMSO
MONTANA AWOS SUMMARY
NATIONAL WEATHER SERVICE MISSOULA MT
743 PM MDT WED SEP 2 2015

Montana AWOS Reports

TWIN BRIDGES|K7S1 030135Z AUTO 13010G14KT 25SM 25/01 A2980 RMK AO1 T02500006
ROUNDUP     |KRPX 030135Z AUTO 00000KT 40SM 31/M01 A2964 RMK AO1 T03061010
MALTA       |KM75 030135Z AUTO 32006KT 40SM 27/06 A2964 RMK AO1 T02720056
LAUREL      |K6S8 030135Z AUTO 00000KT 40SM 29/01 A2972 RMK AO1 T02890006






000
SXUS55 KMSO 030123
OSOMSO
MONTANA AWOS SUMMARY
NATIONAL WEATHER SERVICE MISSOULA MT
723 PM MDT WED SEP 2 2015

Montana AWOS Reports

LAUREL      |K6S8 030115Z AUTO 00000KT 40SM 31/02 A2972 RMK AO1 T03060017
ROUNDUP     |KRPX 030115Z AUTO 24006KT 40SM 32/M01 A2964 RMK AO1 T03221010
MALTA       |KM75 030115Z AUTO 34005KT 40SM 28/08 A2964 RMK AO1 T02830078






000
SXUS55 KMSO 030123
OSOMSO
MONTANA AWOS SUMMARY
NATIONAL WEATHER SERVICE MISSOULA MT
723 PM MDT WED SEP 2 2015

Montana AWOS Reports

LAUREL      |K6S8 030115Z AUTO 00000KT 40SM 31/02 A2972 RMK AO1 T03060017
ROUNDUP     |KRPX 030115Z AUTO 24006KT 40SM 32/M01 A2964 RMK AO1 T03221010
MALTA       |KM75 030115Z AUTO 34005KT 40SM 28/08 A2964 RMK AO1 T02830078






000
SXUS55 KMSO 030103
OSOMSO
MONTANA AWOS SUMMARY
NATIONAL WEATHER SERVICE MISSOULA MT
703 PM MDT WED SEP 2 2015

Montana AWOS Reports

LAUREL      |K6S8 030055Z AUTO 00000KT 40SM 33/03 A2972 RMK AO1 T03330033
ROUNDUP     |KRPX 030055Z AUTO 24007KT 40SM 32/M02 A2964 RMK AO1 T03221021
MALTA       |KM75 030055Z AUTO 00000KT 40SM 30/07 A2962 RMK AO1 T03000072
SCOBEY      |K9S2 030055Z AUTO 00000KT 40SM 28/08 A2968 RMK AO1 T02780078
EKALAKA     |K97M 030055Z AUTO 13005KT 40SM 30/04 A2976 RMK AO1 T03000044






000
SXUS55 KMSO 030103
OSOMSO
MONTANA AWOS SUMMARY
NATIONAL WEATHER SERVICE MISSOULA MT
703 PM MDT WED SEP 2 2015

Montana AWOS Reports

LAUREL      |K6S8 030055Z AUTO 00000KT 40SM 33/03 A2972 RMK AO1 T03330033
ROUNDUP     |KRPX 030055Z AUTO 24007KT 40SM 32/M02 A2964 RMK AO1 T03221021
MALTA       |KM75 030055Z AUTO 00000KT 40SM 30/07 A2962 RMK AO1 T03000072
SCOBEY      |K9S2 030055Z AUTO 00000KT 40SM 28/08 A2968 RMK AO1 T02780078
EKALAKA     |K97M 030055Z AUTO 13005KT 40SM 30/04 A2976 RMK AO1 T03000044






000
SXUS55 KMSO 030043
OSOMSO
MONTANA AWOS SUMMARY
NATIONAL WEATHER SERVICE MISSOULA MT
643 PM MDT WED SEP 2 2015

Montana AWOS Reports

EKALAKA     |K97M 022355Z AUTO 13007KT 40SM 33/02 A2976 RMK AO1 T03330022
TWIN BRIDGES|K7S1 030035Z AUTO 17011G16KT 25SM 28/03 A2979 RMK AO1 T02780033
MALTA       |KM75 030035Z AUTO 00000KT 40SM 32/09 A2962 RMK AO1 T03170094
LAUREL      |K6S8 030035Z AUTO 21005KT 40SM 34/02 A2971 RMK AO1 T03440017
ROUNDUP     |KRPX 030035Z AUTO 23010G15KT 40SM 33/M02 A2963 RMK AO1 T03281016






000
SXUS55 KMSO 030043
OSOMSO
MONTANA AWOS SUMMARY
NATIONAL WEATHER SERVICE MISSOULA MT
643 PM MDT WED SEP 2 2015

Montana AWOS Reports

EKALAKA     |K97M 022355Z AUTO 13007KT 40SM 33/02 A2976 RMK AO1 T03330022
TWIN BRIDGES|K7S1 030035Z AUTO 17011G16KT 25SM 28/03 A2979 RMK AO1 T02780033
MALTA       |KM75 030035Z AUTO 00000KT 40SM 32/09 A2962 RMK AO1 T03170094
LAUREL      |K6S8 030035Z AUTO 21005KT 40SM 34/02 A2971 RMK AO1 T03440017
ROUNDUP     |KRPX 030035Z AUTO 23010G15KT 40SM 33/M02 A2963 RMK AO1 T03281016






000
SXUS55 KMSO 030024
OSOMSO
MONTANA AWOS SUMMARY
NATIONAL WEATHER SERVICE MISSOULA MT
623 PM MDT WED SEP 2 2015

Montana AWOS Reports

LAUREL      |K6S8 030015Z AUTO 23006KT 40SM 34/02 A2971 RMK AO1 T03440017
TWIN BRIDGES|K7S1 030015Z AUTO 14009G17KT 25SM 28/02 A2979 RMK AO1 T02780022
ROUNDUP     |KRPX 030015Z AUTO 22009G14KT 40SM 33/M01 A2963 RMK AO1 T03331010
MALTA       |KM75 030015Z AUTO 00000KT 40SM 32/09 A2961 RMK AO1 T03170089






000
SXUS55 KMSO 030024
OSOMSO
MONTANA AWOS SUMMARY
NATIONAL WEATHER SERVICE MISSOULA MT
623 PM MDT WED SEP 2 2015

Montana AWOS Reports

LAUREL      |K6S8 030015Z AUTO 23006KT 40SM 34/02 A2971 RMK AO1 T03440017
TWIN BRIDGES|K7S1 030015Z AUTO 14009G17KT 25SM 28/02 A2979 RMK AO1 T02780022
ROUNDUP     |KRPX 030015Z AUTO 22009G14KT 40SM 33/M01 A2963 RMK AO1 T03331010
MALTA       |KM75 030015Z AUTO 00000KT 40SM 32/09 A2961 RMK AO1 T03170089






000
SXUS55 KMSO 030013
OSOMSO
MONTANA AWOS SUMMARY
NATIONAL WEATHER SERVICE MISSOULA MT
613 PM MDT WED SEP 2 2015

Montana AWOS Reports

SCOBEY      |K9S2 022355Z AUTO 00000KT 40SM 32/08 A2968 RMK AO1 T03220078
MALTA       |KM75 022355Z AUTO 36004KT 40SM 33/08 A2961 RMK AO1 T03280078






000
SXUS55 KMSO 030013
OSOMSO
MONTANA AWOS SUMMARY
NATIONAL WEATHER SERVICE MISSOULA MT
613 PM MDT WED SEP 2 2015

Montana AWOS Reports

SCOBEY      |K9S2 022355Z AUTO 00000KT 40SM 32/08 A2968 RMK AO1 T03220078
MALTA       |KM75 022355Z AUTO 36004KT 40SM 33/08 A2961 RMK AO1 T03280078






000
SXUS55 KMSO 030004
OSOMSO
MONTANA AWOS SUMMARY
NATIONAL WEATHER SERVICE MISSOULA MT
603 PM MDT WED SEP 2 2015

Montana AWOS Reports

LAUREL      |K6S8 022355Z AUTO 21007KT 40SM 35/02 A2971 RMK AO1 T03500022
TWIN BRIDGES|K7S1 022355Z AUTO 19010G15KT 25SM 28/01 A2978 RMK AO1 T02780011
ROUNDUP     |KRPX 022355Z AUTO 21010G14KT 40SM 34/M01 A2962 RMK AO1 T03391005
PLAINS      |KS34 022355Z AUTO 00000KT 40SM 18/06 A2990 RMK AO1 T01780056






000
SXUS55 KMSO 030004
OSOMSO
MONTANA AWOS SUMMARY
NATIONAL WEATHER SERVICE MISSOULA MT
603 PM MDT WED SEP 2 2015

Montana AWOS Reports

LAUREL      |K6S8 022355Z AUTO 21007KT 40SM 35/02 A2971 RMK AO1 T03500022
TWIN BRIDGES|K7S1 022355Z AUTO 19010G15KT 25SM 28/01 A2978 RMK AO1 T02780011
ROUNDUP     |KRPX 022355Z AUTO 21010G14KT 40SM 34/M01 A2962 RMK AO1 T03391005
PLAINS      |KS34 022355Z AUTO 00000KT 40SM 18/06 A2990 RMK AO1 T01780056






000
SXUS55 KMSO 022343
OSOMSO
MONTANA AWOS SUMMARY
NATIONAL WEATHER SERVICE MISSOULA MT
543 PM MDT WED SEP 2 2015

Montana AWOS Reports

TWIN BRIDGES|K7S1 022335Z AUTO 13009G13KT 40SM 29/M01 A2977 RMK AO1 T02891005
ROUNDUP     |KRPX 022335Z AUTO 22012G16KT 40SM 34/M01 A2963 RMK AO1 T03391005
MALTA       |KM75 022335Z AUTO 03005KT 40SM 33/09 A2961 RMK AO1 T03330089
LAUREL      |K6S8 022335Z AUTO 21006KT 40SM 34/02 A2971 RMK AO1 T03440017






000
SXUS55 KMSO 022343
OSOMSO
MONTANA AWOS SUMMARY
NATIONAL WEATHER SERVICE MISSOULA MT
543 PM MDT WED SEP 2 2015

Montana AWOS Reports

TWIN BRIDGES|K7S1 022335Z AUTO 13009G13KT 40SM 29/M01 A2977 RMK AO1 T02891005
ROUNDUP     |KRPX 022335Z AUTO 22012G16KT 40SM 34/M01 A2963 RMK AO1 T03391005
MALTA       |KM75 022335Z AUTO 03005KT 40SM 33/09 A2961 RMK AO1 T03330089
LAUREL      |K6S8 022335Z AUTO 21006KT 40SM 34/02 A2971 RMK AO1 T03440017






000
SXUS55 KMSO 022323
OSOMSO
MONTANA AWOS SUMMARY
NATIONAL WEATHER SERVICE MISSOULA MT
523 PM MDT WED SEP 2 2015

Montana AWOS Reports

TWIN BRIDGES|K7S1 022315Z AUTO 19009G17KT 40SM 29/03 A2977 RMK AO1 T02890028
LAUREL      |K6S8 022315Z AUTO 22010G16KT 40SM 35/01 A2971 RMK AO1 T03500011
ROUNDUP     |KRPX 022315Z AUTO 21017G23KT 40SM 34/M02 A2963 RMK AO1 T03391021
MALTA       |KM75 022315Z AUTO 03004KT 40SM 33/08 A2961 RMK AO1 T03280083






000
SXUS55 KMSO 022323
OSOMSO
MONTANA AWOS SUMMARY
NATIONAL WEATHER SERVICE MISSOULA MT
523 PM MDT WED SEP 2 2015

Montana AWOS Reports

TWIN BRIDGES|K7S1 022315Z AUTO 19009G17KT 40SM 29/03 A2977 RMK AO1 T02890028
LAUREL      |K6S8 022315Z AUTO 22010G16KT 40SM 35/01 A2971 RMK AO1 T03500011
ROUNDUP     |KRPX 022315Z AUTO 21017G23KT 40SM 34/M02 A2963 RMK AO1 T03391021
MALTA       |KM75 022315Z AUTO 03004KT 40SM 33/08 A2961 RMK AO1 T03280083






000
SXUS55 KMSO 022303
OSOMSO
MONTANA AWOS SUMMARY
NATIONAL WEATHER SERVICE MISSOULA MT
502 PM MDT WED SEP 2 2015

Montana AWOS Reports

TWIN BRIDGES|K7S1 022255Z AUTO 19005KT 40SM 28/04 A2977 RMK AO1 T02830044
ROUNDUP     |KRPX 022255Z AUTO 21016G22KT 40SM 34/M02 A2962 RMK AO1 T03441016
SCOBEY      |K9S2 022255Z AUTO 27005KT 40SM 34/04 A2967 RMK AO1 T03440039
EKALAKA     |K97M 022255Z AUTO 16004KT 25SM 34/02 A2976 RMK AO1 T03440017
LAUREL      |K6S8 022255Z AUTO 19007KT 40SM 35/01 A2971 RMK AO1 T03500011
PLAINS      |KS34 022255Z AUTO 20008KT 25SM 17/07 A2990 RMK AO1 T01720072
MALTA       |KM75 022255Z AUTO 00000KT 40SM 31/09 A2961 RMK AO1 T03110089






000
SXUS55 KMSO 022303
OSOMSO
MONTANA AWOS SUMMARY
NATIONAL WEATHER SERVICE MISSOULA MT
502 PM MDT WED SEP 2 2015

Montana AWOS Reports

TWIN BRIDGES|K7S1 022255Z AUTO 19005KT 40SM 28/04 A2977 RMK AO1 T02830044
ROUNDUP     |KRPX 022255Z AUTO 21016G22KT 40SM 34/M02 A2962 RMK AO1 T03441016
SCOBEY      |K9S2 022255Z AUTO 27005KT 40SM 34/04 A2967 RMK AO1 T03440039
EKALAKA     |K97M 022255Z AUTO 16004KT 25SM 34/02 A2976 RMK AO1 T03440017
LAUREL      |K6S8 022255Z AUTO 19007KT 40SM 35/01 A2971 RMK AO1 T03500011
PLAINS      |KS34 022255Z AUTO 20008KT 25SM 17/07 A2990 RMK AO1 T01720072
MALTA       |KM75 022255Z AUTO 00000KT 40SM 31/09 A2961 RMK AO1 T03110089






000
SXUS55 KMSO 022243
OSOMSO
MONTANA AWOS SUMMARY
NATIONAL WEATHER SERVICE MISSOULA MT
443 PM MDT WED SEP 2 2015

Montana AWOS Reports

LAUREL      |K6S8 022235Z AUTO 00000KT 40SM 35/01 A2972 RMK AO1 T03500011
TWIN BRIDGES|K7S1 022235Z AUTO 20010G25KT 40SM 29/03 A2977 RMK AO1 T02890028
ROUNDUP     |KRPX 022235Z AUTO 22013G17KT 40SM 34/M01 A2963 RMK AO1 T03391005
MALTA       |KM75 022235Z AUTO 00000KT 40SM 31/09 A2961 RMK AO1 T03110094






000
SXUS55 KMSO 022243
OSOMSO
MONTANA AWOS SUMMARY
NATIONAL WEATHER SERVICE MISSOULA MT
443 PM MDT WED SEP 2 2015

Montana AWOS Reports

LAUREL      |K6S8 022235Z AUTO 00000KT 40SM 35/01 A2972 RMK AO1 T03500011
TWIN BRIDGES|K7S1 022235Z AUTO 20010G25KT 40SM 29/03 A2977 RMK AO1 T02890028
ROUNDUP     |KRPX 022235Z AUTO 22013G17KT 40SM 34/M01 A2963 RMK AO1 T03391005
MALTA       |KM75 022235Z AUTO 00000KT 40SM 31/09 A2961 RMK AO1 T03110094






000
SXUS55 KMSO 022223
OSOMSO
MONTANA AWOS SUMMARY
NATIONAL WEATHER SERVICE MISSOULA MT
423 PM MDT WED SEP 2 2015

Montana AWOS Reports

TWIN BRIDGES|K7S1 022215Z AUTO 18008KT 40SM 29/05 A2977 RMK AO1 T02940050
ROUNDUP     |KRPX 022215Z AUTO 22008KT 40SM 34/M01 A2963 RMK AO1 T03391005
MALTA       |KM75 022215Z AUTO 00000KT 40SM 32/10 A2961 RMK AO1 T03220100






000
SXUS55 KMSO 022204
OSOMSO
MONTANA AWOS SUMMARY
NATIONAL WEATHER SERVICE MISSOULA MT
403 PM MDT WED SEP 2 2015

Montana AWOS Reports

LAUREL      |K6S8 022155Z AUTO 19004KT 40SM 35/04 A2972 RMK AO1 T03500044
TWIN BRIDGES|K7S1 022155Z AUTO 15013G21KT 25SM 29/01 A2977 RMK AO1 T02890011
ROUNDUP     |KRPX 022155Z AUTO 21012G19KT 40SM 34/M01 A2964 RMK AO1 T03391005
SCOBEY      |K9S2 022155Z AUTO 00000KT 40SM 34/05 A2967 RMK AO1 T03440050
EKALAKA     |K97M 022155Z AUTO 15005KT 40SM 35/02 A2977 RMK AO1 T03500022
PLAINS      |KS34 022155Z AUTO 27014G20KT 40SM 19/07 A2990 RMK AO1 T01890067
MALTA       |KM75 022155Z AUTO 00000KT 40SM 33/09 A2961 RMK AO1 T03280094






000
SXUS55 KMSO 022143
OSOMSO
MONTANA AWOS SUMMARY
NATIONAL WEATHER SERVICE MISSOULA MT
343 PM MDT WED SEP 2 2015

Montana AWOS Reports

TWIN BRIDGES|K7S1 022135Z AUTO 15015G25KT 40SM 28/01 A2978 RMK AO1 T02780006
ROUNDUP     |KRPX 022135Z AUTO 19009G21KT 40SM 33/M01 A2964 RMK AO1 T03331010
LAUREL      |K6S8 022135Z AUTO 27007KT 40SM 35/04 A2973 RMK AO1 T03500044






000
SXUS55 KMSO 022133
OSOMSO
MONTANA AWOS SUMMARY
NATIONAL WEATHER SERVICE MISSOULA MT
333 PM MDT WED SEP 2 2015

Montana AWOS Reports

LAUREL      |K6S8 022115Z AUTO 00000KT 40SM 34/03 A2974 RMK AO1 T03440028






000
SXUS55 KMSO 022123
OSOMSO
MONTANA AWOS SUMMARY
NATIONAL WEATHER SERVICE MISSOULA MT
323 PM MDT WED SEP 2 2015

Montana AWOS Reports

TWIN BRIDGES|K7S1 022115Z AUTO 15015G25KT 25SM 30/01 A2978 RMK AO1 T03000011
ROUNDUP     |KRPX 022115Z AUTO 18011G22KT 40SM 34/M01 A2965 RMK AO1 T03391005






000
SXUS55 KMSO 022113
OSOMSO
MONTANA AWOS SUMMARY
NATIONAL WEATHER SERVICE MISSOULA MT
312 PM MDT WED SEP 2 2015

Montana AWOS Reports

SCOBEY      |K9S2 022055Z AUTO 22006KT 40SM 34/06 A2967 RMK AO1 T03440061






000
SXUS55 KMSO 022113
OSOMSO
MONTANA AWOS SUMMARY
NATIONAL WEATHER SERVICE MISSOULA MT
312 PM MDT WED SEP 2 2015

Montana AWOS Reports

SCOBEY      |K9S2 022055Z AUTO 22006KT 40SM 34/06 A2967 RMK AO1 T03440061






000
SXUS55 KMSO 022103
OSOMSO
MONTANA AWOS SUMMARY
NATIONAL WEATHER SERVICE MISSOULA MT
303 PM MDT WED SEP 2 2015

Montana AWOS Reports

TWIN BRIDGES|K7S1 022055Z AUTO 15018G27KT 40SM 29/02 A2979 RMK AO1 T02940017
ROUNDUP     |KRPX 022055Z AUTO 20010G23KT 40SM 34/M01 A2965 RMK AO1 T03441005
MALTA       |KM75 022055Z AUTO 00000KT 40SM 32/11 A2962 RMK AO1 T03220111
EKALAKA     |K97M 022055Z AUTO 14004KT 40SM 36/03 A2979 RMK AO1 T03560028
LAUREL      |K6S8 022055Z AUTO 24004KT 40SM 34/03 A2975 RMK AO1 T03390028
PLAINS      |KS34 022055Z AUTO 25016G21KT 40SM 19/06 A2990 RMK AO1 T01940056






000
SXUS55 KMSO 022103
OSOMSO
MONTANA AWOS SUMMARY
NATIONAL WEATHER SERVICE MISSOULA MT
303 PM MDT WED SEP 2 2015

Montana AWOS Reports

TWIN BRIDGES|K7S1 022055Z AUTO 15018G27KT 40SM 29/02 A2979 RMK AO1 T02940017
ROUNDUP     |KRPX 022055Z AUTO 20010G23KT 40SM 34/M01 A2965 RMK AO1 T03441005
MALTA       |KM75 022055Z AUTO 00000KT 40SM 32/11 A2962 RMK AO1 T03220111
EKALAKA     |K97M 022055Z AUTO 14004KT 40SM 36/03 A2979 RMK AO1 T03560028
LAUREL      |K6S8 022055Z AUTO 24004KT 40SM 34/03 A2975 RMK AO1 T03390028
PLAINS      |KS34 022055Z AUTO 25016G21KT 40SM 19/06 A2990 RMK AO1 T01940056






000
SXUS55 KMSO 022044
OSOMSO
MONTANA AWOS SUMMARY
NATIONAL WEATHER SERVICE MISSOULA MT
243 PM MDT WED SEP 2 2015

Montana AWOS Reports

TWIN BRIDGES|K7S1 022035Z AUTO 15011G22KT 40SM 28/03 A2979 RMK AO1 T02830033
ROUNDUP     |KRPX 022035Z AUTO 16011G24KT 40SM 35/01 A2965 RMK AO1 T03500011
MALTA       |KM75 022035Z AUTO 00000KT 40SM 32/10 A2963 RMK AO1 T03170100
LAUREL      |K6S8 022035Z AUTO 21005KT 40SM 33/04 A2976 RMK AO1 T03330039






000
SXUS55 KMSO 022044
OSOMSO
MONTANA AWOS SUMMARY
NATIONAL WEATHER SERVICE MISSOULA MT
243 PM MDT WED SEP 2 2015

Montana AWOS Reports

TWIN BRIDGES|K7S1 022035Z AUTO 15011G22KT 40SM 28/03 A2979 RMK AO1 T02830033
ROUNDUP     |KRPX 022035Z AUTO 16011G24KT 40SM 35/01 A2965 RMK AO1 T03500011
MALTA       |KM75 022035Z AUTO 00000KT 40SM 32/10 A2963 RMK AO1 T03170100
LAUREL      |K6S8 022035Z AUTO 21005KT 40SM 33/04 A2976 RMK AO1 T03330039






000
SXUS55 KMSO 022023
OSOMSO
MONTANA AWOS SUMMARY
NATIONAL WEATHER SERVICE MISSOULA MT
223 PM MDT WED SEP 2 2015

Montana AWOS Reports

LAUREL      |K6S8 022015Z AUTO 00000KT 40SM 33/05 A2976 RMK AO1 T03330050
ROUNDUP     |KRPX 022015Z AUTO 18007KT 40SM 36/02 A2965 RMK AO1 T03560017
MALTA       |KM75 022015Z AUTO 00000KT 40SM 30/09 A2964 RMK AO1 T03000094






000
SXUS55 KMSO 022023
OSOMSO
MONTANA AWOS SUMMARY
NATIONAL WEATHER SERVICE MISSOULA MT
223 PM MDT WED SEP 2 2015

Montana AWOS Reports

LAUREL      |K6S8 022015Z AUTO 00000KT 40SM 33/05 A2976 RMK AO1 T03330050
ROUNDUP     |KRPX 022015Z AUTO 18007KT 40SM 36/02 A2965 RMK AO1 T03560017
MALTA       |KM75 022015Z AUTO 00000KT 40SM 30/09 A2964 RMK AO1 T03000094






000
SXUS55 KMSO 022003
OSOMSO
MONTANA AWOS SUMMARY
NATIONAL WEATHER SERVICE MISSOULA MT
203 PM MDT WED SEP 2 2015

Montana AWOS Reports

TWIN BRIDGES|K7S1 021955Z AUTO 17015G22KT 40SM 28/02 A2980 RMK AO1 T02780022
ROUNDUP     |KRPX 021955Z AUTO 19006KT 40SM 33/01 A2966 RMK AO1 T03330011
MALTA       |KM75 021955Z AUTO 00000KT 40SM 28/09 A2964 RMK AO1 T02830094
SCOBEY      |K9S2 021955Z AUTO 00000KT 40SM 33/07 A2968 RMK AO1 T03330067
LAUREL      |K6S8 021955Z AUTO 16004KT 40SM 33/04 A2977 RMK AO1 T03280044
EKALAKA     |K97M 021955Z AUTO 14004KT 40SM 35/02 A2980 RMK AO1 T03500022
PLAINS      |KS34 021955Z AUTO 24012G21KT 40SM 20/06 A2988 RMK AO1 T02000061






000
SXUS55 KMSO 021953
OSOMSO
MONTANA AWOS SUMMARY
NATIONAL WEATHER SERVICE MISSOULA MT
152 PM MDT WED SEP 2 2015

Montana AWOS Reports

LAUREL      |K6S8 021935Z AUTO 15006KT 40SM 33/04 A2977 RMK AO1 T03280044
ROUNDUP     |KRPX 021935Z AUTO 20011G17KT 40SM 33/01 A2967 RMK AO1 T03280006
MALTA       |KM75 021935Z AUTO 40SM 28/09 A2964 RMK AO1 T02830094






000
SXUS55 KMSO 021943
OSOMSO
MONTANA AWOS SUMMARY
NATIONAL WEATHER SERVICE MISSOULA MT
143 PM MDT WED SEP 2 2015

Montana AWOS Reports

TWIN BRIDGES|K7S1 021935Z AUTO 19021G37KT 25SM 29/03 A2980 RMK AO1 T02890028






000
SXUS55 KMSO 021923
OSOMSO
MONTANA AWOS SUMMARY
NATIONAL WEATHER SERVICE MISSOULA MT
123 PM MDT WED SEP 2 2015

Montana AWOS Reports

TWIN BRIDGES|K7S1 021915Z AUTO 19023G30KT 25SM 29/01 A2980 RMK AO1 T02890011
LAUREL      |K6S8 021915Z AUTO 18006KT 40SM 33/05 A2977 RMK AO1 T03330050
ROUNDUP     |KRPX 021915Z AUTO 00000KT 40SM 33/04 A2967 RMK AO1 T03280044
MALTA       |KM75 021915Z AUTO 40SM 28/10 A2964 RMK AO1 T02780100






000
SXUS55 KMSO 021923
OSOMSO
MONTANA AWOS SUMMARY
NATIONAL WEATHER SERVICE MISSOULA MT
123 PM MDT WED SEP 2 2015

Montana AWOS Reports

TWIN BRIDGES|K7S1 021915Z AUTO 19023G30KT 25SM 29/01 A2980 RMK AO1 T02890011
LAUREL      |K6S8 021915Z AUTO 18006KT 40SM 33/05 A2977 RMK AO1 T03330050
ROUNDUP     |KRPX 021915Z AUTO 00000KT 40SM 33/04 A2967 RMK AO1 T03280044
MALTA       |KM75 021915Z AUTO 40SM 28/10 A2964 RMK AO1 T02780100






000
SXUS55 KMSO 021913
OSOMSO
MONTANA AWOS SUMMARY
NATIONAL WEATHER SERVICE MISSOULA MT
113 PM MDT WED SEP 2 2015

Montana AWOS Reports

EKALAKA     |K97M 021855Z AUTO VRB04KT 40SM 34/04 A2982 RMK AO1 T03390039






000
SXUS55 KMSO 021913
OSOMSO
MONTANA AWOS SUMMARY
NATIONAL WEATHER SERVICE MISSOULA MT
113 PM MDT WED SEP 2 2015

Montana AWOS Reports

EKALAKA     |K97M 021855Z AUTO VRB04KT 40SM 34/04 A2982 RMK AO1 T03390039






000
SXUS55 KMSO 021903
OSOMSO
MONTANA AWOS SUMMARY
NATIONAL WEATHER SERVICE MISSOULA MT
102 PM MDT WED SEP 2 2015

Montana AWOS Reports

TWIN BRIDGES|K7S1 021855Z AUTO 19019G30KT 40SM 28/02 A2981 RMK AO1 T02830022






000
SXUS55 KMSO 021903
OSOMSO
MONTANA AWOS SUMMARY
NATIONAL WEATHER SERVICE MISSOULA MT
102 PM MDT WED SEP 2 2015

Montana AWOS Reports

TWIN BRIDGES|K7S1 021855Z AUTO 19019G30KT 40SM 28/02 A2981 RMK AO1 T02830022






000
SXUS55 KMSO 021843
OSOMSO
MONTANA AWOS SUMMARY
NATIONAL WEATHER SERVICE MISSOULA MT
1243 PM MDT WED SEP 2 2015

Montana AWOS Reports

LAUREL      |K6S8 021835Z AUTO 16009G19KT 40SM 34/06 A2978 RMK AO1 T03390056
TWIN BRIDGES|K7S1 021835Z AUTO 16018G25KT 40SM 28/04 A2982 RMK AO1 T02830039
ROUNDUP     |KRPX 021835Z AUTO 21009G14KT 40SM 31/03 A2969 RMK AO1 T03110033
MALTA       |KM75 021835Z AUTO 00000KT 40SM 26/08 A2965 RMK AO1 T02610083






000
SXUS55 KMSO 021824
OSOMSO
MONTANA AWOS SUMMARY
NATIONAL WEATHER SERVICE MISSOULA MT
1223 PM MDT WED SEP 2 2015

Montana AWOS Reports

TWIN BRIDGES|K7S1 021815Z AUTO VRB05KT 40SM 27/02 A2983 RMK AO1 T02670022
ROUNDUP     |KRPX 021815Z AUTO 00000KT 40SM 30/04 A2969 RMK AO1 T03000039
MALTA       |KM75 021815Z AUTO 00000KT 40SM 25/08 A2965 RMK AO1 T02500083
LAUREL      |K6S8 021815Z AUTO 17013G20KT 40SM 33/05 A2979 RMK AO1 T03330050






000
SXUS55 KMSO 021813
OSOMSO
MONTANA AWOS SUMMARY
NATIONAL WEATHER SERVICE MISSOULA MT
1213 PM MDT WED SEP 2 2015

Montana AWOS Reports

MALTA       |KM75 021755Z AUTO 00000KT 40SM 24/08 A2965 RMK AO1 T02440078






000
SXUS55 KMSO 021813
OSOMSO
MONTANA AWOS SUMMARY
NATIONAL WEATHER SERVICE MISSOULA MT
1213 PM MDT WED SEP 2 2015

Montana AWOS Reports

MALTA       |KM75 021755Z AUTO 00000KT 40SM 24/08 A2965 RMK AO1 T02440078






000
SXUS55 KMSO 021803
OSOMSO
MONTANA AWOS SUMMARY
NATIONAL WEATHER SERVICE MISSOULA MT
1203 PM MDT WED SEP 2 2015

Montana AWOS Reports

TWIN BRIDGES|K7S1 021755Z AUTO 15005KT 40SM 26/02 A2984 RMK AO1 T02560022
ROUNDUP     |KRPX 021755Z AUTO 22004KT 40SM 29/03 A2969 RMK AO1 T02940033
SCOBEY      |K9S2 021755Z AUTO 14010G19KT 25SM 29/08 A2970 RMK AO1 T02940083
EKALAKA     |K97M 021755Z AUTO 14010G14KT 40SM 33/04 A2982 RMK AO1 T03280044
PLAINS      |KS34 021755Z AUTO 23009G19KT 170V290 25SM 20/06 A2986 RMK AO1 T02000061
LAUREL      |K6S8 021755Z AUTO 17016G22KT 40SM 33/05 A2979 RMK AO1 T03330050






000
SXUS55 KMSO 021803
OSOMSO
MONTANA AWOS SUMMARY
NATIONAL WEATHER SERVICE MISSOULA MT
1203 PM MDT WED SEP 2 2015

Montana AWOS Reports

TWIN BRIDGES|K7S1 021755Z AUTO 15005KT 40SM 26/02 A2984 RMK AO1 T02560022
ROUNDUP     |KRPX 021755Z AUTO 22004KT 40SM 29/03 A2969 RMK AO1 T02940033
SCOBEY      |K9S2 021755Z AUTO 14010G19KT 25SM 29/08 A2970 RMK AO1 T02940083
EKALAKA     |K97M 021755Z AUTO 14010G14KT 40SM 33/04 A2982 RMK AO1 T03280044
PLAINS      |KS34 021755Z AUTO 23009G19KT 170V290 25SM 20/06 A2986 RMK AO1 T02000061
LAUREL      |K6S8 021755Z AUTO 17016G22KT 40SM 33/05 A2979 RMK AO1 T03330050






000
SXUS55 KMSO 021743
OSOMSO
MONTANA AWOS SUMMARY
NATIONAL WEATHER SERVICE MISSOULA MT
1143 AM MDT WED SEP 2 2015

Montana AWOS Reports

TWIN BRIDGES|K7S1 021735Z AUTO 00000KT 40SM 22/02 A2985 RMK AO1 T02220022
LAUREL      |K6S8 021735Z AUTO 17011G20KT 40SM 33/06 A2979 RMK AO1 T03280056
ROUNDUP     |KRPX 021735Z AUTO 22006KT 40SM 29/03 A2970 RMK AO1 T02890028
MALTA       |KM75 021735Z AUTO 00000KT 40SM 23/08 A2965 RMK AO1 T02280078






000
SXUS55 KMSO 021733
OSOMSO
MONTANA AWOS SUMMARY
NATIONAL WEATHER SERVICE MISSOULA MT
1132 AM MDT WED SEP 2 2015

Montana AWOS Reports

EKALAKA     |K97M 021655Z AUTO 00000KT 40SM 31/06 A2983 RMK AO1 T03110056






000
SXUS55 KMSO 021733
OSOMSO
MONTANA AWOS SUMMARY
NATIONAL WEATHER SERVICE MISSOULA MT
1132 AM MDT WED SEP 2 2015

Montana AWOS Reports

EKALAKA     |K97M 021655Z AUTO 00000KT 40SM 31/06 A2983 RMK AO1 T03110056






000
SXUS55 KMSO 021724
OSOMSO
MONTANA AWOS SUMMARY
NATIONAL WEATHER SERVICE MISSOULA MT
1123 AM MDT WED SEP 2 2015

Montana AWOS Reports

LAUREL      |K6S8 021715Z AUTO 18013G24KT 40SM 32/04 A2979 RMK AO1 T03220039
ROUNDUP     |KRPX 021715Z AUTO 21005KT 40SM 28/03 A2970 RMK AO1 T02780028
MALTA       |KM75 021715Z AUTO 40SM 22/08 A2965 RMK AO1 T02220083






000
SXUS55 KMSO 021713
OSOMSO
MONTANA AWOS SUMMARY
NATIONAL WEATHER SERVICE MISSOULA MT
1113 AM MDT WED SEP 2 2015

Montana AWOS Reports

LAUREL      |K6S8 021655Z AUTO 18013G21KT 40SM 32/05 A2979 RMK AO1 T03170050
ROUNDUP     |KRPX 021655Z AUTO 21007KT 40SM 27/02 A2970 RMK AO1 T02670017
MALTA       |KM75 021655Z AUTO 00000KT 40SM 21/08 A2966 RMK AO1 T02110083
PLAINS      |KS34 021655Z AUTO 25010G15KT 25SM 20/06 A2984 RMK AO1 T02000056
SCOBEY      |K9S2 021655Z AUTO 16008KT 25SM 27/09 A2970 RMK AO1 T02720089






000
SXUS55 KMSO 021713
OSOMSO
MONTANA AWOS SUMMARY
NATIONAL WEATHER SERVICE MISSOULA MT
1113 AM MDT WED SEP 2 2015

Montana AWOS Reports

LAUREL      |K6S8 021655Z AUTO 18013G21KT 40SM 32/05 A2979 RMK AO1 T03170050
ROUNDUP     |KRPX 021655Z AUTO 21007KT 40SM 27/02 A2970 RMK AO1 T02670017
MALTA       |KM75 021655Z AUTO 00000KT 40SM 21/08 A2966 RMK AO1 T02110083
PLAINS      |KS34 021655Z AUTO 25010G15KT 25SM 20/06 A2984 RMK AO1 T02000056
SCOBEY      |K9S2 021655Z AUTO 16008KT 25SM 27/09 A2970 RMK AO1 T02720089






000
SXUS55 KMSO 021703
OSOMSO
MONTANA AWOS SUMMARY
NATIONAL WEATHER SERVICE MISSOULA MT
1103 AM MDT WED SEP 2 2015

Montana AWOS Reports

TWIN BRIDGES|K7S1 021655Z AUTO 00000KT 25SM 20/04 A2986 RMK AO1 T02000044






000
SXUS55 KMSO 021703
OSOMSO
MONTANA AWOS SUMMARY
NATIONAL WEATHER SERVICE MISSOULA MT
1103 AM MDT WED SEP 2 2015

Montana AWOS Reports

TWIN BRIDGES|K7S1 021655Z AUTO 00000KT 25SM 20/04 A2986 RMK AO1 T02000044






000
SXUS55 KMSO 021643
OSOMSO
MONTANA AWOS SUMMARY
NATIONAL WEATHER SERVICE MISSOULA MT
1043 AM MDT WED SEP 2 2015

Montana AWOS Reports

LAUREL      |K6S8 021635Z AUTO 18014G23KT 40SM 31/05 A2979 RMK AO1 T03110050
TWIN BRIDGES|K7S1 021635Z AUTO 17004KT 25SM 18/07 A2986 RMK AO1 T01830067
ROUNDUP     |KRPX 021635Z AUTO 21007KT 40SM 26/02 A2970 RMK AO1 T02560017
MALTA       |KM75 021635Z AUTO 00000KT 40SM 20/08 A2965 RMK AO1 T02000083






000
SXUS55 KMSO 021623
OSOMSO
MONTANA AWOS SUMMARY
NATIONAL WEATHER SERVICE MISSOULA MT
1023 AM MDT WED SEP 2 2015

Montana AWOS Reports

LAUREL      |K6S8 021615Z AUTO 19012G20KT 40SM 30/06 A2978 RMK AO1 T03000056
TWIN BRIDGES|K7S1 021615Z AUTO 13004KT 25SM 18/03 A2986 RMK AO1 T01780028
ROUNDUP     |KRPX 021615Z AUTO 21006KT 40SM 24/01 A2970 RMK AO1 T02440011
MALTA       |KM75 021615Z AUTO 00000KT 40SM 19/08 A2965 RMK AO1 T01940083






000
SXUS55 KMSO 021623
OSOMSO
MONTANA AWOS SUMMARY
NATIONAL WEATHER SERVICE MISSOULA MT
1023 AM MDT WED SEP 2 2015

Montana AWOS Reports

LAUREL      |K6S8 021615Z AUTO 19012G20KT 40SM 30/06 A2978 RMK AO1 T03000056
TWIN BRIDGES|K7S1 021615Z AUTO 13004KT 25SM 18/03 A2986 RMK AO1 T01780028
ROUNDUP     |KRPX 021615Z AUTO 21006KT 40SM 24/01 A2970 RMK AO1 T02440011
MALTA       |KM75 021615Z AUTO 00000KT 40SM 19/08 A2965 RMK AO1 T01940083






000
SXUS55 KMSO 021614
OSOMSO
MONTANA AWOS SUMMARY
NATIONAL WEATHER SERVICE MISSOULA MT
1013 AM MDT WED SEP 2 2015

Montana AWOS Reports

PLAINS      |KS34 021555Z AUTO 00000KT 25SM 19/06 A2982 RMK AO1 T01890056
SCOBEY      |K9S2 021555Z AUTO 12016G24KT 25SM 26/09 A2969 RMK AO1 T02610094
EKALAKA     |K97M 021555Z AUTO 11008KT 40SM 28/07 A2983 RMK AO1 T02830067






000
SXUS55 KMSO 021614
OSOMSO
MONTANA AWOS SUMMARY
NATIONAL WEATHER SERVICE MISSOULA MT
1013 AM MDT WED SEP 2 2015

Montana AWOS Reports

PLAINS      |KS34 021555Z AUTO 00000KT 25SM 19/06 A2982 RMK AO1 T01890056
SCOBEY      |K9S2 021555Z AUTO 12016G24KT 25SM 26/09 A2969 RMK AO1 T02610094
EKALAKA     |K97M 021555Z AUTO 11008KT 40SM 28/07 A2983 RMK AO1 T02830067






000
SXUS55 KMSO 021603
OSOMSO
MONTANA AWOS SUMMARY
NATIONAL WEATHER SERVICE MISSOULA MT
1003 AM MDT WED SEP 2 2015

Montana AWOS Reports

LAUREL      |K6S8 021555Z AUTO 19010G20KT 40SM 29/06 A2978 RMK AO1 T02890061
TWIN BRIDGES|K7S1 021555Z AUTO 13004KT 25SM 17/01 A2986 RMK AO1 T01720011
ROUNDUP     |KRPX 021555Z AUTO 00000KT 40SM 22/02 A2971 RMK AO1 T02170017
MALTA       |KM75 021555Z AUTO 00000KT 40SM 19/09 A2965 RMK AO1 T01890089






000
SXUS55 KMSO 021603
OSOMSO
MONTANA AWOS SUMMARY
NATIONAL WEATHER SERVICE MISSOULA MT
1003 AM MDT WED SEP 2 2015

Montana AWOS Reports

LAUREL      |K6S8 021555Z AUTO 19010G20KT 40SM 29/06 A2978 RMK AO1 T02890061
TWIN BRIDGES|K7S1 021555Z AUTO 13004KT 25SM 17/01 A2986 RMK AO1 T01720011
ROUNDUP     |KRPX 021555Z AUTO 00000KT 40SM 22/02 A2971 RMK AO1 T02170017
MALTA       |KM75 021555Z AUTO 00000KT 40SM 19/09 A2965 RMK AO1 T01890089






000
SXUS55 KMSO 021543
OSOMSO
MONTANA AWOS SUMMARY
NATIONAL WEATHER SERVICE MISSOULA MT
943 AM MDT WED SEP 2 2015

Montana AWOS Reports

TWIN BRIDGES|K7S1 021535Z AUTO 00000KT 25SM 16/02 A2986 RMK AO1 T01610022
ROUNDUP     |KRPX 021535Z AUTO 19006KT 40SM 20/00 A2971 RMK AO1 T02000000
MALTA       |KM75 021535Z AUTO 00000KT 40SM 18/09 A2965 RMK AO1 T01830089
LAUREL      |K6S8 021535Z AUTO 21012G16KT 40SM 28/06 A2978 RMK AO1 T02780056






000
SXUS55 KMSO 021533
OSOMSO
MONTANA AWOS SUMMARY
NATIONAL WEATHER SERVICE MISSOULA MT
932 AM MDT WED SEP 2 2015

Montana AWOS Reports

LAUREL      |K6S8 021515Z AUTO 21010G15KT 40SM 27/04 A2978 RMK AO1 T02670044
ROUNDUP     |KRPX 021515Z AUTO 18007KT 40SM 18/01 A2971 RMK AO1 T01830006
MALTA       |KM75 021515Z AUTO 00000KT 40SM 18/08 A2965 RMK AO1 T01780083






000
SXUS55 KMSO 021523
OSOMSO
MONTANA AWOS SUMMARY
NATIONAL WEATHER SERVICE MISSOULA MT
922 AM MDT WED SEP 2 2015

Montana AWOS Reports

SCOBEY      |K9S2 021455Z AUTO 12012G16KT 25SM 22/08 A2971 RMK AO1 T02170083
PLAINS      |KS34 021455Z AUTO 00000KT 25SM 13/03 A2983 RMK AO1 T01330028
EKALAKA     |K97M 021455Z AUTO 13010KT 40SM 27/06 A2983 RMK AO1 T02670061
TWIN BRIDGES|K7S1 021515Z AUTO 00000KT 40SM 14/03 A2986 RMK AO1 T01440033






000
SXUS55 KMSO 021523
OSOMSO
MONTANA AWOS SUMMARY
NATIONAL WEATHER SERVICE MISSOULA MT
922 AM MDT WED SEP 2 2015

Montana AWOS Reports

SCOBEY      |K9S2 021455Z AUTO 12012G16KT 25SM 22/08 A2971 RMK AO1 T02170083
PLAINS      |KS34 021455Z AUTO 00000KT 25SM 13/03 A2983 RMK AO1 T01330028
EKALAKA     |K97M 021455Z AUTO 13010KT 40SM 27/06 A2983 RMK AO1 T02670061
TWIN BRIDGES|K7S1 021515Z AUTO 00000KT 40SM 14/03 A2986 RMK AO1 T01440033






000
SXUS55 KMSO 021504
OSOMSO
MONTANA AWOS SUMMARY
NATIONAL WEATHER SERVICE MISSOULA MT
903 AM MDT WED SEP 2 2015

Montana AWOS Reports

TWIN BRIDGES|K7S1 021455Z AUTO 14004KT 25SM 12/04 A2987 RMK AO1 T01170044
ROUNDUP     |KRPX 021455Z AUTO 19008KT 40SM 17/01 A2971 RMK AO1 T01670011
MALTA       |KM75 021455Z AUTO 00000KT 40SM 17/08 A2965 RMK AO1 T01720083
LAUREL      |K6S8 021455Z AUTO 21011G15KT 40SM 25/03 A2978 RMK AO1 T02500033






000
SXUS55 KMSO 021504
OSOMSO
MONTANA AWOS SUMMARY
NATIONAL WEATHER SERVICE MISSOULA MT
903 AM MDT WED SEP 2 2015

Montana AWOS Reports

TWIN BRIDGES|K7S1 021455Z AUTO 14004KT 25SM 12/04 A2987 RMK AO1 T01170044
ROUNDUP     |KRPX 021455Z AUTO 19008KT 40SM 17/01 A2971 RMK AO1 T01670011
MALTA       |KM75 021455Z AUTO 00000KT 40SM 17/08 A2965 RMK AO1 T01720083
LAUREL      |K6S8 021455Z AUTO 21011G15KT 40SM 25/03 A2978 RMK AO1 T02500033






000
SXUS55 KMSO 021443
OSOMSO
MONTANA AWOS SUMMARY
NATIONAL WEATHER SERVICE MISSOULA MT
842 AM MDT WED SEP 2 2015

Montana AWOS Reports

TWIN BRIDGES|K7S1 021435Z AUTO 00000KT 25SM 13/05 A2986 RMK AO1 T01330050
LAUREL      |K6S8 021435Z AUTO 22010G15KT 40SM 24/03 A2979 RMK AO1 T02390028
ROUNDUP     |KRPX 021435Z AUTO 18007KT 40SM 16/01 A2971 RMK AO1 T01610011
MALTA       |KM75 021435Z AUTO 00000KT 40SM 17/07 A2965 RMK AO1 T01670072






000
SXUS55 KMSO 021423
OSOMSO
MONTANA AWOS SUMMARY
NATIONAL WEATHER SERVICE MISSOULA MT
823 AM MDT WED SEP 2 2015

Montana AWOS Reports

LAUREL      |K6S8 021415Z AUTO 22007KT 40SM 23/03 A2979 RMK AO1 T02330028
TWIN BRIDGES|K7S1 021415Z AUTO 13005KT 40SM 13/01 A2986 RMK AO1 T01330006
ROUNDUP     |KRPX 021415Z AUTO 20009KT 40SM 15/00 A2971 RMK AO1 T01500000
MALTA       |KM75 021415Z AUTO 00000KT 40SM 16/08 A2965 RMK AO1 T01610083
SCOBEY      |K9S2 021355Z AUTO 11008KT 25SM 19/08 A2973 RMK AO1 T01890078
TWIN BRIDGES|K7S1 021355Z AUTO 12004KT 40SM 12/00 A2987 RMK AO1 T01220000






000
SXUS55 KMSO 021403
OSOMSO
MONTANA AWOS SUMMARY
NATIONAL WEATHER SERVICE MISSOULA MT
803 AM MDT WED SEP 2 2015

Montana AWOS Reports

ROUNDUP     |KRPX 021355Z AUTO 20010KT 40SM 14/01 A2971 RMK AO1 T01440006
MALTA       |KM75 021355Z AUTO 00000KT 40SM 16/08 A2966 RMK AO1 T01560078
EKALAKA     |K97M 021355Z AUTO 11010G15KT 40SM 22/07 A2983 RMK AO1 T02220067
LAUREL      |K6S8 021355Z AUTO 00000KT 25SM 17/02 A2979 RMK AO1 T01720017
PLAINS      |KS34 021355Z AUTO 00000KT 25SM 11/04 A2981 RMK AO1 T01060044






000
SXUS55 KMSO 021403
OSOMSO
MONTANA AWOS SUMMARY
NATIONAL WEATHER SERVICE MISSOULA MT
803 AM MDT WED SEP 2 2015

Montana AWOS Reports

ROUNDUP     |KRPX 021355Z AUTO 20010KT 40SM 14/01 A2971 RMK AO1 T01440006
MALTA       |KM75 021355Z AUTO 00000KT 40SM 16/08 A2966 RMK AO1 T01560078
EKALAKA     |K97M 021355Z AUTO 11010G15KT 40SM 22/07 A2983 RMK AO1 T02220067
LAUREL      |K6S8 021355Z AUTO 00000KT 25SM 17/02 A2979 RMK AO1 T01720017
PLAINS      |KS34 021355Z AUTO 00000KT 25SM 11/04 A2981 RMK AO1 T01060044






000
SXUS55 KMSO 021343
OSOMSO
MONTANA AWOS SUMMARY
NATIONAL WEATHER SERVICE MISSOULA MT
743 AM MDT WED SEP 2 2015

Montana AWOS Reports

LAUREL      |K6S8 021335Z AUTO 00000KT 40SM 16/02 A2979 RMK AO1 T01610022
ROUNDUP     |KRPX 021335Z AUTO 21010G15KT 40SM 13/00 A2971 RMK AO1 T01330000
MALTA       |KM75 021335Z AUTO 00000KT 40SM 14/08 A2966 RMK AO1 T01440078
TWIN BRIDGES|K7S1 021335Z AUTO 10004KT 40SM 10/00 A2986 RMK AO1 T01000000






000
SXUS55 KMSO 021343
OSOMSO
MONTANA AWOS SUMMARY
NATIONAL WEATHER SERVICE MISSOULA MT
743 AM MDT WED SEP 2 2015

Montana AWOS Reports

LAUREL      |K6S8 021335Z AUTO 00000KT 40SM 16/02 A2979 RMK AO1 T01610022
ROUNDUP     |KRPX 021335Z AUTO 21010G15KT 40SM 13/00 A2971 RMK AO1 T01330000
MALTA       |KM75 021335Z AUTO 00000KT 40SM 14/08 A2966 RMK AO1 T01440078
TWIN BRIDGES|K7S1 021335Z AUTO 10004KT 40SM 10/00 A2986 RMK AO1 T01000000






000
SXUS55 KMSO 021323
OSOMSO
MONTANA AWOS SUMMARY
NATIONAL WEATHER SERVICE MISSOULA MT
722 AM MDT WED SEP 2 2015

Montana AWOS Reports

LAUREL      |K6S8 021315Z AUTO 00000KT 40SM 18/01 A2978 RMK AO1 T01830006
TWIN BRIDGES|K7S1 021315Z AUTO 00000KT 40SM 08/M01 A2986 RMK AO1 T00831005
ROUNDUP     |KRPX 021315Z AUTO 21009G13KT 40SM 13/00 A2971 RMK AO1 T01280000
MALTA       |KM75 021315Z AUTO 00000KT 40SM 14/07 A2966 RMK AO1 T01390072






000
SXUS55 KMSO 021313
OSOMSO
MONTANA AWOS SUMMARY
NATIONAL WEATHER SERVICE MISSOULA MT
713 AM MDT WED SEP 2 2015

Montana AWOS Reports

EKALAKA     |K97M 021255Z AUTO 12008KT 40SM 21/06 A2982 RMK AO1 T02060061






000
SXUS55 KMSO 021313
OSOMSO
MONTANA AWOS SUMMARY
NATIONAL WEATHER SERVICE MISSOULA MT
713 AM MDT WED SEP 2 2015

Montana AWOS Reports

EKALAKA     |K97M 021255Z AUTO 12008KT 40SM 21/06 A2982 RMK AO1 T02060061






000
SXUS55 KMSO 021303
OSOMSO
MONTANA AWOS SUMMARY
NATIONAL WEATHER SERVICE MISSOULA MT
703 AM MDT WED SEP 2 2015

Montana AWOS Reports

LAUREL      |K6S8 021255Z AUTO 00000KT 40SM 18/01 A2978 RMK AO1 T01830006
TWIN BRIDGES|K7S1 021255Z AUTO 00000KT 40SM 08/M01 A2985 RMK AO1 T00831005
ROUNDUP     |KRPX 021255Z AUTO 20010G14KT 40SM 13/M01 A2970 RMK AO1 T01281005
MALTA       |KM75 021255Z AUTO 00000KT 40SM 14/07 A2966 RMK AO1 T01390067
PLAINS      |KS34 021255Z AUTO 00000KT 25SM 11/04 A2980 RMK AO1 T01060039
SCOBEY      |K9S2 021255Z AUTO 00000KT 25SM 11/05 A2974 RMK AO1 T01060050






000
SXUS55 KMSO 021303
OSOMSO
MONTANA AWOS SUMMARY
NATIONAL WEATHER SERVICE MISSOULA MT
703 AM MDT WED SEP 2 2015

Montana AWOS Reports

LAUREL      |K6S8 021255Z AUTO 00000KT 40SM 18/01 A2978 RMK AO1 T01830006
TWIN BRIDGES|K7S1 021255Z AUTO 00000KT 40SM 08/M01 A2985 RMK AO1 T00831005
ROUNDUP     |KRPX 021255Z AUTO 20010G14KT 40SM 13/M01 A2970 RMK AO1 T01281005
MALTA       |KM75 021255Z AUTO 00000KT 40SM 14/07 A2966 RMK AO1 T01390067
PLAINS      |KS34 021255Z AUTO 00000KT 25SM 11/04 A2980 RMK AO1 T01060039
SCOBEY      |K9S2 021255Z AUTO 00000KT 25SM 11/05 A2974 RMK AO1 T01060050






000
SXUS55 KMSO 021243
OSOMSO
MONTANA AWOS SUMMARY
NATIONAL WEATHER SERVICE MISSOULA MT
642 AM MDT WED SEP 2 2015

Montana AWOS Reports

LAUREL      |K6S8 021235Z AUTO 00000KT 40SM 17/00 A2978 RMK AO1 T01720000
TWIN BRIDGES|K7S1 021235Z AUTO 00000KT 25SM 09/M02 A2985 RMK AO1 T00891021
ROUNDUP     |KRPX 021235Z AUTO 21011G15KT 40SM 12/M01 A2970 RMK AO1 T01221005
MALTA       |KM75 021235Z AUTO 00000KT 40SM 13/06 A2965 RMK AO1 T01330061






000
SXUS55 KMSO 021233
OSOMSO
MONTANA AWOS SUMMARY
NATIONAL WEATHER SERVICE MISSOULA MT
633 AM MDT WED SEP 2 2015

Montana AWOS Reports

LAUREL      |K6S8 021215Z AUTO 00000KT 40SM 14/M01 A2978 RMK AO1 T01391005






000
SXUS55 KMSO 021233
OSOMSO
MONTANA AWOS SUMMARY
NATIONAL WEATHER SERVICE MISSOULA MT
633 AM MDT WED SEP 2 2015

Montana AWOS Reports

LAUREL      |K6S8 021215Z AUTO 00000KT 40SM 14/M01 A2978 RMK AO1 T01391005






000
SXUS55 KMSO 021223
OSOMSO
MONTANA AWOS SUMMARY
NATIONAL WEATHER SERVICE MISSOULA MT
623 AM MDT WED SEP 2 2015

Montana AWOS Reports

TWIN BRIDGES|K7S1 021215Z AUTO 00000KT 40SM 09/M01 A2985 RMK AO1 T00891010
ROUNDUP     |KRPX 021215Z AUTO 21011G15KT 40SM 12/M01 A2970 RMK AO1 T01171010
MALTA       |KM75 021215Z AUTO 00000KT 40SM 11/06 A2965 RMK AO1 T01110061






000
SXUS55 KMSO 021223
OSOMSO
MONTANA AWOS SUMMARY
NATIONAL WEATHER SERVICE MISSOULA MT
623 AM MDT WED SEP 2 2015

Montana AWOS Reports

TWIN BRIDGES|K7S1 021215Z AUTO 00000KT 40SM 09/M01 A2985 RMK AO1 T00891010
ROUNDUP     |KRPX 021215Z AUTO 21011G15KT 40SM 12/M01 A2970 RMK AO1 T01171010
MALTA       |KM75 021215Z AUTO 00000KT 40SM 11/06 A2965 RMK AO1 T01110061






000
SXUS55 KMSO 021213
OSOMSO
MONTANA AWOS SUMMARY
NATIONAL WEATHER SERVICE MISSOULA MT
613 AM MDT WED SEP 2 2015

Montana AWOS Reports

EKALAKA     |K97M 021155Z AUTO 13009G14KT 40SM 24/05 A2981 RMK AO1 T02390050






000
SXUS55 KMSO 021213
OSOMSO
MONTANA AWOS SUMMARY
NATIONAL WEATHER SERVICE MISSOULA MT
613 AM MDT WED SEP 2 2015

Montana AWOS Reports

EKALAKA     |K97M 021155Z AUTO 13009G14KT 40SM 24/05 A2981 RMK AO1 T02390050






000
SXUS55 KMSO 021203
OSOMSO
MONTANA AWOS SUMMARY
NATIONAL WEATHER SERVICE MISSOULA MT
603 AM MDT WED SEP 2 2015

Montana AWOS Reports

LAUREL      |K6S8 021155Z AUTO 00000KT 40SM 13/01 A2979 RMK AO1 T01280006
TWIN BRIDGES|K7S1 021155Z AUTO 00000KT 25SM 08/M01 A2985 RMK AO1 T00831005
ROUNDUP     |KRPX 021155Z AUTO 21007KT 40SM 12/M01 A2969 RMK AO1 T01221005
MALTA       |KM75 021155Z AUTO 00000KT 40SM 12/06 A2966 RMK AO1 T01170061
SCOBEY      |K9S2 021155Z AUTO 00000KT 25SM 07/03 A2976 RMK AO1 T00720033
PLAINS      |KS34 021155Z AUTO 00000KT 25SM 11/03 A2979 RMK AO1 T01060033






000
SXUS55 KMSO 021203
OSOMSO
MONTANA AWOS SUMMARY
NATIONAL WEATHER SERVICE MISSOULA MT
603 AM MDT WED SEP 2 2015

Montana AWOS Reports

LAUREL      |K6S8 021155Z AUTO 00000KT 40SM 13/01 A2979 RMK AO1 T01280006
TWIN BRIDGES|K7S1 021155Z AUTO 00000KT 25SM 08/M01 A2985 RMK AO1 T00831005
ROUNDUP     |KRPX 021155Z AUTO 21007KT 40SM 12/M01 A2969 RMK AO1 T01221005
MALTA       |KM75 021155Z AUTO 00000KT 40SM 12/06 A2966 RMK AO1 T01170061
SCOBEY      |K9S2 021155Z AUTO 00000KT 25SM 07/03 A2976 RMK AO1 T00720033
PLAINS      |KS34 021155Z AUTO 00000KT 25SM 11/03 A2979 RMK AO1 T01060033






000
SXUS55 KMSO 021144
OSOMSO
MONTANA AWOS SUMMARY
NATIONAL WEATHER SERVICE MISSOULA MT
543 AM MDT WED SEP 2 2015

Montana AWOS Reports

TWIN BRIDGES|K7S1 021135Z AUTO 00000KT 40SM 09/M01 A2985 RMK AO1 T00891005
ROUNDUP     |KRPX 021135Z AUTO 21010G14KT 40SM 12/M01 A2969 RMK AO1 T01221005
LAUREL      |K6S8 021135Z AUTO 20004KT 40SM 13/01 A2979 RMK AO1 T01330011
MALTA       |KM75 021135Z AUTO 00000KT 40SM 12/06 A2967 RMK AO1 T01170061






000
SXUS55 KMSO 021144
OSOMSO
MONTANA AWOS SUMMARY
NATIONAL WEATHER SERVICE MISSOULA MT
543 AM MDT WED SEP 2 2015

Montana AWOS Reports

TWIN BRIDGES|K7S1 021135Z AUTO 00000KT 40SM 09/M01 A2985 RMK AO1 T00891005
ROUNDUP     |KRPX 021135Z AUTO 21010G14KT 40SM 12/M01 A2969 RMK AO1 T01221005
LAUREL      |K6S8 021135Z AUTO 20004KT 40SM 13/01 A2979 RMK AO1 T01330011
MALTA       |KM75 021135Z AUTO 00000KT 40SM 12/06 A2967 RMK AO1 T01170061






000
SXUS55 KMSO 021123
OSOMSO
MONTANA AWOS SUMMARY
NATIONAL WEATHER SERVICE MISSOULA MT
522 AM MDT WED SEP 2 2015

Montana AWOS Reports

TWIN BRIDGES|K7S1 021115Z AUTO 00000KT 40SM 11/M02 A2985 RMK AO1 T01111016
ROUNDUP     |KRPX 021115Z AUTO 21011KT 40SM 12/M01 A2970 RMK AO1 T01221005
MALTA       |KM75 021115Z AUTO 00000KT 40SM 12/06 A2967 RMK AO1 T01220061
LAUREL      |K6S8 021115Z AUTO 23004KT 40SM 14/01 A2978 RMK AO1 T01390006






000
SXUS55 KMSO 021123
OSOMSO
MONTANA AWOS SUMMARY
NATIONAL WEATHER SERVICE MISSOULA MT
522 AM MDT WED SEP 2 2015

Montana AWOS Reports

TWIN BRIDGES|K7S1 021115Z AUTO 00000KT 40SM 11/M02 A2985 RMK AO1 T01111016
ROUNDUP     |KRPX 021115Z AUTO 21011KT 40SM 12/M01 A2970 RMK AO1 T01221005
MALTA       |KM75 021115Z AUTO 00000KT 40SM 12/06 A2967 RMK AO1 T01220061
LAUREL      |K6S8 021115Z AUTO 23004KT 40SM 14/01 A2978 RMK AO1 T01390006






000
SXUS55 KMSO 021113
OSOMSO
MONTANA AWOS SUMMARY
NATIONAL WEATHER SERVICE MISSOULA MT
513 AM MDT WED SEP 2 2015

Montana AWOS Reports

LAUREL      |K6S8 021055Z AUTO 00000KT 40SM 16/M01 A2978 RMK AO1 T01561005
ROUNDUP     |KRPX 021055Z AUTO 20008KT 40SM 12/M01 A2970 RMK AO1 T01221005
MALTA       |KM75 021055Z AUTO 00000KT 40SM 12/06 A2967 RMK AO1 T01170061
SCOBEY      |K9S2 021055Z AUTO 00000KT 25SM 07/03 A2977 RMK AO1 T00720033
EKALAKA     |K97M 021055Z AUTO 13015G21KT 40SM 24/07 A2981 RMK AO1 T02390067






000
SXUS55 KMSO 021113
OSOMSO
MONTANA AWOS SUMMARY
NATIONAL WEATHER SERVICE MISSOULA MT
513 AM MDT WED SEP 2 2015

Montana AWOS Reports

LAUREL      |K6S8 021055Z AUTO 00000KT 40SM 16/M01 A2978 RMK AO1 T01561005
ROUNDUP     |KRPX 021055Z AUTO 20008KT 40SM 12/M01 A2970 RMK AO1 T01221005
MALTA       |KM75 021055Z AUTO 00000KT 40SM 12/06 A2967 RMK AO1 T01170061
SCOBEY      |K9S2 021055Z AUTO 00000KT 25SM 07/03 A2977 RMK AO1 T00720033
EKALAKA     |K97M 021055Z AUTO 13015G21KT 40SM 24/07 A2981 RMK AO1 T02390067






000
SXUS55 KMSO 021103
OSOMSO
MONTANA AWOS SUMMARY
NATIONAL WEATHER SERVICE MISSOULA MT
502 AM MDT WED SEP 2 2015

Montana AWOS Reports

TWIN BRIDGES|K7S1 021055Z AUTO 00000KT 40SM 11/M02 A2985 RMK AO1 T01111021
PLAINS      |KS34 021055Z AUTO 00000KT 25SM 11/03 A2979 RMK AO1 T01110028






000
SXUS55 KMSO 021103
OSOMSO
MONTANA AWOS SUMMARY
NATIONAL WEATHER SERVICE MISSOULA MT
502 AM MDT WED SEP 2 2015

Montana AWOS Reports

TWIN BRIDGES|K7S1 021055Z AUTO 00000KT 40SM 11/M02 A2985 RMK AO1 T01111021
PLAINS      |KS34 021055Z AUTO 00000KT 25SM 11/03 A2979 RMK AO1 T01110028






000
SXUS55 KMSO 021043
OSOMSO
MONTANA AWOS SUMMARY
NATIONAL WEATHER SERVICE MISSOULA MT
443 AM MDT WED SEP 2 2015

Montana AWOS Reports

LAUREL      |K6S8 021035Z AUTO 00000KT 40SM 16/M01 A2979 RMK AO1 T01611005
ROUNDUP     |KRPX 021035Z AUTO 20007KT 40SM 12/M01 A2970 RMK AO1 T01221005
MALTA       |KM75 021035Z AUTO 00000KT 40SM 12/06 A2968 RMK AO1 T01170061






000
SXUS55 KMSO 021023
OSOMSO
MONTANA AWOS SUMMARY
NATIONAL WEATHER SERVICE MISSOULA MT
422 AM MDT WED SEP 2 2015

Montana AWOS Reports

LAUREL      |K6S8 021015Z AUTO 00000KT 40SM 16/M01 A2978 RMK AO1 T01561005
TWIN BRIDGES|K7S1 021015Z AUTO 00000KT 40SM 10/M02 A2985 RMK AO1 T01001021
ROUNDUP     |KRPX 021015Z AUTO 20006KT 40SM 13/00 A2970 RMK AO1 T01280000
MALTA       |KM75 021015Z AUTO 00000KT 40SM 12/06 A2968 RMK AO1 T01220061






000
SXUS55 KMSO 021023
OSOMSO
MONTANA AWOS SUMMARY
NATIONAL WEATHER SERVICE MISSOULA MT
422 AM MDT WED SEP 2 2015

Montana AWOS Reports

LAUREL      |K6S8 021015Z AUTO 00000KT 40SM 16/M01 A2978 RMK AO1 T01561005
TWIN BRIDGES|K7S1 021015Z AUTO 00000KT 40SM 10/M02 A2985 RMK AO1 T01001021
ROUNDUP     |KRPX 021015Z AUTO 20006KT 40SM 13/00 A2970 RMK AO1 T01280000
MALTA       |KM75 021015Z AUTO 00000KT 40SM 12/06 A2968 RMK AO1 T01220061






000
SXUS55 KMSO 021003
OSOMSO
MONTANA AWOS SUMMARY
NATIONAL WEATHER SERVICE MISSOULA MT
403 AM MDT WED SEP 2 2015

Montana AWOS Reports

LAUREL      |K6S8 020955Z AUTO 00000KT 40SM 16/M01 A2978 RMK AO1 T01561005
TWIN BRIDGES|K7S1 020955Z AUTO 00000KT 25SM 10/M01 A2985 RMK AO1 T01001010
ROUNDUP     |KRPX 020955Z AUTO 21004KT 40SM 14/00 A2970 RMK AO1 T01440000
MALTA       |KM75 020955Z AUTO 00000KT 40SM 12/06 A2969 RMK AO1 T01220056
SCOBEY      |K9S2 020955Z AUTO 00000KT 25SM 08/03 A2978 RMK AO1 T00780033
PLAINS      |KS34 020955Z AUTO 00000KT 25SM 11/03 A2978 RMK AO1 T01110028






000
SXUS55 KMSO 021003
OSOMSO
MONTANA AWOS SUMMARY
NATIONAL WEATHER SERVICE MISSOULA MT
403 AM MDT WED SEP 2 2015

Montana AWOS Reports

LAUREL      |K6S8 020955Z AUTO 00000KT 40SM 16/M01 A2978 RMK AO1 T01561005
TWIN BRIDGES|K7S1 020955Z AUTO 00000KT 25SM 10/M01 A2985 RMK AO1 T01001010
ROUNDUP     |KRPX 020955Z AUTO 21004KT 40SM 14/00 A2970 RMK AO1 T01440000
MALTA       |KM75 020955Z AUTO 00000KT 40SM 12/06 A2969 RMK AO1 T01220056
SCOBEY      |K9S2 020955Z AUTO 00000KT 25SM 08/03 A2978 RMK AO1 T00780033
PLAINS      |KS34 020955Z AUTO 00000KT 25SM 11/03 A2978 RMK AO1 T01110028






000
SXUS55 KMSO 020943
OSOMSO
MONTANA AWOS SUMMARY
NATIONAL WEATHER SERVICE MISSOULA MT
343 AM MDT WED SEP 2 2015

Montana AWOS Reports

TWIN BRIDGES|K7S1 020935Z AUTO 00000KT 25SM 12/M01 A2985 RMK AO1 T01171005
ROUNDUP     |KRPX 020935Z AUTO 00000KT 40SM 14/00 A2969 RMK AO1 T01440000
MALTA       |KM75 020935Z AUTO 00000KT 40SM 14/07 A2969 RMK AO1 T01390067
LAUREL      |K6S8 020935Z AUTO 00000KT 40SM 16/M01 A2978 RMK AO1 T01561005






000
SXUS55 KMSO 020923
OSOMSO
MONTANA AWOS SUMMARY
NATIONAL WEATHER SERVICE MISSOULA MT
323 AM MDT WED SEP 2 2015

Montana AWOS Reports

TWIN BRIDGES|K7S1 020915Z AUTO 00000KT 40SM 12/M02 A2986 RMK AO1 T01171016
ROUNDUP     |KRPX 020915Z AUTO 21008KT 40SM 15/M01 A2969 RMK AO1 T01501010
LAUREL      |K6S8 020915Z AUTO 00000KT 40SM 16/M01 A2978 RMK AO1 T01561010






000
SXUS55 KMSO 020913
OSOMSO
MONTANA AWOS SUMMARY
NATIONAL WEATHER SERVICE MISSOULA MT
312 AM MDT WED SEP 2 2015

Montana AWOS Reports

SCOBEY      |K9S2 020855Z AUTO 00000KT 25SM 08/03 A2978 RMK AO1 T00830033
PLAINS      |KS34 020855Z AUTO 00000KT 25SM 12/03 A2978 RMK AO1 T01220028
TWIN BRIDGES|K7S1 020855Z AUTO 10005KT 40SM 11/M01 A2986 RMK AO1 T01111005
EKALAKA     |K97M 020855Z AUTO 13005KT 40SM 19/10 A2982 RMK AO1 T01890100






000
SXUS55 KMSO 020904
OSOMSO
MONTANA AWOS SUMMARY
NATIONAL WEATHER SERVICE MISSOULA MT
303 AM MDT WED SEP 2 2015

Montana AWOS Reports

ROUNDUP     |KRPX 020855Z AUTO 21005KT 40SM 14/M01 A2970 RMK AO1 T01441010
MALTA       |KM75 020855Z AUTO 00000KT 40SM 18/07 A2971 RMK AO1 T01780067
LAUREL      |K6S8 020855Z AUTO 00000KT 40SM 17/00 A2979 RMK AO1 T01720000






000
SXUS55 KMSO 020904
OSOMSO
MONTANA AWOS SUMMARY
NATIONAL WEATHER SERVICE MISSOULA MT
303 AM MDT WED SEP 2 2015

Montana AWOS Reports

ROUNDUP     |KRPX 020855Z AUTO 21005KT 40SM 14/M01 A2970 RMK AO1 T01441010
MALTA       |KM75 020855Z AUTO 00000KT 40SM 18/07 A2971 RMK AO1 T01780067
LAUREL      |K6S8 020855Z AUTO 00000KT 40SM 17/00 A2979 RMK AO1 T01720000






000
SXUS55 KMSO 020843
OSOMSO
MONTANA AWOS SUMMARY
NATIONAL WEATHER SERVICE MISSOULA MT
243 AM MDT WED SEP 2 2015

Montana AWOS Reports

TWIN BRIDGES|K7S1 020835Z AUTO 00000KT 40SM 12/M02 A2986 RMK AO1 T01221016
MALTA       |KM75 020835Z AUTO 00000KT 40SM 17/06 A2972 RMK AO1 T01720056
LAUREL      |K6S8 020835Z AUTO 00000KT 40SM 16/M01 A2979 RMK AO1 T01561005
ROUNDUP     |KRPX 020835Z AUTO 20007KT 40SM 14/M01 A2970 RMK AO1 T01441005






000
SXUS55 KMSO 020823
OSOMSO
MONTANA AWOS SUMMARY
NATIONAL WEATHER SERVICE MISSOULA MT
223 AM MDT WED SEP 2 2015

Montana AWOS Reports

TWIN BRIDGES|K7S1 020815Z AUTO 00000KT 40SM 14/M02 A2987 RMK AO1 T01391021
LAUREL      |K6S8 020815Z AUTO 00000KT 40SM 16/00 A2979 RMK AO1 T01560000
ROUNDUP     |KRPX 020815Z AUTO 23005KT 40SM 14/00 A2970 RMK AO1 T01440000
MALTA       |KM75 020815Z AUTO 00000KT 40SM 13/06 A2971 RMK AO1 T01280056






000
SXUS55 KMSO 020813
OSOMSO
MONTANA AWOS SUMMARY
NATIONAL WEATHER SERVICE MISSOULA MT
213 AM MDT WED SEP 2 2015

Montana AWOS Reports

LAUREL      |K6S8 020755Z AUTO 00000KT 40SM 16/01 A2979 RMK AO1 T01610006
ROUNDUP     |KRPX 020755Z AUTO 40SM 17/00 A2970 RMK AO1 T01720000
MALTA       |KM75 020755Z AUTO 00000KT 40SM 12/05 A2970 RMK AO1 T01220050
SCOBEY      |K9S2 020755Z AUTO 00000KT 25SM 08/03 A2979 RMK AO1 T00830033
PLAINS      |KS34 020755Z AUTO 00000KT 25SM 13/04 A2978 RMK AO1 T01280044






000
SXUS55 KMSO 020803
OSOMSO
MONTANA AWOS SUMMARY
NATIONAL WEATHER SERVICE MISSOULA MT
203 AM MDT WED SEP 2 2015

Montana AWOS Reports

TWIN BRIDGES|K7S1 020755Z AUTO 10004KT 40SM 14/M02 A2987 RMK AO1 T01391021
EKALAKA     |K97M 020755Z AUTO 12008KT 40SM 19/11 A2984 RMK AO1 T01890106






000
SXUS55 KMSO 020753
OSOMSO
MONTANA AWOS SUMMARY
NATIONAL WEATHER SERVICE MISSOULA MT
153 AM MDT WED SEP 2 2015

Montana AWOS Reports

LAUREL      |K6S8 020735Z AUTO 00000KT 40SM 17/00 A2979 RMK AO1 T01720000
TWIN BRIDGES|K7S1 020735Z AUTO 00000KT 40SM 14/M02 A2987 RMK AO1 T01391016
ROUNDUP     |KRPX 020735Z AUTO 40SM 17/00 A2971 RMK AO1 T01720000
MALTA       |KM75 020735Z AUTO 00000KT 40SM 12/05 A2971 RMK AO1 T01170050






000
SXUS55 KMSO 020723
OSOMSO
MONTANA AWOS SUMMARY
NATIONAL WEATHER SERVICE MISSOULA MT
123 AM MDT WED SEP 2 2015

Montana AWOS Reports

LAUREL      |K6S8 020715Z AUTO 00000KT 40SM 16/01 A2980 RMK AO1 T01560006
TWIN BRIDGES|K7S1 020715Z AUTO 00000KT 40SM 13/M01 A2987 RMK AO1 T01331010
ROUNDUP     |KRPX 020715Z AUTO 40SM 19/01 A2972 RMK AO1 T01890006
MALTA       |KM75 020715Z AUTO 00000KT 40SM 12/04 A2971 RMK AO1 T01170044






000
SXUS55 KMSO 020723
OSOMSO
MONTANA AWOS SUMMARY
NATIONAL WEATHER SERVICE MISSOULA MT
123 AM MDT WED SEP 2 2015

Montana AWOS Reports

LAUREL      |K6S8 020715Z AUTO 00000KT 40SM 16/01 A2980 RMK AO1 T01560006
TWIN BRIDGES|K7S1 020715Z AUTO 00000KT 40SM 13/M01 A2987 RMK AO1 T01331010
ROUNDUP     |KRPX 020715Z AUTO 40SM 19/01 A2972 RMK AO1 T01890006
MALTA       |KM75 020715Z AUTO 00000KT 40SM 12/04 A2971 RMK AO1 T01170044






000
SXUS55 KMSO 020713
OSOMSO
MONTANA AWOS SUMMARY
NATIONAL WEATHER SERVICE MISSOULA MT
112 AM MDT WED SEP 2 2015

Montana AWOS Reports

EKALAKA     |K97M 020655Z AUTO 13008KT 40SM 19/11 A2985 RMK AO1 T01890106






000
SXUS55 KMSO 020643
OSOMSO
MONTANA AWOS SUMMARY
NATIONAL WEATHER SERVICE MISSOULA MT
1242 AM MDT WED SEP 2 2015

Montana AWOS Reports

LAUREL      |K6S8 020635Z AUTO 00000KT 40SM 15/M01 A2980 RMK AO1 T01501005
TWIN BRIDGES|K7S1 020635Z AUTO 11006KT 40SM 19/M04 A2987 RMK AO1 T01941038
ROUNDUP     |KRPX 020635Z AUTO 40SM 18/01 A2973 RMK AO1 T01780006






000
SXUS55 KMSO 020643
OSOMSO
MONTANA AWOS SUMMARY
NATIONAL WEATHER SERVICE MISSOULA MT
1242 AM MDT WED SEP 2 2015

Montana AWOS Reports

LAUREL      |K6S8 020635Z AUTO 00000KT 40SM 15/M01 A2980 RMK AO1 T01501005
TWIN BRIDGES|K7S1 020635Z AUTO 11006KT 40SM 19/M04 A2987 RMK AO1 T01941038
ROUNDUP     |KRPX 020635Z AUTO 40SM 18/01 A2973 RMK AO1 T01780006






000
SXUS55 KMSO 020623
OSOMSO
MONTANA AWOS SUMMARY
NATIONAL WEATHER SERVICE MISSOULA MT
1223 AM MDT WED SEP 2 2015

Montana AWOS Reports

LAUREL      |K6S8 020615Z AUTO 00000KT 40SM 17/M01 A2980 RMK AO1 T01721010
TWIN BRIDGES|K7S1 020615Z AUTO 12004KT 25SM 18/M03 A2987 RMK AO1 T01831027
ROUNDUP     |KRPX 020615Z AUTO 40SM 18/01 A2973 RMK AO1 T01830006






000
SXUS55 KMSO 020614
OSOMSO
MONTANA AWOS SUMMARY
NATIONAL WEATHER SERVICE MISSOULA MT
1213 AM MDT WED SEP 2 2015

Montana AWOS Reports

EKALAKA     |K97M 020555Z AUTO 13006KT 40SM 21/10 A2985 RMK AO1 T02060100






000
SXUS55 KMSO 020614
OSOMSO
MONTANA AWOS SUMMARY
NATIONAL WEATHER SERVICE MISSOULA MT
1213 AM MDT WED SEP 2 2015

Montana AWOS Reports

EKALAKA     |K97M 020555Z AUTO 13006KT 40SM 21/10 A2985 RMK AO1 T02060100






000
SXUS55 KMSO 020603
OSOMSO
MONTANA AWOS SUMMARY
NATIONAL WEATHER SERVICE MISSOULA MT
1203 AM MDT WED SEP 2 2015

Montana AWOS Reports

LAUREL      |K6S8 020555Z AUTO 00000KT 40SM 19/M01 A2980 RMK AO1 T01891005
ROUNDUP     |KRPX 020555Z AUTO 40SM 19/00 A2973 RMK AO1 T01890000
MALTA       |KM75 020555Z AUTO 00000KT 40SM 12/04 A2972 RMK AO1 T01220039
PLAINS      |KS34 020555Z AUTO 00000KT 25SM 13/02 A2978 RMK AO1 T01330017
SCOBEY      |K9S2 020555Z AUTO 00000KT 25SM 12/04 A2980 RMK AO1 T01220039






000
SXUS55 KMSO 020603
OSOMSO
MONTANA AWOS SUMMARY
NATIONAL WEATHER SERVICE MISSOULA MT
1203 AM MDT WED SEP 2 2015

Montana AWOS Reports

LAUREL      |K6S8 020555Z AUTO 00000KT 40SM 19/M01 A2980 RMK AO1 T01891005
ROUNDUP     |KRPX 020555Z AUTO 40SM 19/00 A2973 RMK AO1 T01890000
MALTA       |KM75 020555Z AUTO 00000KT 40SM 12/04 A2972 RMK AO1 T01220039
PLAINS      |KS34 020555Z AUTO 00000KT 25SM 13/02 A2978 RMK AO1 T01330017
SCOBEY      |K9S2 020555Z AUTO 00000KT 25SM 12/04 A2980 RMK AO1 T01220039






000
SXUS55 KMSO 020544
OSOMSO
MONTANA AWOS SUMMARY
NATIONAL WEATHER SERVICE MISSOULA MT
1143 PM MDT TUE SEP 1 2015

Montana AWOS Reports

LAUREL      |K6S8 020535Z AUTO 00000KT 40SM 20/M01 A2981 RMK AO1 T02001010
TWIN BRIDGES|K7S1 020535Z AUTO 14004KT 40SM 18/M02 A2987 RMK AO1 T01831021
ROUNDUP     |KRPX 020535Z AUTO 40SM 19/01 A2974 RMK AO1 T01940006
MALTA       |KM75 020535Z AUTO 00000KT 40SM 13/04 A2973 RMK AO1 T01280039






000
SXUS55 KMSO 020534
OSOMSO
MONTANA AWOS SUMMARY
NATIONAL WEATHER SERVICE MISSOULA MT
1133 PM MDT TUE SEP 1 2015

Montana AWOS Reports

ROUNDUP     |KRPX 020515Z AUTO 40SM 20/00 A2974 RMK AO1 T02000000
MALTA       |KM75 020515Z AUTO 00000KT 40SM 13/04 A2973 RMK AO1 T01330039






000
SXUS55 KMSO 020534
OSOMSO
MONTANA AWOS SUMMARY
NATIONAL WEATHER SERVICE MISSOULA MT
1133 PM MDT TUE SEP 1 2015

Montana AWOS Reports

ROUNDUP     |KRPX 020515Z AUTO 40SM 20/00 A2974 RMK AO1 T02000000
MALTA       |KM75 020515Z AUTO 00000KT 40SM 13/04 A2973 RMK AO1 T01330039






000
SXUS55 KMSO 020524
OSOMSO
MONTANA AWOS SUMMARY
NATIONAL WEATHER SERVICE MISSOULA MT
1123 PM MDT TUE SEP 1 2015

Montana AWOS Reports

LAUREL      |K6S8 020515Z AUTO 00000KT 40SM 21/M02 A2980 RMK AO1 T02111016
TWIN BRIDGES|K7S1 020515Z AUTO 15004KT 40SM 18/M01 A2986 RMK AO1 T01831010






000
SXUS55 KMSO 020524
OSOMSO
MONTANA AWOS SUMMARY
NATIONAL WEATHER SERVICE MISSOULA MT
1123 PM MDT TUE SEP 1 2015

Montana AWOS Reports

LAUREL      |K6S8 020515Z AUTO 00000KT 40SM 21/M02 A2980 RMK AO1 T02111016
TWIN BRIDGES|K7S1 020515Z AUTO 15004KT 40SM 18/M01 A2986 RMK AO1 T01831010






000
SXUS55 KMSO 020513
OSOMSO
MONTANA AWOS SUMMARY
NATIONAL WEATHER SERVICE MISSOULA MT
1113 PM MDT TUE SEP 1 2015

Montana AWOS Reports

ROUNDUP     |KRPX 020455Z AUTO 00000KT 40SM 20/00 A2975 RMK AO1 T02000000
MALTA       |KM75 020455Z AUTO 00000KT 40SM 13/04 A2974 RMK AO1 T01330039
SCOBEY      |K9S2 020455Z AUTO 00000KT 25SM 12/04 A2980 RMK AO1 T01220039
EKALAKA     |K97M 020455Z AUTO 13009KT 40SM 23/03 A2985 RMK AO1 T02280033






000
SXUS55 KMSO 020513
OSOMSO
MONTANA AWOS SUMMARY
NATIONAL WEATHER SERVICE MISSOULA MT
1113 PM MDT TUE SEP 1 2015

Montana AWOS Reports

ROUNDUP     |KRPX 020455Z AUTO 00000KT 40SM 20/00 A2975 RMK AO1 T02000000
MALTA       |KM75 020455Z AUTO 00000KT 40SM 13/04 A2974 RMK AO1 T01330039
SCOBEY      |K9S2 020455Z AUTO 00000KT 25SM 12/04 A2980 RMK AO1 T01220039
EKALAKA     |K97M 020455Z AUTO 13009KT 40SM 23/03 A2985 RMK AO1 T02280033






000
SXUS55 KMSO 020503
OSOMSO
MONTANA AWOS SUMMARY
NATIONAL WEATHER SERVICE MISSOULA MT
1103 PM MDT TUE SEP 1 2015

Montana AWOS Reports

LAUREL      |K6S8 020455Z AUTO 00000KT 25SM 21/M01 A2980 RMK AO1 T02111010
TWIN BRIDGES|K7S1 020455Z AUTO 13004KT 40SM 19/M02 A2986 RMK AO1 T01891016
PLAINS      |KS34 020455Z AUTO 00000KT 25SM 15/02 A2979 RMK AO1 T01500022






000
SXUS55 KMSO 020503
OSOMSO
MONTANA AWOS SUMMARY
NATIONAL WEATHER SERVICE MISSOULA MT
1103 PM MDT TUE SEP 1 2015

Montana AWOS Reports

LAUREL      |K6S8 020455Z AUTO 00000KT 25SM 21/M01 A2980 RMK AO1 T02111010
TWIN BRIDGES|K7S1 020455Z AUTO 13004KT 40SM 19/M02 A2986 RMK AO1 T01891016
PLAINS      |KS34 020455Z AUTO 00000KT 25SM 15/02 A2979 RMK AO1 T01500022






000
SXUS55 KMSO 020443
OSOMSO
MONTANA AWOS SUMMARY
NATIONAL WEATHER SERVICE MISSOULA MT
1043 PM MDT TUE SEP 1 2015

Montana AWOS Reports

LAUREL      |K6S8 020435Z AUTO 00000KT 40SM 21/M01 A2980 RMK AO1 T02111010
ROUNDUP     |KRPX 020435Z AUTO 40SM 21/00 A2975 RMK AO1 T02110000
MALTA       |KM75 020435Z AUTO 00000KT 40SM 14/04 A2973 RMK AO1 T01440039






000
SXUS55 KMSO 020423
OSOMSO
MONTANA AWOS SUMMARY
NATIONAL WEATHER SERVICE MISSOULA MT
1023 PM MDT TUE SEP 1 2015

Montana AWOS Reports

LAUREL      |K6S8 020415Z AUTO 00000KT 40SM 22/M01 A2981 RMK AO1 T02171010
ROUNDUP     |KRPX 020415Z AUTO 40SM 22/00 A2975 RMK AO1 T02220000
MALTA       |KM75 020415Z AUTO 00000KT 40SM 16/03 A2974 RMK AO1 T01610033






000
SXUS55 KMSO 020423
OSOMSO
MONTANA AWOS SUMMARY
NATIONAL WEATHER SERVICE MISSOULA MT
1023 PM MDT TUE SEP 1 2015

Montana AWOS Reports

LAUREL      |K6S8 020415Z AUTO 00000KT 40SM 22/M01 A2981 RMK AO1 T02171010
ROUNDUP     |KRPX 020415Z AUTO 40SM 22/00 A2975 RMK AO1 T02220000
MALTA       |KM75 020415Z AUTO 00000KT 40SM 16/03 A2974 RMK AO1 T01610033






000
SXUS55 KMSO 020404
OSOMSO
MONTANA AWOS SUMMARY
NATIONAL WEATHER SERVICE MISSOULA MT
1004 PM MDT TUE SEP 1 2015

Montana AWOS Reports

LAUREL      |K6S8 020355Z AUTO 00000KT 40SM 22/M01 A2981 RMK AO1 T02221005
ROUNDUP     |KRPX 020355Z AUTO 40SM 22/00 A2976 RMK AO1 T02220000
MALTA       |KM75 020355Z AUTO 00000KT 40SM 15/03 A2974 RMK AO1 T01500028
SCOBEY      |K9S2 020355Z AUTO 00000KT 25SM 13/03 A2981 RMK AO1 T01330033
EKALAKA     |K97M 020355Z AUTO 14005KT 40SM 24/03 A2986 RMK AO1 T02390033






000
SXUS55 KMSO 020343
OSOMSO
MONTANA AWOS SUMMARY
NATIONAL WEATHER SERVICE MISSOULA MT
943 PM MDT TUE SEP 1 2015

Montana AWOS Reports

LAUREL      |K6S8 020335Z AUTO 00000KT 40SM 23/M01 A2981 RMK AO1 T02281005
TWIN BRIDGES|K7S1 020335Z AUTO 00000KT 40SM 22/M01 A2985 RMK AO1 T02171010
ROUNDUP     |KRPX 020335Z AUTO 40SM 21/M01 A2976 RMK AO1 T02111005
MALTA       |KM75 020335Z AUTO 00000KT 40SM 15/05 A2974 RMK AO1 T01500050






000
SXUS55 KMSO 020333
OSOMSO
MONTANA AWOS SUMMARY
NATIONAL WEATHER SERVICE MISSOULA MT
933 PM MDT TUE SEP 1 2015

Montana AWOS Reports

ROUNDUP     |KRPX 020315Z AUTO 00000KT 40SM 22/00 A2975 RMK AO1 T02220000
MALTA       |KM75 020315Z AUTO 00000KT 40SM 17/05 A2974 RMK AO1 T01720050






000
SXUS55 KMSO 020323
OSOMSO
MONTANA AWOS SUMMARY
NATIONAL WEATHER SERVICE MISSOULA MT
923 PM MDT TUE SEP 1 2015

Montana AWOS Reports

LAUREL      |K6S8 020315Z AUTO 00000KT 40SM 23/00 A2981 RMK AO1 T02280000
TWIN BRIDGES|K7S1 020315Z AUTO 10008KT 40SM 24/M03 A2984 RMK AO1 T02391027






000
SXUS55 KMSO 020304
OSOMSO
MONTANA AWOS SUMMARY
NATIONAL WEATHER SERVICE MISSOULA MT
903 PM MDT TUE SEP 1 2015

Montana AWOS Reports

EKALAKA     |K97M 020155Z AUTO 00000KT 40SM 23/04 A2986 RMK AO1 T02330044
PLAINS      |KS34 020155Z AUTO 00000KT 40SM 25/01 A2977 RMK AO1 T02500011
SCOBEY      |K9S2 020155Z AUTO 00000KT 40SM 23/05 A2980 RMK AO1 T02280050
TWIN BRIDGES|K7S1 020255Z AUTO 09007KT 40SM 24/M02 A2984 RMK AO1 T02391021
SCOBEY      |K9S2 020255Z AUTO 00000KT 25SM 16/05 A2981 RMK AO1 T01560050
EKALAKA     |K97M 020255Z AUTO 00000KT 40SM 19/05 A2986 RMK AO1 T01940050
LAUREL      |K6S8 020255Z AUTO 00000KT 25SM 23/00 A2981 RMK AO1 T02330000
ROUNDUP     |KRPX 020255Z AUTO 40SM 23/M01 A2975 RMK AO1 T02281005
MALTA       |KM75 020255Z AUTO 00000KT 40SM 19/02 A2975 RMK AO1 T01890022
PLAINS      |KS34 020255Z AUTO 00000KT 15SM 20/01 A2978 RMK AO1 T02000006






000
SXUS55 KMSO 020253
OSOMSO
MONTANA AWOS SUMMARY
NATIONAL WEATHER SERVICE MISSOULA MT
853 PM MDT TUE SEP 1 2015

Montana AWOS Reports

MALTA       |KM75 020155Z AUTO 00000KT 40SM 23/02 A2973 RMK AO1 T02330022






000
SXUS55 KMSO 020253
OSOMSO
MONTANA AWOS SUMMARY
NATIONAL WEATHER SERVICE MISSOULA MT
853 PM MDT TUE SEP 1 2015

Montana AWOS Reports

MALTA       |KM75 020155Z AUTO 00000KT 40SM 23/02 A2973 RMK AO1 T02330022






000
SXUS55 KMSO 020243
OSOMSO
MONTANA AWOS SUMMARY
NATIONAL WEATHER SERVICE MISSOULA MT
843 PM MDT TUE SEP 1 2015

Montana AWOS Reports

LAUREL      |K6S8 020235Z AUTO 00000KT 40SM 24/00 A2981 RMK AO1 T02390000
ROUNDUP     |KRPX 020235Z AUTO 00000KT 40SM 24/M02 A2974 RMK AO1 T02441016






000
SXUS55 KMSO 020233
OSOMSO
MONTANA AWOS SUMMARY
NATIONAL WEATHER SERVICE MISSOULA MT
833 PM MDT TUE SEP 1 2015

Montana AWOS Reports

ROUNDUP     |KRPX 020215Z AUTO 00000KT 40SM 26/M05 A2974 RMK AO1 T02611049
MALTA       |KM75 020215Z AUTO 00000KT 40SM 22/02 A2974 RMK AO1 T02170017






000
SXUS55 KMSO 020223
OSOMSO
MONTANA AWOS SUMMARY
NATIONAL WEATHER SERVICE MISSOULA MT
823 PM MDT TUE SEP 1 2015

Montana AWOS Reports

LAUREL      |K6S8 020215Z AUTO 00000KT 40SM 24/01 A2980 RMK AO1 T02440006
TWIN BRIDGES|K7S1 020215Z AUTO 08008KT 40SM 26/M02 A2983 RMK AO1 T02611016






000
SXUS55 KMSO 020223
OSOMSO
MONTANA AWOS SUMMARY
NATIONAL WEATHER SERVICE MISSOULA MT
823 PM MDT TUE SEP 1 2015

Montana AWOS Reports

LAUREL      |K6S8 020215Z AUTO 00000KT 40SM 24/01 A2980 RMK AO1 T02440006
TWIN BRIDGES|K7S1 020215Z AUTO 08008KT 40SM 26/M02 A2983 RMK AO1 T02611016






000
SXUS55 KMSO 020203
OSOMSO
MONTANA AWOS SUMMARY
NATIONAL WEATHER SERVICE MISSOULA MT
803 PM MDT TUE SEP 1 2015

Montana AWOS Reports

LAUREL      |K6S8 020155Z AUTO 00000KT 40SM 26/01 A2980 RMK AO1 T02560011
TWIN BRIDGES|K7S1 020155Z AUTO 08006KT 40SM 26/M03 A2983 RMK AO1 T02611027
ROUNDUP     |KRPX 020155Z AUTO 00000KT 40SM 28/M06 A2974 RMK AO1 T02781055






000
SXUS55 KMSO 020153
OSOMSO
MONTANA AWOS SUMMARY
NATIONAL WEATHER SERVICE MISSOULA MT
753 PM MDT TUE SEP 1 2015

Montana AWOS Reports

LAUREL      |K6S8 020135Z AUTO 00000KT 40SM 28/02 A2980 RMK AO1 T02780022
ROUNDUP     |KRPX 020135Z AUTO 00000KT 40SM 29/M05 A2974 RMK AO1 T02891049
MALTA       |KM75 020135Z AUTO 00000KT 40SM 24/03 A2973 RMK AO1 T02440033






000
SXUS55 KMSO 020153
OSOMSO
MONTANA AWOS SUMMARY
NATIONAL WEATHER SERVICE MISSOULA MT
753 PM MDT TUE SEP 1 2015

Montana AWOS Reports

LAUREL      |K6S8 020135Z AUTO 00000KT 40SM 28/02 A2980 RMK AO1 T02780022
ROUNDUP     |KRPX 020135Z AUTO 00000KT 40SM 29/M05 A2974 RMK AO1 T02891049
MALTA       |KM75 020135Z AUTO 00000KT 40SM 24/03 A2973 RMK AO1 T02440033






000
SXUS55 KMSO 020143
OSOMSO
MONTANA AWOS SUMMARY
NATIONAL WEATHER SERVICE MISSOULA MT
742 PM MDT TUE SEP 1 2015

Montana AWOS Reports

TWIN BRIDGES|K7S1 020135Z AUTO 08006KT 40SM 27/M02 A2984 RMK AO1 T02671021






000
SXUS55 KMSO 020133
OSOMSO
MONTANA AWOS SUMMARY
NATIONAL WEATHER SERVICE MISSOULA MT
733 PM MDT TUE SEP 1 2015

Montana AWOS Reports

LAUREL      |K6S8 020115Z AUTO 00000KT 40SM 29/02 A2979 RMK AO1 T02940017
ROUNDUP     |KRPX 020115Z AUTO 00000KT 40SM 29/M04 A2973 RMK AO1 T02941043
MALTA       |KM75 020115Z AUTO 00000KT 40SM 27/03 A2972 RMK AO1 T02720028






000
SXUS55 KMSO 020123
OSOMSO
MONTANA AWOS SUMMARY
NATIONAL WEATHER SERVICE MISSOULA MT
723 PM MDT TUE SEP 1 2015

Montana AWOS Reports

TWIN BRIDGES|K7S1 020115Z AUTO 10005KT 40SM 28/M01 A2984 RMK AO1 T02781010






000
SXUS55 KMSO 020113
OSOMSO
MONTANA AWOS SUMMARY
NATIONAL WEATHER SERVICE MISSOULA MT
713 PM MDT TUE SEP 1 2015

Montana AWOS Reports

EKALAKA     |K97M 020055Z AUTO 00000KT 25SM 29/06 A2985 RMK AO1 T02890061






000
SXUS55 KMSO 020113
OSOMSO
MONTANA AWOS SUMMARY
NATIONAL WEATHER SERVICE MISSOULA MT
713 PM MDT TUE SEP 1 2015

Montana AWOS Reports

EKALAKA     |K97M 020055Z AUTO 00000KT 25SM 29/06 A2985 RMK AO1 T02890061






000
SXUS55 KMSO 020103
OSOMSO
MONTANA AWOS SUMMARY
NATIONAL WEATHER SERVICE MISSOULA MT
703 PM MDT TUE SEP 1 2015

Montana AWOS Reports

LAUREL      |K6S8 020055Z AUTO 00000KT 40SM 31/01 A2979 RMK AO1 T03060011
TWIN BRIDGES|K7S1 020055Z AUTO 11004KT 40SM 28/01 A2984 RMK AO1 T02780006
ROUNDUP     |KRPX 020055Z AUTO 00000KT 40SM 32/M02 A2973 RMK AO1 T03171016
MALTA       |KM75 020055Z AUTO 00000KT 40SM 29/04 A2972 RMK AO1 T02890039






000
SXUS55 KMSO 020043
OSOMSO
MONTANA AWOS SUMMARY
NATIONAL WEATHER SERVICE MISSOULA MT
643 PM MDT TUE SEP 1 2015

Montana AWOS Reports

LAUREL      |K6S8 020035Z AUTO 02004KT 40SM 31/M01 A2980 RMK AO1 T03111005
ROUNDUP     |KRPX 020035Z AUTO 00000KT 40SM 32/M02 A2973 RMK AO1 T03221021
MALTA       |KM75 020035Z AUTO 00000KT 40SM 29/03 A2972 RMK AO1 T02940033






000
SXUS55 KMSO 020033
OSOMSO
MONTANA AWOS SUMMARY
NATIONAL WEATHER SERVICE MISSOULA MT
632 PM MDT TUE SEP 1 2015

Montana AWOS Reports

MALTA       |KM75 012355Z AUTO 21004KT 40SM 30/03 A2973 RMK AO1 T03000028






000
SXUS55 KMSO 020024
OSOMSO
MONTANA AWOS SUMMARY
NATIONAL WEATHER SERVICE MISSOULA MT
623 PM MDT TUE SEP 1 2015

Montana AWOS Reports

TWIN BRIDGES|K7S1 020015Z AUTO 12006KT 40SM 29/01 A2985 RMK AO1 T02890006
LAUREL      |K6S8 020015Z AUTO 00000KT 40SM 32/M01 A2980 RMK AO1 T03171005
ROUNDUP     |KRPX 020015Z AUTO 00000KT 40SM 32/M03 A2973 RMK AO1 T03171027
MALTA       |KM75 020015Z AUTO 00000KT 40SM 29/03 A2973 RMK AO1 T02940033






000
SXUS55 KMSO 020013
OSOMSO
MONTANA AWOS SUMMARY
NATIONAL WEATHER SERVICE MISSOULA MT
613 PM MDT TUE SEP 1 2015

Montana AWOS Reports

LAUREL      |K6S8 012355Z AUTO 00000KT 40SM 32/M01 A2980 RMK AO1 T03221010
ROUNDUP     |KRPX 012355Z AUTO 40SM 32/M03 A2973 RMK AO1 T03171027






000
SXUS55 KMSO 020003
OSOMSO
MONTANA AWOS SUMMARY
NATIONAL WEATHER SERVICE MISSOULA MT
603 PM MDT TUE SEP 1 2015

Montana AWOS Reports

TWIN BRIDGES|K7S1 012355Z AUTO 13007KT 40SM 28/00 A2986 RMK AO1 T02830000
SCOBEY      |K9S2 012355Z AUTO 26009G15KT 25SM 28/06 A2978 RMK AO1 T02830056
EKALAKA     |K97M 012355Z AUTO 00000KT 40SM 30/06 A2985 RMK AO1 T03000056
PLAINS      |KS34 012355Z AUTO 23007KT 25SM 27/00 A2978 RMK AO1 T02720000






000
SXUS55 KMSO 012343
OSOMSO
MONTANA AWOS SUMMARY
NATIONAL WEATHER SERVICE MISSOULA MT
543 PM MDT TUE SEP 1 2015

Montana AWOS Reports

LAUREL      |K6S8 012335Z AUTO 03004KT 40SM 32/M01 A2980 RMK AO1 T03221010
ROUNDUP     |KRPX 012335Z AUTO 00000KT 40SM 32/M02 A2973 RMK AO1 T03221021
MALTA       |KM75 012335Z AUTO 20005KT 40SM 30/03 A2973 RMK AO1 T03000028






000
SXUS55 KMSO 012323
OSOMSO
MONTANA AWOS SUMMARY
NATIONAL WEATHER SERVICE MISSOULA MT
523 PM MDT TUE SEP 1 2015

Montana AWOS Reports

LAUREL      |K6S8 012315Z AUTO 00000KT 40SM 32/00 A2980 RMK AO1 T03220000
TWIN BRIDGES|K7S1 012315Z AUTO 19006KT 40SM 27/00 A2987 RMK AO1 T02720000
ROUNDUP     |KRPX 012315Z AUTO 00000KT 40SM 32/M02 A2973 RMK AO1 T03171016
MALTA       |KM75 012315Z AUTO 24004KT 40SM 31/03 A2973 RMK AO1 T03060028






000
SXUS55 KMSO 012303
OSOMSO
MONTANA AWOS SUMMARY
NATIONAL WEATHER SERVICE MISSOULA MT
503 PM MDT TUE SEP 1 2015

Montana AWOS Reports

ROUNDUP     |KRPX 012255Z AUTO 21010KT 40SM 32/M02 A2974 RMK AO1 T03221021
MALTA       |KM75 012255Z AUTO 21005KT 40SM 31/04 A2973 RMK AO1 T03110039
SCOBEY      |K9S2 012255Z AUTO 40SM 29/05 A2977 RMK AO1 T02890050
EKALAKA     |K97M 012255Z AUTO 00000KT 40SM 30/04 A2984 RMK AO1 T03000039
MALTA       |KM75 012255Z AUTO 21005KT 40SM 31/04 A2973 RMK AO1 T03110039






000
SXUS55 KMSO 012243
OSOMSO
MONTANA AWOS SUMMARY
NATIONAL WEATHER SERVICE MISSOULA MT
442 PM MDT TUE SEP 1 2015

Montana AWOS Reports

ROUNDUP     |KRPX 012235Z AUTO 20009KT 40SM 32/M03 A2974 RMK AO1 T03171027






000
SXUS55 KMSO 012243
OSOMSO
MONTANA AWOS SUMMARY
NATIONAL WEATHER SERVICE MISSOULA MT
442 PM MDT TUE SEP 1 2015

Montana AWOS Reports

ROUNDUP     |KRPX 012235Z AUTO 20009KT 40SM 32/M03 A2974 RMK AO1 T03171027






000
SXUS55 KMSO 012223
OSOMSO
MONTANA AWOS SUMMARY
NATIONAL WEATHER SERVICE MISSOULA MT
423 PM MDT TUE SEP 1 2015

Montana AWOS Reports

TWIN BRIDGES|K7S1 012215Z AUTO 19012G18KT 40SM 28/03 A2988 RMK AO1 T02830033
LAUREL      |K6S8 012215Z AUTO 00000KT 40SM 32/M01 A2981 RMK AO1 T03171005
ROUNDUP     |KRPX 012215Z AUTO 23006KT 40SM 32/M02 A2974 RMK AO1 T03171016






000
SXUS55 KMSO 012223
OSOMSO
MONTANA AWOS SUMMARY
NATIONAL WEATHER SERVICE MISSOULA MT
423 PM MDT TUE SEP 1 2015

Montana AWOS Reports

TWIN BRIDGES|K7S1 012215Z AUTO 19012G18KT 40SM 28/03 A2988 RMK AO1 T02830033
LAUREL      |K6S8 012215Z AUTO 00000KT 40SM 32/M01 A2981 RMK AO1 T03171005
ROUNDUP     |KRPX 012215Z AUTO 23006KT 40SM 32/M02 A2974 RMK AO1 T03171016






000
SXUS55 KMSO 012203
OSOMSO
MONTANA AWOS SUMMARY
NATIONAL WEATHER SERVICE MISSOULA MT
403 PM MDT TUE SEP 1 2015

Montana AWOS Reports

LAUREL      |K6S8 012155Z AUTO 06006KT 40SM 32/00 A2982 RMK AO1 T03220000
ROUNDUP     |KRPX 012155Z AUTO 21007KT 40SM 32/M02 A2974 RMK AO1 T03171016
SCOBEY      |K9S2 012155Z AUTO 25011KT 40SM 29/06 A2976 RMK AO1 T02940061
EKALAKA     |K97M 012155Z AUTO 30005KT 40SM 31/03 A2984 RMK AO1 T03060028
MALTA       |KM75 012155Z AUTO 00000KT 40SM 31/05 A2972 RMK AO1 T03060050
MALTA       |KM75 012155Z AUTO 00000KT 40SM 31/05 A2972 RMK AO1 T03060050






000
SXUS55 KMSO 012143
OSOMSO
MONTANA AWOS SUMMARY
NATIONAL WEATHER SERVICE MISSOULA MT
343 PM MDT TUE SEP 1 2015

Montana AWOS Reports

LAUREL      |K6S8 012135Z AUTO 06007KT 40SM 32/M01 A2982 RMK AO1 T03171005
ROUNDUP     |KRPX 012135Z AUTO 17007KT 40SM 31/M01 A2975 RMK AO1 T03111005
MALTA       |KM75 012135Z AUTO 00000KT 40SM 31/07 A2972 RMK AO1 T03060072






000
SXUS55 KMSO 012123
OSOMSO
MONTANA AWOS SUMMARY
NATIONAL WEATHER SERVICE MISSOULA MT
322 PM MDT TUE SEP 1 2015

Montana AWOS Reports

LAUREL      |K6S8 012115Z AUTO 00000KT 40SM 32/M02 A2982 RMK AO1 T03221021
TWIN BRIDGES|K7S1 012115Z AUTO 17008KT 40SM 28/02 A2991 RMK AO1 T02830017
ROUNDUP     |KRPX 012115Z AUTO 18005KT 40SM 31/M01 A2976 RMK AO1 T03111005
MALTA       |KM75 012115Z AUTO 00000KT 40SM 30/07 A2972 RMK AO1 T03000067






000
SXUS55 KMSO 012113
OSOMSO
MONTANA AWOS SUMMARY
NATIONAL WEATHER SERVICE MISSOULA MT
313 PM MDT TUE SEP 1 2015

Montana AWOS Reports

ROUNDUP     |KRPX 012055Z AUTO 24005KT 40SM 31/01 A2976 RMK AO1 T03110006
MALTA       |KM75 012055Z AUTO 00000KT 40SM 29/06 A2973 RMK AO1 T02890061






000
SXUS55 KMSO 012113
OSOMSO
MONTANA AWOS SUMMARY
NATIONAL WEATHER SERVICE MISSOULA MT
313 PM MDT TUE SEP 1 2015

Montana AWOS Reports

ROUNDUP     |KRPX 012055Z AUTO 24005KT 40SM 31/01 A2976 RMK AO1 T03110006
MALTA       |KM75 012055Z AUTO 00000KT 40SM 29/06 A2973 RMK AO1 T02890061






    US Dept of Commerce
    National Oceanic and Atmospheric Administration
    National Weather Service
    1325 East West Highway
    Silver Spring, MD 20910
    Page Author: NWS Internet Services Team
Disclaimer
Information Quality
Credits
Glossary
Privacy Policy
Freedom of Information Act (FOIA)
About Us
Career Opportunities